<?xml version="1.0" encoding="UTF-8" standalone="no" ?>
<gpx xmlns="http://www.topografix.com/GPX/1/1" xmlns:xsi="http://www.w3.org/2001/XMLSchema-instance" xsi:schemaLocation="http://www.topografix.com/GPX/1/1 http://www.topografix.com/GPX/1/1/gpx.xsd" version="1.1" creator="VisuGPX - https://www.visugpx.com">
  <metadata>
    <name>Arche de l'aup du seuil</name>
    <desc><![CDATA[Arche de l'aup du seuil]]></desc>
  </metadata>
  <trk>
    <name><![CDATA[Arche cachée]]></name>
    <cmt><![CDATA[Avec Patrick Blanc et Nicolas Degaches. Belle boucle avec sortie à L'Aulp du seuil.]]></cmt>
    <trkseg>
      <trkpt lat="45.35602" lon="5.91865">
        <ele>1105.1728515625</ele>
        <time>2010-11-14T06:35:32Z</time>
      </trkpt>
      <trkpt lat="45.35603" lon="5.91864">
        <ele>1105.1728515625</ele>
        <time>2010-11-14T06:35:33Z</time>
      </trkpt>
      <trkpt lat="45.35606" lon="5.91861">
        <ele>1102.2888183594</ele>
        <time>2010-11-14T06:35:37Z</time>
      </trkpt>
      <trkpt lat="45.35609" lon="5.91857">
        <ele>1097.962890625</ele>
        <time>2010-11-14T06:35:40Z</time>
      </trkpt>
      <trkpt lat="45.35612" lon="5.91853">
        <ele>1094.5981445312</ele>
        <time>2010-11-14T06:35:43Z</time>
      </trkpt>
      <trkpt lat="45.3562" lon="5.91851">
        <ele>1091.2336425781</ele>
        <time>2010-11-14T06:35:47Z</time>
      </trkpt>
      <trkpt lat="45.35627" lon="5.91847">
        <ele>1086.9077148438</ele>
        <time>2010-11-14T06:35:52Z</time>
      </trkpt>
      <trkpt lat="45.35628" lon="5.91845">
        <ele>1085.9465332031</ele>
        <time>2010-11-14T06:35:53Z</time>
      </trkpt>
      <trkpt lat="45.35629" lon="5.91839">
        <ele>1082.5817871094</ele>
        <time>2010-11-14T06:35:57Z</time>
      </trkpt>
      <trkpt lat="45.35628" lon="5.9183">
        <ele>1080.6591796875</ele>
        <time>2010-11-14T06:36:01Z</time>
      </trkpt>
      <trkpt lat="45.35627" lon="5.91826">
        <ele>1080.1784667969</ele>
        <time>2010-11-14T06:36:03Z</time>
      </trkpt>
      <trkpt lat="45.35626" lon="5.91807">
        <ele>1076.3332519531</ele>
        <time>2010-11-14T06:36:11Z</time>
      </trkpt>
      <trkpt lat="45.35625" lon="5.91797">
        <ele>1073.4494628906</ele>
        <time>2010-11-14T06:36:18Z</time>
      </trkpt>
      <trkpt lat="45.35624" lon="5.91794">
        <ele>1071.5266113281</ele>
        <time>2010-11-14T06:36:21Z</time>
      </trkpt>
      <trkpt lat="45.35621" lon="5.91777">
        <ele>1073.4494628906</ele>
        <time>2010-11-14T06:36:33Z</time>
      </trkpt>
      <trkpt lat="45.35619" lon="5.91763">
        <ele>1074.8913574219</ele>
        <time>2010-11-14T06:36:43Z</time>
      </trkpt>
      <trkpt lat="45.35614" lon="5.91764">
        <ele>1075.8525390625</ele>
        <time>2010-11-14T06:36:47Z</time>
      </trkpt>
      <trkpt lat="45.35599" lon="5.91761">
        <ele>1078.255859375</ele>
        <time>2010-11-14T06:37:05Z</time>
      </trkpt>
      <trkpt lat="45.35599" lon="5.91759">
        <ele>1079.2170410156</ele>
        <time>2010-11-14T06:37:07Z</time>
      </trkpt>
      <trkpt lat="45.35597" lon="5.91748">
        <ele>1081.6203613281</ele>
        <time>2010-11-14T06:37:22Z</time>
      </trkpt>
      <trkpt lat="45.35595" lon="5.91729">
        <ele>1085.4658203125</ele>
        <time>2010-11-14T06:37:39Z</time>
      </trkpt>
      <trkpt lat="45.35594" lon="5.91717">
        <ele>1088.3498535156</ele>
        <time>2010-11-14T06:37:57Z</time>
      </trkpt>
      <trkpt lat="45.35604" lon="5.91706">
        <ele>1091.7143554688</ele>
        <time>2010-11-14T06:38:13Z</time>
      </trkpt>
      <trkpt lat="45.35621" lon="5.91683">
        <ele>1095.0788574219</ele>
        <time>2010-11-14T06:38:36Z</time>
      </trkpt>
      <trkpt lat="45.35633" lon="5.91666">
        <ele>1098.443359375</ele>
        <time>2010-11-14T06:38:55Z</time>
      </trkpt>
      <trkpt lat="45.35649" lon="5.91646">
        <ele>1101.3276367188</ele>
        <time>2010-11-14T06:39:18Z</time>
      </trkpt>
      <trkpt lat="45.35649" lon="5.91645">
        <ele>1101.3276367188</ele>
        <time>2010-11-14T06:39:19Z</time>
      </trkpt>
      <trkpt lat="45.35662" lon="5.91624">
        <ele>1103.7309570312</ele>
        <time>2010-11-14T06:39:35Z</time>
      </trkpt>
      <trkpt lat="45.35673" lon="5.91611">
        <ele>1106.6147460938</ele>
        <time>2010-11-14T06:39:51Z</time>
      </trkpt>
      <trkpt lat="45.35682" lon="5.91593">
        <ele>1109.9792480469</ele>
        <time>2010-11-14T06:40:08Z</time>
      </trkpt>
      <trkpt lat="45.35676" lon="5.91583">
        <ele>1111.4213867188</ele>
        <time>2010-11-14T06:40:14Z</time>
      </trkpt>
      <trkpt lat="45.35681" lon="5.91567">
        <ele>1114.3051757812</ele>
        <time>2010-11-14T06:40:28Z</time>
      </trkpt>
      <trkpt lat="45.35692" lon="5.91559">
        <ele>1117.189453125</ele>
        <time>2010-11-14T06:40:44Z</time>
      </trkpt>
      <trkpt lat="45.35707" lon="5.91542">
        <ele>1120.5539550781</ele>
        <time>2010-11-14T06:41:00Z</time>
      </trkpt>
      <trkpt lat="45.35714" lon="5.91533">
        <ele>1123.9184570312</ele>
        <time>2010-11-14T06:41:15Z</time>
      </trkpt>
      <trkpt lat="45.3572" lon="5.91523">
        <ele>1127.283203125</ele>
        <time>2010-11-14T06:41:30Z</time>
      </trkpt>
      <trkpt lat="45.35731" lon="5.91505">
        <ele>1130.1669921875</ele>
        <time>2010-11-14T06:41:46Z</time>
      </trkpt>
      <trkpt lat="45.35746" lon="5.91486">
        <ele>1133.5317382812</ele>
        <time>2010-11-14T06:42:06Z</time>
      </trkpt>
      <trkpt lat="45.35752" lon="5.91472">
        <ele>1137.376953125</ele>
        <time>2010-11-14T06:42:24Z</time>
      </trkpt>
      <trkpt lat="45.35759" lon="5.91457">
        <ele>1140.2609863281</ele>
        <time>2010-11-14T06:42:41Z</time>
      </trkpt>
      <trkpt lat="45.3576" lon="5.91438">
        <ele>1143.6254882812</ele>
        <time>2010-11-14T06:42:58Z</time>
      </trkpt>
      <trkpt lat="45.35764" lon="5.91421">
        <ele>1146.5095214844</ele>
        <time>2010-11-14T06:43:14Z</time>
      </trkpt>
      <trkpt lat="45.35764" lon="5.91391">
        <ele>1149.3935546875</ele>
        <time>2010-11-14T06:43:36Z</time>
      </trkpt>
      <trkpt lat="45.3577" lon="5.91377">
        <ele>1152.27734375</ele>
        <time>2010-11-14T06:43:51Z</time>
      </trkpt>
      <trkpt lat="45.35771" lon="5.91373">
        <ele>1153.2387695312</ele>
        <time>2010-11-14T06:43:55Z</time>
      </trkpt>
      <trkpt lat="45.35771" lon="5.91361">
        <ele>1155.1613769531</ele>
        <time>2010-11-14T06:44:07Z</time>
      </trkpt>
      <trkpt lat="45.3577" lon="5.91347">
        <ele>1155.6420898438</ele>
        <time>2010-11-14T06:44:24Z</time>
      </trkpt>
      <trkpt lat="45.35768" lon="5.91345">
        <ele>1156.6032714844</ele>
        <time>2010-11-14T06:45:27Z</time>
      </trkpt>
      <trkpt lat="45.35761" lon="5.91343">
        <ele>1156.6032714844</ele>
        <time>2010-11-14T06:45:31Z</time>
      </trkpt>
      <trkpt lat="45.35755" lon="5.91333">
        <ele>1158.5258789062</ele>
        <time>2010-11-14T06:45:43Z</time>
      </trkpt>
      <trkpt lat="45.35756" lon="5.91333">
        <ele>1159.9677734375</ele>
        <time>2010-11-14T06:45:51Z</time>
      </trkpt>
      <trkpt lat="45.35751" lon="5.91316">
        <ele>1162.37109375</ele>
        <time>2010-11-14T06:46:02Z</time>
      </trkpt>
      <trkpt lat="45.35763" lon="5.91308">
        <ele>1165.2553710938</ele>
        <time>2010-11-14T06:46:15Z</time>
      </trkpt>
      <trkpt lat="45.3577" lon="5.91295">
        <ele>1168.6198730469</ele>
        <time>2010-11-14T06:46:32Z</time>
      </trkpt>
      <trkpt lat="45.35762" lon="5.91295">
        <ele>1171.5036621094</ele>
        <time>2010-11-14T06:46:45Z</time>
      </trkpt>
      <trkpt lat="45.35789" lon="5.91278">
        <ele>1173.9069824219</ele>
        <time>2010-11-14T06:47:04Z</time>
      </trkpt>
      <trkpt lat="45.35786" lon="5.91267">
        <ele>1176.3103027344</ele>
        <time>2010-11-14T06:47:24Z</time>
      </trkpt>
      <trkpt lat="45.35808" lon="5.91279">
        <ele>1179.1940917969</ele>
        <time>2010-11-14T06:47:44Z</time>
      </trkpt>
      <trkpt lat="45.35823" lon="5.91272">
        <ele>1182.0783691406</ele>
        <time>2010-11-14T06:47:57Z</time>
      </trkpt>
      <trkpt lat="45.35831" lon="5.91247">
        <ele>1185.4428710938</ele>
        <time>2010-11-14T06:48:15Z</time>
      </trkpt>
      <trkpt lat="45.35839" lon="5.9124">
        <ele>1187.3654785156</ele>
        <time>2010-11-14T06:48:27Z</time>
      </trkpt>
      <trkpt lat="45.35842" lon="5.91235">
        <ele>1189.7687988281</ele>
        <time>2010-11-14T06:48:37Z</time>
      </trkpt>
      <trkpt lat="45.35853" lon="5.91218">
        <ele>1191.2106933594</ele>
        <time>2010-11-14T06:48:51Z</time>
      </trkpt>
      <trkpt lat="45.35852" lon="5.91217">
        <ele>1191.69140625</ele>
        <time>2010-11-14T06:48:54Z</time>
      </trkpt>
      <trkpt lat="45.35855" lon="5.91212">
        <ele>1193.1333007812</ele>
        <time>2010-11-14T06:49:09Z</time>
      </trkpt>
      <trkpt lat="45.3586" lon="5.91217">
        <ele>1193.6140136719</ele>
        <time>2010-11-14T06:49:15Z</time>
      </trkpt>
      <trkpt lat="45.35865" lon="5.91216">
        <ele>1194.0947265625</ele>
        <time>2010-11-14T06:49:17Z</time>
      </trkpt>
      <trkpt lat="45.35886" lon="5.91202">
        <ele>1197.4594726562</ele>
        <time>2010-11-14T06:49:37Z</time>
      </trkpt>
      <trkpt lat="45.35887" lon="5.91197">
        <ele>1200.3435058594</ele>
        <time>2010-11-14T06:49:52Z</time>
      </trkpt>
      <trkpt lat="45.35903" lon="5.91186">
        <ele>1203.7080078125</ele>
        <time>2010-11-14T06:50:13Z</time>
      </trkpt>
      <trkpt lat="45.35925" lon="5.91173">
        <ele>1206.591796875</ele>
        <time>2010-11-14T06:50:35Z</time>
      </trkpt>
      <trkpt lat="45.35928" lon="5.91171">
        <ele>1208.0339355469</ele>
        <time>2010-11-14T06:50:44Z</time>
      </trkpt>
      <trkpt lat="45.35947" lon="5.91165">
        <ele>1211.8791503906</ele>
        <time>2010-11-14T06:51:06Z</time>
      </trkpt>
      <trkpt lat="45.35955" lon="5.91163">
        <ele>1215.2438964844</ele>
        <time>2010-11-14T06:51:22Z</time>
      </trkpt>
      <trkpt lat="45.35964" lon="5.91144">
        <ele>1217.6469726562</ele>
        <time>2010-11-14T06:51:44Z</time>
      </trkpt>
      <trkpt lat="45.3597" lon="5.91144">
        <ele>1221.01171875</ele>
        <time>2010-11-14T06:51:55Z</time>
      </trkpt>
      <trkpt lat="45.35979" lon="5.91139">
        <ele>1223.8955078125</ele>
        <time>2010-11-14T06:52:12Z</time>
      </trkpt>
      <trkpt lat="45.35992" lon="5.91139">
        <ele>1227.2602539062</ele>
        <time>2010-11-14T06:52:35Z</time>
      </trkpt>
      <trkpt lat="45.36005" lon="5.91124">
        <ele>1230.1442871094</ele>
        <time>2010-11-14T06:52:49Z</time>
      </trkpt>
      <trkpt lat="45.36017" lon="5.9113">
        <ele>1233.5087890625</ele>
        <time>2010-11-14T06:53:07Z</time>
      </trkpt>
      <trkpt lat="45.36029" lon="5.91139">
        <ele>1236.3928222656</ele>
        <time>2010-11-14T06:53:25Z</time>
      </trkpt>
      <trkpt lat="45.3604" lon="5.91137">
        <ele>1239.7573242188</ele>
        <time>2010-11-14T06:53:38Z</time>
      </trkpt>
      <trkpt lat="45.36052" lon="5.91138">
        <ele>1242.6413574219</ele>
        <time>2010-11-14T06:53:57Z</time>
      </trkpt>
      <trkpt lat="45.36065" lon="5.91138">
        <ele>1245.525390625</ele>
        <time>2010-11-14T06:54:14Z</time>
      </trkpt>
      <trkpt lat="45.36079" lon="5.91137">
        <ele>1247.4479980469</ele>
        <time>2010-11-14T06:54:31Z</time>
      </trkpt>
      <trkpt lat="45.36098" lon="5.91139">
        <ele>1250.33203125</ele>
        <time>2010-11-14T06:54:47Z</time>
      </trkpt>
      <trkpt lat="45.36116" lon="5.91146">
        <ele>1253.6965332031</ele>
        <time>2010-11-14T06:55:03Z</time>
      </trkpt>
      <trkpt lat="45.36136" lon="5.91149">
        <ele>1256.5803222656</ele>
        <time>2010-11-14T06:55:23Z</time>
      </trkpt>
      <trkpt lat="45.36148" lon="5.91146">
        <ele>1259.9448242188</ele>
        <time>2010-11-14T06:55:37Z</time>
      </trkpt>
      <trkpt lat="45.36158" lon="5.91142">
        <ele>1263.3098144531</ele>
        <time>2010-11-14T06:55:49Z</time>
      </trkpt>
      <trkpt lat="45.3616" lon="5.91135">
        <ele>1266.6743164062</ele>
        <time>2010-11-14T06:55:59Z</time>
      </trkpt>
      <trkpt lat="45.3617" lon="5.91135">
        <ele>1268.1162109375</ele>
        <time>2010-11-14T06:56:13Z</time>
      </trkpt>
      <trkpt lat="45.36187" lon="5.91135">
        <ele>1268.5969238281</ele>
        <time>2010-11-14T06:56:27Z</time>
      </trkpt>
      <trkpt lat="45.36196" lon="5.91134">
        <ele>1269.0776367188</ele>
        <time>2010-11-14T06:56:36Z</time>
      </trkpt>
      <trkpt lat="45.36199" lon="5.91127">
        <ele>1270.51953125</ele>
        <time>2010-11-14T06:56:39Z</time>
      </trkpt>
      <trkpt lat="45.36216" lon="5.91131">
        <ele>1273.4035644531</ele>
        <time>2010-11-14T06:56:54Z</time>
      </trkpt>
      <trkpt lat="45.36221" lon="5.91132">
        <ele>1274.3647460938</ele>
        <time>2010-11-14T06:56:59Z</time>
      </trkpt>
      <trkpt lat="45.3623" lon="5.9113">
        <ele>1275.3259277344</ele>
        <time>2010-11-14T06:57:10Z</time>
      </trkpt>
      <trkpt lat="45.36251" lon="5.91122">
        <ele>1278.6909179688</ele>
        <time>2010-11-14T06:57:28Z</time>
      </trkpt>
      <trkpt lat="45.36267" lon="5.91119">
        <ele>1281.5747070312</ele>
        <time>2010-11-14T06:57:44Z</time>
      </trkpt>
      <trkpt lat="45.36288" lon="5.91127">
        <ele>1284.4587402344</ele>
        <time>2010-11-14T06:58:04Z</time>
      </trkpt>
      <trkpt lat="45.36308" lon="5.9112">
        <ele>1287.3425292969</ele>
        <time>2010-11-14T06:58:24Z</time>
      </trkpt>
      <trkpt lat="45.3631" lon="5.9112">
        <ele>1288.3039550781</ele>
        <time>2010-11-14T06:58:28Z</time>
      </trkpt>
      <trkpt lat="45.36319" lon="5.91117">
        <ele>1290.2265625</ele>
        <time>2010-11-14T06:58:38Z</time>
      </trkpt>
      <trkpt lat="45.3633" lon="5.91111">
        <ele>1291.1877441406</ele>
        <time>2010-11-14T06:58:48Z</time>
      </trkpt>
      <trkpt lat="45.36344" lon="5.91104">
        <ele>1292.6301269531</ele>
        <time>2010-11-14T06:59:02Z</time>
      </trkpt>
      <trkpt lat="45.36352" lon="5.91102">
        <ele>1293.5913085938</ele>
        <time>2010-11-14T06:59:08Z</time>
      </trkpt>
      <trkpt lat="45.36368" lon="5.91099">
        <ele>1295.5139160156</ele>
        <time>2010-11-14T06:59:22Z</time>
      </trkpt>
      <trkpt lat="45.36384" lon="5.911">
        <ele>1297.9172363281</ele>
        <time>2010-11-14T06:59:37Z</time>
      </trkpt>
      <trkpt lat="45.36393" lon="5.91098">
        <ele>1299.3591308594</ele>
        <time>2010-11-14T06:59:47Z</time>
      </trkpt>
      <trkpt lat="45.36406" lon="5.91091">
        <ele>1302.2429199219</ele>
        <time>2010-11-14T07:00:02Z</time>
      </trkpt>
      <trkpt lat="45.36416" lon="5.91082">
        <ele>1303.2043457031</ele>
        <time>2010-11-14T07:00:14Z</time>
      </trkpt>
      <trkpt lat="45.36417" lon="5.9108">
        <ele>1303.6850585938</ele>
        <time>2010-11-14T07:00:16Z</time>
      </trkpt>
      <trkpt lat="45.3642" lon="5.91076">
        <ele>1303.6850585938</ele>
        <time>2010-11-14T07:00:19Z</time>
      </trkpt>
      <trkpt lat="45.36424" lon="5.91061">
        <ele>1303.6850585938</ele>
        <time>2010-11-14T07:00:26Z</time>
      </trkpt>
      <trkpt lat="45.36427" lon="5.91053">
        <ele>1304.1657714844</ele>
        <time>2010-11-14T07:00:29Z</time>
      </trkpt>
      <trkpt lat="45.36426" lon="5.91037">
        <ele>1305.126953125</ele>
        <time>2010-11-14T07:00:39Z</time>
      </trkpt>
      <trkpt lat="45.36438" lon="5.91031">
        <ele>1306.0881347656</ele>
        <time>2010-11-14T07:00:48Z</time>
      </trkpt>
      <trkpt lat="45.36451" lon="5.9102">
        <ele>1307.5302734375</ele>
        <time>2010-11-14T07:01:01Z</time>
      </trkpt>
      <trkpt lat="45.36461" lon="5.91009">
        <ele>1308.9724121094</ele>
        <time>2010-11-14T07:01:10Z</time>
      </trkpt>
      <trkpt lat="45.3647" lon="5.90998">
        <ele>1309.453125</ele>
        <time>2010-11-14T07:01:19Z</time>
      </trkpt>
      <trkpt lat="45.36471" lon="5.90996">
        <ele>1310.4143066406</ele>
        <time>2010-11-14T07:01:21Z</time>
      </trkpt>
      <trkpt lat="45.36478" lon="5.90996">
        <ele>1310.8950195312</ele>
        <time>2010-11-14T07:01:27Z</time>
      </trkpt>
      <trkpt lat="45.36488" lon="5.90998">
        <ele>1312.8176269531</ele>
        <time>2010-11-14T07:01:38Z</time>
      </trkpt>
      <trkpt lat="45.36497" lon="5.91007">
        <ele>1314.2595214844</ele>
        <time>2010-11-14T07:01:48Z</time>
      </trkpt>
      <trkpt lat="45.36506" lon="5.9102">
        <ele>1317.1435546875</ele>
        <time>2010-11-14T07:02:04Z</time>
      </trkpt>
      <trkpt lat="45.36514" lon="5.91029">
        <ele>1318.5854492188</ele>
        <time>2010-11-14T07:02:16Z</time>
      </trkpt>
      <trkpt lat="45.36525" lon="5.9104">
        <ele>1319.546875</ele>
        <time>2010-11-14T07:02:29Z</time>
      </trkpt>
      <trkpt lat="45.36534" lon="5.91041">
        <ele>1320.9887695312</ele>
        <time>2010-11-14T07:02:38Z</time>
      </trkpt>
      <trkpt lat="45.36539" lon="5.9104">
        <ele>1321.4692382812</ele>
        <time>2010-11-14T07:02:42Z</time>
      </trkpt>
      <trkpt lat="45.36552" lon="5.91042">
        <ele>1323.3920898438</ele>
        <time>2010-11-14T07:02:55Z</time>
      </trkpt>
      <trkpt lat="45.36569" lon="5.9104">
        <ele>1324.8342285156</ele>
        <time>2010-11-14T07:03:13Z</time>
      </trkpt>
      <trkpt lat="45.36591" lon="5.91046">
        <ele>1326.2761230469</ele>
        <time>2010-11-14T07:03:31Z</time>
      </trkpt>
      <trkpt lat="45.36611" lon="5.91042">
        <ele>1326.2761230469</ele>
        <time>2010-11-14T07:03:52Z</time>
      </trkpt>
      <trkpt lat="45.36627" lon="5.91038">
        <ele>1326.7568359375</ele>
        <time>2010-11-14T07:04:10Z</time>
      </trkpt>
      <trkpt lat="45.36634" lon="5.91039">
        <ele>1326.7568359375</ele>
        <time>2010-11-14T07:04:19Z</time>
      </trkpt>
      <trkpt lat="45.36641" lon="5.9104">
        <ele>1326.7568359375</ele>
        <time>2010-11-14T07:04:23Z</time>
      </trkpt>
      <trkpt lat="45.36653" lon="5.91041">
        <ele>1327.7180175781</ele>
        <time>2010-11-14T07:04:34Z</time>
      </trkpt>
      <trkpt lat="45.36672" lon="5.91041">
        <ele>1328.6794433594</ele>
        <time>2010-11-14T07:04:51Z</time>
      </trkpt>
      <trkpt lat="45.36691" lon="5.91043">
        <ele>1330.6020507812</ele>
        <time>2010-11-14T07:05:12Z</time>
      </trkpt>
      <trkpt lat="45.36699" lon="5.91042">
        <ele>1331.5632324219</ele>
        <time>2010-11-14T07:05:19Z</time>
      </trkpt>
      <trkpt lat="45.36716" lon="5.91043">
        <ele>1334.447265625</ele>
        <time>2010-11-14T07:05:37Z</time>
      </trkpt>
      <trkpt lat="45.36729" lon="5.91034">
        <ele>1337.8117675781</ele>
        <time>2010-11-14T07:05:52Z</time>
      </trkpt>
      <trkpt lat="45.36744" lon="5.91027">
        <ele>1339.2536621094</ele>
        <time>2010-11-14T07:06:06Z</time>
      </trkpt>
      <trkpt lat="45.36763" lon="5.91025">
        <ele>1342.1379394531</ele>
        <time>2010-11-14T07:06:26Z</time>
      </trkpt>
      <trkpt lat="45.36786" lon="5.91027">
        <ele>1345.0217285156</ele>
        <time>2010-11-14T07:06:48Z</time>
      </trkpt>
      <trkpt lat="45.36798" lon="5.91024">
        <ele>1346.4638671875</ele>
        <time>2010-11-14T07:07:01Z</time>
      </trkpt>
      <trkpt lat="45.36805" lon="5.91025">
        <ele>1347.9057617188</ele>
        <time>2010-11-14T07:07:06Z</time>
      </trkpt>
      <trkpt lat="45.36816" lon="5.91027">
        <ele>1349.34765625</ele>
        <time>2010-11-14T07:07:19Z</time>
      </trkpt>
      <trkpt lat="45.36834" lon="5.91026">
        <ele>1352.7121582031</ele>
        <time>2010-11-14T07:07:34Z</time>
      </trkpt>
      <trkpt lat="45.36855" lon="5.91021">
        <ele>1354.634765625</ele>
        <time>2010-11-14T07:07:55Z</time>
      </trkpt>
      <trkpt lat="45.36879" lon="5.91019">
        <ele>1357.5190429688</ele>
        <time>2010-11-14T07:08:18Z</time>
      </trkpt>
      <trkpt lat="45.36896" lon="5.91021">
        <ele>1360.8835449219</ele>
        <time>2010-11-14T07:08:33Z</time>
      </trkpt>
      <trkpt lat="45.36908" lon="5.91012">
        <ele>1363.7673339844</ele>
        <time>2010-11-14T07:08:49Z</time>
      </trkpt>
      <trkpt lat="45.36914" lon="5.91011">
        <ele>1366.1706542969</ele>
        <time>2010-11-14T07:08:56Z</time>
      </trkpt>
      <trkpt lat="45.36923" lon="5.91011">
        <ele>1369.5354003906</ele>
        <time>2010-11-14T07:09:10Z</time>
      </trkpt>
      <trkpt lat="45.36935" lon="5.91011">
        <ele>1372.4194335938</ele>
        <time>2010-11-14T07:09:24Z</time>
      </trkpt>
      <trkpt lat="45.36946" lon="5.91011">
        <ele>1375.7839355469</ele>
        <time>2010-11-14T07:09:38Z</time>
      </trkpt>
      <trkpt lat="45.3695" lon="5.91001">
        <ele>1379.1484375</ele>
        <time>2010-11-14T07:09:50Z</time>
      </trkpt>
      <trkpt lat="45.36943" lon="5.9099">
        <ele>1380.5905761719</ele>
        <time>2010-11-14T07:10:06Z</time>
      </trkpt>
      <trkpt lat="45.36935" lon="5.90985">
        <ele>1381.5517578125</ele>
        <time>2010-11-14T07:10:17Z</time>
      </trkpt>
      <trkpt lat="45.36925" lon="5.90968">
        <ele>1384.4357910156</ele>
        <time>2010-11-14T07:10:35Z</time>
      </trkpt>
      <trkpt lat="45.3692" lon="5.90959">
        <ele>1387.8002929688</ele>
        <time>2010-11-14T07:10:45Z</time>
      </trkpt>
      <trkpt lat="45.36912" lon="5.90945">
        <ele>1390.6843261719</ele>
        <time>2010-11-14T07:11:02Z</time>
      </trkpt>
      <trkpt lat="45.36901" lon="5.90935">
        <ele>1394.0490722656</ele>
        <time>2010-11-14T07:11:17Z</time>
      </trkpt>
      <trkpt lat="45.36895" lon="5.9092">
        <ele>1396.9328613281</ele>
        <time>2010-11-14T07:11:34Z</time>
      </trkpt>
      <trkpt lat="45.3688" lon="5.90909">
        <ele>1400.2976074219</ele>
        <time>2010-11-14T07:11:56Z</time>
      </trkpt>
      <trkpt lat="45.36874" lon="5.90904">
        <ele>1403.1813964844</ele>
        <time>2010-11-14T07:12:07Z</time>
      </trkpt>
      <trkpt lat="45.36867" lon="5.90891">
        <ele>1406.5461425781</ele>
        <time>2010-11-14T07:12:23Z</time>
      </trkpt>
      <trkpt lat="45.36859" lon="5.90879">
        <ele>1409.4301757812</ele>
        <time>2010-11-14T07:12:43Z</time>
      </trkpt>
      <trkpt lat="45.36848" lon="5.90872">
        <ele>1412.7946777344</ele>
        <time>2010-11-14T07:12:55Z</time>
      </trkpt>
      <trkpt lat="45.36839" lon="5.90858">
        <ele>1416.1591796875</ele>
        <time>2010-11-14T07:13:09Z</time>
      </trkpt>
      <trkpt lat="45.36818" lon="5.90837">
        <ele>1417.6010742188</ele>
        <time>2010-11-14T07:13:38Z</time>
      </trkpt>
      <trkpt lat="45.36801" lon="5.90832">
        <ele>1420.4853515625</ele>
        <time>2010-11-14T07:14:01Z</time>
      </trkpt>
      <trkpt lat="45.36793" lon="5.90831">
        <ele>1421.4465332031</ele>
        <time>2010-11-14T07:14:09Z</time>
      </trkpt>
      <trkpt lat="45.36777" lon="5.90839">
        <ele>1424.3305664062</ele>
        <time>2010-11-14T07:14:24Z</time>
      </trkpt>
      <trkpt lat="45.36765" lon="5.90847">
        <ele>1427.6950683594</ele>
        <time>2010-11-14T07:14:38Z</time>
      </trkpt>
      <trkpt lat="45.36746" lon="5.90854">
        <ele>1430.5791015625</ele>
        <time>2010-11-14T07:14:59Z</time>
      </trkpt>
      <trkpt lat="45.36733" lon="5.90852">
        <ele>1432.9821777344</ele>
        <time>2010-11-14T07:15:13Z</time>
      </trkpt>
      <trkpt lat="45.36726" lon="5.90849">
        <ele>1432.9821777344</ele>
        <time>2010-11-14T07:15:20Z</time>
      </trkpt>
      <trkpt lat="45.36715" lon="5.9084">
        <ele>1434.4243164062</ele>
        <time>2010-11-14T07:15:32Z</time>
      </trkpt>
      <trkpt lat="45.36706" lon="5.90834">
        <ele>1435.3854980469</ele>
        <time>2010-11-14T07:15:40Z</time>
      </trkpt>
      <trkpt lat="45.36694" lon="5.90821">
        <ele>1438.2697753906</ele>
        <time>2010-11-14T07:15:56Z</time>
      </trkpt>
      <trkpt lat="45.36694" lon="5.90819">
        <ele>1439.7116699219</ele>
        <time>2010-11-14T07:15:58Z</time>
      </trkpt>
      <trkpt lat="45.36692" lon="5.90816">
        <ele>1440.6728515625</ele>
        <time>2010-11-14T07:16:01Z</time>
      </trkpt>
      <trkpt lat="45.36692" lon="5.90812">
        <ele>1441.6342773438</ele>
        <time>2010-11-14T07:16:03Z</time>
      </trkpt>
      <trkpt lat="45.36676" lon="5.90785">
        <ele>1444.5180664062</ele>
        <time>2010-11-14T07:16:29Z</time>
      </trkpt>
      <trkpt lat="45.36664" lon="5.90774">
        <ele>1447.8828125</ele>
        <time>2010-11-14T07:16:47Z</time>
      </trkpt>
      <trkpt lat="45.36662" lon="5.90773">
        <ele>1447.8828125</ele>
        <time>2010-11-14T07:16:49Z</time>
      </trkpt>
      <trkpt lat="45.36648" lon="5.90757">
        <ele>1451.7280273438</ele>
        <time>2010-11-14T07:17:06Z</time>
      </trkpt>
      <trkpt lat="45.36637" lon="5.90746">
        <ele>1453.6508789062</ele>
        <time>2010-11-14T07:17:28Z</time>
      </trkpt>
      <trkpt lat="45.36626" lon="5.90735">
        <ele>1455.5734863281</ele>
        <time>2010-11-14T07:17:54Z</time>
      </trkpt>
      <trkpt lat="45.36625" lon="5.90735">
        <ele>1457.9768066406</ele>
        <time>2010-11-14T07:18:12Z</time>
      </trkpt>
      <trkpt lat="45.36625" lon="5.90736">
        <ele>1457.9768066406</ele>
        <time>2010-11-14T07:18:13Z</time>
      </trkpt>
      <trkpt lat="45.36633" lon="5.90736">
        <ele>1461.3413085938</ele>
        <time>2010-11-14T07:18:38Z</time>
      </trkpt>
      <trkpt lat="45.3664" lon="5.90737">
        <ele>1464.2250976562</ele>
        <time>2010-11-14T07:18:57Z</time>
      </trkpt>
      <trkpt lat="45.36644" lon="5.90737">
        <ele>1467.1091308594</ele>
        <time>2010-11-14T07:19:12Z</time>
      </trkpt>
      <trkpt lat="45.36649" lon="5.90738">
        <ele>1468.5512695312</ele>
        <time>2010-11-14T07:19:17Z</time>
      </trkpt>
      <trkpt lat="45.36661" lon="5.90731">
        <ele>1471.4350585938</ele>
        <time>2010-11-14T07:19:35Z</time>
      </trkpt>
      <trkpt lat="45.36671" lon="5.9073">
        <ele>1474.7998046875</ele>
        <time>2010-11-14T07:19:48Z</time>
      </trkpt>
      <trkpt lat="45.36685" lon="5.9073">
        <ele>1477.68359375</ele>
        <time>2010-11-14T07:20:06Z</time>
      </trkpt>
      <trkpt lat="45.36694" lon="5.90729">
        <ele>1479.6062011719</ele>
        <time>2010-11-14T07:20:20Z</time>
      </trkpt>
      <trkpt lat="45.36701" lon="5.90735">
        <ele>1478.1643066406</ele>
        <time>2010-11-14T07:20:36Z</time>
      </trkpt>
      <trkpt lat="45.36713" lon="5.90743">
        <ele>1481.5288085938</ele>
        <time>2010-11-14T07:20:53Z</time>
      </trkpt>
      <trkpt lat="45.36721" lon="5.90752">
        <ele>1484.8937988281</ele>
        <time>2010-11-14T07:21:11Z</time>
      </trkpt>
      <trkpt lat="45.36732" lon="5.90746">
        <ele>1487.7775878906</ele>
        <time>2010-11-14T07:21:53Z</time>
      </trkpt>
      <trkpt lat="45.36742" lon="5.9074">
        <ele>1491.6228027344</ele>
        <time>2010-11-14T07:22:06Z</time>
      </trkpt>
      <trkpt lat="45.36743" lon="5.90738">
        <ele>1492.103515625</ele>
        <time>2010-11-14T07:22:08Z</time>
      </trkpt>
      <trkpt lat="45.36742" lon="5.90734">
        <ele>1494.0261230469</ele>
        <time>2010-11-14T07:22:12Z</time>
      </trkpt>
      <trkpt lat="45.36747" lon="5.90709">
        <ele>1497.390625</ele>
        <time>2010-11-14T07:22:46Z</time>
      </trkpt>
      <trkpt lat="45.36744" lon="5.90703">
        <ele>1500.7553710938</ele>
        <time>2010-11-14T07:22:55Z</time>
      </trkpt>
      <trkpt lat="45.36746" lon="5.90699">
        <ele>1504.1201171875</ele>
        <time>2010-11-14T07:23:05Z</time>
      </trkpt>
      <trkpt lat="45.36739" lon="5.9068">
        <ele>1505.0812988281</ele>
        <time>2010-11-14T07:23:22Z</time>
      </trkpt>
      <trkpt lat="45.36742" lon="5.90678">
        <ele>1507.9653320312</ele>
        <time>2010-11-14T07:23:37Z</time>
      </trkpt>
      <trkpt lat="45.36746" lon="5.9067">
        <ele>1511.3298339844</ele>
        <time>2010-11-14T07:23:50Z</time>
      </trkpt>
      <trkpt lat="45.36747" lon="5.90665">
        <ele>1512.291015625</ele>
        <time>2010-11-14T07:23:54Z</time>
      </trkpt>
      <trkpt lat="45.36748" lon="5.90666">
        <ele>1515.6557617188</ele>
        <time>2010-11-14T07:24:18Z</time>
      </trkpt>
      <trkpt lat="45.36753" lon="5.90657">
        <ele>1518.0590820312</ele>
        <time>2010-11-14T07:24:32Z</time>
      </trkpt>
      <trkpt lat="45.36759" lon="5.9065">
        <ele>1519.9816894531</ele>
        <time>2010-11-14T07:24:48Z</time>
      </trkpt>
      <trkpt lat="45.36761" lon="5.90635">
        <ele>1522.8657226562</ele>
        <time>2010-11-14T07:25:00Z</time>
      </trkpt>
      <trkpt lat="45.36758" lon="5.90615">
        <ele>1526.2302246094</ele>
        <time>2010-11-14T07:25:28Z</time>
      </trkpt>
      <trkpt lat="45.36758" lon="5.90612">
        <ele>1529.5947265625</ele>
        <time>2010-11-14T07:25:42Z</time>
      </trkpt>
      <trkpt lat="45.36753" lon="5.90601">
        <ele>1531.5173339844</ele>
        <time>2010-11-14T07:26:14Z</time>
      </trkpt>
      <trkpt lat="45.36755" lon="5.90594">
        <ele>1534.8823242188</ele>
        <time>2010-11-14T07:26:24Z</time>
      </trkpt>
      <trkpt lat="45.36758" lon="5.90587">
        <ele>1537.7661132812</ele>
        <time>2010-11-14T07:26:39Z</time>
      </trkpt>
      <trkpt lat="45.36758" lon="5.90596">
        <ele>1541.1306152344</ele>
        <time>2010-11-14T07:26:54Z</time>
      </trkpt>
      <trkpt lat="45.36761" lon="5.9059">
        <ele>1544.4951171875</ele>
        <time>2010-11-14T07:27:13Z</time>
      </trkpt>
      <trkpt lat="45.3676" lon="5.90552">
        <ele>1547.3791503906</ele>
        <time>2010-11-14T07:27:34Z</time>
      </trkpt>
      <trkpt lat="45.36759" lon="5.90536">
        <ele>1550.7438964844</ele>
        <time>2010-11-14T07:27:54Z</time>
      </trkpt>
      <trkpt lat="45.36758" lon="5.90558">
        <ele>1554.1086425781</ele>
        <time>2010-11-14T07:28:12Z</time>
      </trkpt>
      <trkpt lat="45.36769" lon="5.90563">
        <ele>1556.9924316406</ele>
        <time>2010-11-14T07:28:38Z</time>
      </trkpt>
      <trkpt lat="45.36773" lon="5.90544">
        <ele>1556.9924316406</ele>
        <time>2010-11-14T07:29:09Z</time>
      </trkpt>
      <trkpt lat="45.36774" lon="5.90559">
        <ele>1558.9150390625</ele>
        <time>2010-11-14T07:30:08Z</time>
      </trkpt>
      <trkpt lat="45.36782" lon="5.90558">
        <ele>1560.3569335938</ele>
        <time>2010-11-14T07:30:31Z</time>
      </trkpt>
      <trkpt lat="45.36786" lon="5.90557">
        <ele>1563.7214355469</ele>
        <time>2010-11-14T07:30:43Z</time>
      </trkpt>
      <trkpt lat="45.36792" lon="5.90559">
        <ele>1566.6057128906</ele>
        <time>2010-11-14T07:30:58Z</time>
      </trkpt>
      <trkpt lat="45.36796" lon="5.90553">
        <ele>1567.5668945312</ele>
        <time>2010-11-14T07:31:11Z</time>
      </trkpt>
      <trkpt lat="45.36802" lon="5.90548">
        <ele>1570.931640625</ele>
        <time>2010-11-14T07:31:25Z</time>
      </trkpt>
      <trkpt lat="45.36805" lon="5.90542">
        <ele>1573.8154296875</ele>
        <time>2010-11-14T07:31:38Z</time>
      </trkpt>
      <trkpt lat="45.36804" lon="5.90538">
        <ele>1575.2573242188</ele>
        <time>2010-11-14T07:31:43Z</time>
      </trkpt>
      <trkpt lat="45.36804" lon="5.90532">
        <ele>1578.6220703125</ele>
        <time>2010-11-14T07:31:55Z</time>
      </trkpt>
      <trkpt lat="45.36809" lon="5.90532">
        <ele>1579.5832519531</ele>
        <time>2010-11-14T07:32:11Z</time>
      </trkpt>
      <trkpt lat="45.36808" lon="5.90524">
        <ele>1582.4675292969</ele>
        <time>2010-11-14T07:32:28Z</time>
      </trkpt>
      <trkpt lat="45.3681" lon="5.9052">
        <ele>1585.3513183594</ele>
        <time>2010-11-14T07:32:43Z</time>
      </trkpt>
      <trkpt lat="45.36812" lon="5.90518">
        <ele>1588.7160644531</ele>
        <time>2010-11-14T07:32:55Z</time>
      </trkpt>
      <trkpt lat="45.36816" lon="5.90515">
        <ele>1591.5998535156</ele>
        <time>2010-11-14T07:33:13Z</time>
      </trkpt>
      <trkpt lat="45.36821" lon="5.90512">
        <ele>1593.5224609375</ele>
        <time>2010-11-14T07:33:29Z</time>
      </trkpt>
      <trkpt lat="45.36821" lon="5.90511">
        <ele>1595.92578125</ele>
        <time>2010-11-14T07:33:33Z</time>
      </trkpt>
      <trkpt lat="45.36821" lon="5.90511">
        <ele>1596.8872070312</ele>
        <time>2010-11-14T07:33:35Z</time>
      </trkpt>
      <trkpt lat="45.36821" lon="5.90509">
        <ele>1600.251953125</ele>
        <time>2010-11-14T07:33:42Z</time>
      </trkpt>
      <trkpt lat="45.36821" lon="5.9049">
        <ele>1602.1743164062</ele>
        <time>2010-11-14T07:34:15Z</time>
      </trkpt>
      <trkpt lat="45.36822" lon="5.90487">
        <ele>1606.5002441406</ele>
        <time>2010-11-14T07:34:21Z</time>
      </trkpt>
      <trkpt lat="45.36822" lon="5.90486">
        <ele>1609.3842773438</ele>
        <time>2010-11-14T07:34:24Z</time>
      </trkpt>
      <trkpt lat="45.36824" lon="5.90484">
        <ele>1606.01953125</ele>
        <time>2010-11-14T07:34:33Z</time>
      </trkpt>
      <trkpt lat="45.36828" lon="5.90481">
        <ele>1608.4228515625</ele>
        <time>2010-11-14T07:34:38Z</time>
      </trkpt>
      <trkpt lat="45.36831" lon="5.90478">
        <ele>1610.3454589844</ele>
        <time>2010-11-14T07:34:59Z</time>
      </trkpt>
      <trkpt lat="45.36831" lon="5.90474">
        <ele>1613.7102050781</ele>
        <time>2010-11-14T07:35:15Z</time>
      </trkpt>
      <trkpt lat="45.36831" lon="5.90469">
        <ele>1616.5942382812</ele>
        <time>2010-11-14T07:35:40Z</time>
      </trkpt>
      <trkpt lat="45.36841" lon="5.90458">
        <ele>1619.9587402344</ele>
        <time>2010-11-14T07:35:57Z</time>
      </trkpt>
      <trkpt lat="45.36847" lon="5.90455">
        <ele>1622.8427734375</ele>
        <time>2010-11-14T07:36:07Z</time>
      </trkpt>
      <trkpt lat="45.3686" lon="5.90447">
        <ele>1626.2072753906</ele>
        <time>2010-11-14T07:36:29Z</time>
      </trkpt>
      <trkpt lat="45.36863" lon="5.9044">
        <ele>1629.5720214844</ele>
        <time>2010-11-14T07:36:56Z</time>
      </trkpt>
      <trkpt lat="45.36867" lon="5.90433">
        <ele>1632.4560546875</ele>
        <time>2010-11-14T07:37:23Z</time>
      </trkpt>
      <trkpt lat="45.36865" lon="5.90423">
        <ele>1635.8205566406</ele>
        <time>2010-11-14T07:37:36Z</time>
      </trkpt>
      <trkpt lat="45.3687" lon="5.9041">
        <ele>1639.1850585938</ele>
        <time>2010-11-14T07:37:53Z</time>
      </trkpt>
      <trkpt lat="45.36874" lon="5.90411">
        <ele>1642.5498046875</ele>
        <time>2010-11-14T07:38:10Z</time>
      </trkpt>
      <trkpt lat="45.36882" lon="5.90408">
        <ele>1645.9145507812</ele>
        <time>2010-11-14T07:38:39Z</time>
      </trkpt>
      <trkpt lat="45.36877" lon="5.90399">
        <ele>1648.7983398438</ele>
        <time>2010-11-14T07:38:54Z</time>
      </trkpt>
      <trkpt lat="45.36877" lon="5.90397">
        <ele>1652.6435546875</ele>
        <time>2010-11-14T07:39:15Z</time>
      </trkpt>
      <trkpt lat="45.36877" lon="5.90397">
        <ele>1653.1242675781</ele>
        <time>2010-11-14T07:39:17Z</time>
      </trkpt>
      <trkpt lat="45.36877" lon="5.90396">
        <ele>1656.4887695312</ele>
        <time>2010-11-14T07:39:31Z</time>
      </trkpt>
      <trkpt lat="45.36872" lon="5.90397">
        <ele>1656.4887695312</ele>
        <time>2010-11-14T07:40:10Z</time>
      </trkpt>
      <trkpt lat="45.36867" lon="5.90397">
        <ele>1656.4887695312</ele>
        <time>2010-11-14T07:40:35Z</time>
      </trkpt>
      <trkpt lat="45.36867" lon="5.90404">
        <ele>1659.3728027344</ele>
        <time>2010-11-14T07:40:57Z</time>
      </trkpt>
      <trkpt lat="45.36869" lon="5.90403">
        <ele>1660.8149414062</ele>
        <time>2010-11-14T07:41:15Z</time>
      </trkpt>
      <trkpt lat="45.36865" lon="5.90404">
        <ele>1665.6215820312</ele>
        <time>2010-11-14T07:41:42Z</time>
      </trkpt>
      <trkpt lat="45.36866" lon="5.90408">
        <ele>1665.1408691406</ele>
        <time>2010-11-14T07:41:56Z</time>
      </trkpt>
      <trkpt lat="45.36867" lon="5.9041">
        <ele>1668.5053710938</ele>
        <time>2010-11-14T07:42:07Z</time>
      </trkpt>
      <trkpt lat="45.36867" lon="5.90408">
        <ele>1669.947265625</ele>
        <time>2010-11-14T07:42:13Z</time>
      </trkpt>
      <trkpt lat="45.36874" lon="5.90412">
        <ele>1668.5053710938</ele>
        <time>2010-11-14T07:42:33Z</time>
      </trkpt>
      <trkpt lat="45.36878" lon="5.90413">
        <ele>1670.9086914062</ele>
        <time>2010-11-14T07:42:42Z</time>
      </trkpt>
      <trkpt lat="45.36884" lon="5.90414">
        <ele>1673.7924804688</ele>
        <time>2010-11-14T07:43:11Z</time>
      </trkpt>
      <trkpt lat="45.36886" lon="5.90416">
        <ele>1676.1960449219</ele>
        <time>2010-11-14T07:43:24Z</time>
      </trkpt>
      <trkpt lat="45.36887" lon="5.90416">
        <ele>1679.0798339844</ele>
        <time>2010-11-14T07:43:49Z</time>
      </trkpt>
      <trkpt lat="45.36887" lon="5.90417">
        <ele>1682.4445800781</ele>
        <time>2010-11-14T07:43:59Z</time>
      </trkpt>
      <trkpt lat="45.36884" lon="5.90421">
        <ele>1679.0798339844</ele>
        <time>2010-11-14T07:44:03Z</time>
      </trkpt>
      <trkpt lat="45.36895" lon="5.90419">
        <ele>1681.9638671875</ele>
        <time>2010-11-14T07:44:24Z</time>
      </trkpt>
      <trkpt lat="45.36901" lon="5.90423">
        <ele>1685.3283691406</ele>
        <time>2010-11-14T07:44:35Z</time>
      </trkpt>
      <trkpt lat="45.369" lon="5.90425">
        <ele>1685.8090820312</ele>
        <time>2010-11-14T07:44:37Z</time>
      </trkpt>
      <trkpt lat="45.3691" lon="5.90427">
        <ele>1692.5385742188</ele>
        <time>2010-11-14T07:44:48Z</time>
      </trkpt>
      <trkpt lat="45.36912" lon="5.90429">
        <ele>1689.1735839844</ele>
        <time>2010-11-14T07:44:51Z</time>
      </trkpt>
      <trkpt lat="45.36913" lon="5.9043">
        <ele>1688.6931152344</ele>
        <time>2010-11-14T07:44:52Z</time>
      </trkpt>
      <trkpt lat="45.36919" lon="5.90428">
        <ele>1692.0578613281</ele>
        <time>2010-11-14T07:45:19Z</time>
      </trkpt>
      <trkpt lat="45.36919" lon="5.90427">
        <ele>1692.0578613281</ele>
        <time>2010-11-14T07:45:20Z</time>
      </trkpt>
      <trkpt lat="45.36922" lon="5.90416">
        <ele>1694.9416503906</ele>
        <time>2010-11-14T07:45:41Z</time>
      </trkpt>
      <trkpt lat="45.36931" lon="5.9042">
        <ele>1696.3837890625</ele>
        <time>2010-11-14T07:46:04Z</time>
      </trkpt>
      <trkpt lat="45.3693" lon="5.90421">
        <ele>1697.8256835938</ele>
        <time>2010-11-14T07:46:07Z</time>
      </trkpt>
      <trkpt lat="45.36931" lon="5.90421">
        <ele>1697.8256835938</ele>
        <time>2010-11-14T07:46:12Z</time>
      </trkpt>
      <trkpt lat="45.36942" lon="5.90435">
        <ele>1701.6708984375</ele>
        <time>2010-11-14T07:46:39Z</time>
      </trkpt>
      <trkpt lat="45.36937" lon="5.90428">
        <ele>1701.1901855469</ele>
        <time>2010-11-14T07:46:40Z</time>
      </trkpt>
      <trkpt lat="45.36948" lon="5.9044">
        <ele>1702.6320800781</ele>
        <time>2010-11-14T07:46:51Z</time>
      </trkpt>
      <trkpt lat="45.3695" lon="5.90434">
        <ele>1705.0354003906</ele>
        <time>2010-11-14T07:46:59Z</time>
      </trkpt>
      <trkpt lat="45.36958" lon="5.9043">
        <ele>1708.4001464844</ele>
        <time>2010-11-14T07:47:21Z</time>
      </trkpt>
      <trkpt lat="45.3696" lon="5.9043">
        <ele>1712.2453613281</ele>
        <time>2010-11-14T07:47:27Z</time>
      </trkpt>
      <trkpt lat="45.36959" lon="5.90427">
        <ele>1714.6486816406</ele>
        <time>2010-11-14T07:47:30Z</time>
      </trkpt>
      <trkpt lat="45.36961" lon="5.90428">
        <ele>1716.0905761719</ele>
        <time>2010-11-14T07:47:33Z</time>
      </trkpt>
      <trkpt lat="45.36956" lon="5.90421">
        <ele>1713.2067871094</ele>
        <time>2010-11-14T07:47:45Z</time>
      </trkpt>
      <trkpt lat="45.36956" lon="5.90421">
        <ele>1709.8420410156</ele>
        <time>2010-11-14T07:47:49Z</time>
      </trkpt>
      <trkpt lat="45.36934" lon="5.90355">
        <ele>1709.3615722656</ele>
        <time>2010-11-14T07:48:28Z</time>
      </trkpt>
      <trkpt lat="45.36933" lon="5.90356">
        <ele>1707.4387207031</ele>
        <time>2010-11-14T07:48:54Z</time>
      </trkpt>
      <trkpt lat="45.36933" lon="5.90356">
        <ele>1705.5161132812</ele>
        <time>2010-11-14T07:48:58Z</time>
      </trkpt>
      <trkpt lat="45.36913" lon="5.90341">
        <ele>1706.4772949219</ele>
        <time>2010-11-14T07:49:50Z</time>
      </trkpt>
      <trkpt lat="45.36911" lon="5.90344">
        <ele>1707.9194335938</ele>
        <time>2010-11-14T07:50:49Z</time>
      </trkpt>
      <trkpt lat="45.36915" lon="5.90363">
        <ele>1708.4001464844</ele>
        <time>2010-11-14T07:51:02Z</time>
      </trkpt>
      <trkpt lat="45.36938" lon="5.90384">
        <ele>1708.4001464844</ele>
        <time>2010-11-14T07:51:36Z</time>
      </trkpt>
      <trkpt lat="45.3693" lon="5.90374">
        <ele>1705.0354003906</ele>
        <time>2010-11-14T07:52:00Z</time>
      </trkpt>
      <trkpt lat="45.36922" lon="5.90375">
        <ele>1705.9965820312</ele>
        <time>2010-11-14T07:53:19Z</time>
      </trkpt>
      <trkpt lat="45.36924" lon="5.90396">
        <ele>1702.6320800781</ele>
        <time>2010-11-14T07:54:57Z</time>
      </trkpt>
      <trkpt lat="45.36925" lon="5.90397">
        <ele>1700.7094726562</ele>
        <time>2010-11-14T07:55:03Z</time>
      </trkpt>
      <trkpt lat="45.36919" lon="5.90425">
        <ele>1698.7868652344</ele>
        <time>2010-11-14T07:55:18Z</time>
      </trkpt>
      <trkpt lat="45.36934" lon="5.90425">
        <ele>1696.8642578125</ele>
        <time>2010-11-14T07:56:17Z</time>
      </trkpt>
      <trkpt lat="45.36947" lon="5.90426">
        <ele>1697.8256835938</ele>
        <time>2010-11-14T07:56:42Z</time>
      </trkpt>
      <trkpt lat="45.36945" lon="5.90426">
        <ele>1699.7482910156</ele>
        <time>2010-11-14T07:57:23Z</time>
      </trkpt>
      <trkpt lat="45.3692" lon="5.90439">
        <ele>1700.7094726562</ele>
        <time>2010-11-14T07:57:42Z</time>
      </trkpt>
      <trkpt lat="45.36916" lon="5.90418">
        <ele>1703.5935058594</ele>
        <time>2010-11-14T07:58:02Z</time>
      </trkpt>
      <trkpt lat="45.36921" lon="5.90406">
        <ele>1707.9194335938</ele>
        <time>2010-11-14T07:58:09Z</time>
      </trkpt>
      <trkpt lat="45.36924" lon="5.90399">
        <ele>1707.4387207031</ele>
        <time>2010-11-14T07:58:16Z</time>
      </trkpt>
      <trkpt lat="45.36924" lon="5.90401">
        <ele>1706.4772949219</ele>
        <time>2010-11-14T07:58:19Z</time>
      </trkpt>
      <trkpt lat="45.36923" lon="5.90402">
        <ele>1702.6320800781</ele>
        <time>2010-11-14T07:58:29Z</time>
      </trkpt>
      <trkpt lat="45.36923" lon="5.90402">
        <ele>1702.6320800781</ele>
        <time>2010-11-14T07:58:30Z</time>
      </trkpt>
      <trkpt lat="45.36923" lon="5.904">
        <ele>1705.9965820312</ele>
        <time>2010-11-14T07:58:45Z</time>
      </trkpt>
      <trkpt lat="45.36919" lon="5.90394">
        <ele>1707.9194335938</ele>
        <time>2010-11-14T07:59:15Z</time>
      </trkpt>
      <trkpt lat="45.36922" lon="5.90389">
        <ele>1705.0354003906</ele>
        <time>2010-11-14T08:00:05Z</time>
      </trkpt>
      <trkpt lat="45.36921" lon="5.90389">
        <ele>1701.1901855469</ele>
        <time>2010-11-14T08:00:19Z</time>
      </trkpt>
      <trkpt lat="45.36921" lon="5.90396">
        <ele>1705.5161132812</ele>
        <time>2010-11-14T08:00:28Z</time>
      </trkpt>
      <trkpt lat="45.3692" lon="5.90394">
        <ele>1705.5161132812</ele>
        <time>2010-11-14T08:00:29Z</time>
      </trkpt>
      <trkpt lat="45.3692" lon="5.90392">
        <ele>1707.9194335938</ele>
        <time>2010-11-14T08:00:34Z</time>
      </trkpt>
      <trkpt lat="45.36919" lon="5.90391">
        <ele>1711.7648925781</ele>
        <time>2010-11-14T08:00:38Z</time>
      </trkpt>
      <trkpt lat="45.36907" lon="5.90377">
        <ele>1713.6872558594</ele>
        <time>2010-11-14T08:00:50Z</time>
      </trkpt>
      <trkpt lat="45.36906" lon="5.90375">
        <ele>1713.6872558594</ele>
        <time>2010-11-14T08:00:55Z</time>
      </trkpt>
      <trkpt lat="45.36906" lon="5.90375">
        <ele>1715.6101074219</ele>
        <time>2010-11-14T08:01:04Z</time>
      </trkpt>
      <trkpt lat="45.36906" lon="5.90385">
        <ele>1714.6486816406</ele>
        <time>2010-11-14T08:01:22Z</time>
      </trkpt>
      <trkpt lat="45.36908" lon="5.9039">
        <ele>1716.5712890625</ele>
        <time>2010-11-14T08:01:28Z</time>
      </trkpt>
      <trkpt lat="45.36909" lon="5.90393">
        <ele>1718.974609375</ele>
        <time>2010-11-14T08:01:34Z</time>
      </trkpt>
      <trkpt lat="45.36913" lon="5.90397">
        <ele>1721.8583984375</ele>
        <time>2010-11-14T08:01:46Z</time>
      </trkpt>
      <trkpt lat="45.36914" lon="5.904">
        <ele>1722.3391113281</ele>
        <time>2010-11-14T08:02:00Z</time>
      </trkpt>
      <trkpt lat="45.36915" lon="5.90403">
        <ele>1722.3391113281</ele>
        <time>2010-11-14T08:02:08Z</time>
      </trkpt>
      <trkpt lat="45.36921" lon="5.90389">
        <ele>1722.3391113281</ele>
        <time>2010-11-14T08:02:25Z</time>
      </trkpt>
      <trkpt lat="45.36922" lon="5.90383">
        <ele>1723.7810058594</ele>
        <time>2010-11-14T08:02:35Z</time>
      </trkpt>
      <trkpt lat="45.36919" lon="5.90365">
        <ele>1727.1459960938</ele>
        <time>2010-11-14T08:02:54Z</time>
      </trkpt>
      <trkpt lat="45.36916" lon="5.90342">
        <ele>1730.0297851562</ele>
        <time>2010-11-14T08:03:28Z</time>
      </trkpt>
      <trkpt lat="45.36911" lon="5.90337">
        <ele>1733.3942871094</ele>
        <time>2010-11-14T08:03:39Z</time>
      </trkpt>
      <trkpt lat="45.36911" lon="5.90337">
        <ele>1732.4331054688</ele>
        <time>2010-11-14T08:03:44Z</time>
      </trkpt>
      <trkpt lat="45.36893" lon="5.90308">
        <ele>1731.4716796875</ele>
        <time>2010-11-14T08:04:12Z</time>
      </trkpt>
      <trkpt lat="45.36892" lon="5.90295">
        <ele>1734.3557128906</ele>
        <time>2010-11-14T08:04:24Z</time>
      </trkpt>
      <trkpt lat="45.36887" lon="5.90296">
        <ele>1737.7202148438</ele>
        <time>2010-11-14T08:04:38Z</time>
      </trkpt>
      <trkpt lat="45.36887" lon="5.90292">
        <ele>1741.0849609375</ele>
        <time>2010-11-14T08:05:04Z</time>
      </trkpt>
      <trkpt lat="45.36886" lon="5.90295">
        <ele>1744.4494628906</ele>
        <time>2010-11-14T08:05:19Z</time>
      </trkpt>
      <trkpt lat="45.36886" lon="5.90295">
        <ele>1743.9689941406</ele>
        <time>2010-11-14T08:05:20Z</time>
      </trkpt>
      <trkpt lat="45.36886" lon="5.90299">
        <ele>1747.3334960938</ele>
        <time>2010-11-14T08:05:43Z</time>
      </trkpt>
      <trkpt lat="45.36885" lon="5.90303">
        <ele>1750.6979980469</ele>
        <time>2010-11-14T08:05:54Z</time>
      </trkpt>
      <trkpt lat="45.36883" lon="5.90305">
        <ele>1754.0627441406</ele>
        <time>2010-11-14T08:06:08Z</time>
      </trkpt>
      <trkpt lat="45.36879" lon="5.90302">
        <ele>1752.6206054688</ele>
        <time>2010-11-14T08:06:13Z</time>
      </trkpt>
      <trkpt lat="45.36879" lon="5.90302">
        <ele>1751.1787109375</ele>
        <time>2010-11-14T08:06:16Z</time>
      </trkpt>
      <trkpt lat="45.36866" lon="5.90299">
        <ele>1748.2946777344</ele>
        <time>2010-11-14T08:07:15Z</time>
      </trkpt>
      <trkpt lat="45.36858" lon="5.90304">
        <ele>1748.775390625</ele>
        <time>2010-11-14T08:07:24Z</time>
      </trkpt>
      <trkpt lat="45.36861" lon="5.90299">
        <ele>1748.2946777344</ele>
        <time>2010-11-14T08:07:27Z</time>
      </trkpt>
      <trkpt lat="45.36855" lon="5.90292">
        <ele>1748.775390625</ele>
        <time>2010-11-14T08:07:48Z</time>
      </trkpt>
      <trkpt lat="45.36845" lon="5.90271">
        <ele>1751.6594238281</ele>
        <time>2010-11-14T08:07:59Z</time>
      </trkpt>
      <trkpt lat="45.36835" lon="5.90272">
        <ele>1754.5432128906</ele>
        <time>2010-11-14T08:08:29Z</time>
      </trkpt>
      <trkpt lat="45.36818" lon="5.90263">
        <ele>1751.6594238281</ele>
        <time>2010-11-14T08:08:42Z</time>
      </trkpt>
      <trkpt lat="45.36813" lon="5.90261">
        <ele>1748.775390625</ele>
        <time>2010-11-14T08:08:52Z</time>
      </trkpt>
      <trkpt lat="45.36821" lon="5.90255">
        <ele>1750.2175292969</ele>
        <time>2010-11-14T08:09:01Z</time>
      </trkpt>
      <trkpt lat="45.36818" lon="5.90254">
        <ele>1749.2561035156</ele>
        <time>2010-11-14T08:09:13Z</time>
      </trkpt>
      <trkpt lat="45.36817" lon="5.90252">
        <ele>1751.6594238281</ele>
        <time>2010-11-14T08:09:16Z</time>
      </trkpt>
      <trkpt lat="45.36819" lon="5.90246">
        <ele>1755.0239257812</ele>
        <time>2010-11-14T08:09:29Z</time>
      </trkpt>
      <trkpt lat="45.36816" lon="5.9024">
        <ele>1758.388671875</ele>
        <time>2010-11-14T08:09:45Z</time>
      </trkpt>
      <trkpt lat="45.36816" lon="5.90241">
        <ele>1757.4274902344</ele>
        <time>2010-11-14T08:09:58Z</time>
      </trkpt>
      <trkpt lat="45.36823" lon="5.90228">
        <ele>1760.7919921875</ele>
        <time>2010-11-14T08:10:07Z</time>
      </trkpt>
      <trkpt lat="45.36822" lon="5.90229">
        <ele>1760.3112792969</ele>
        <time>2010-11-14T08:10:08Z</time>
      </trkpt>
      <trkpt lat="45.36818" lon="5.90228">
        <ele>1762.2338867188</ele>
        <time>2010-11-14T08:10:16Z</time>
      </trkpt>
      <trkpt lat="45.36819" lon="5.90221">
        <ele>1764.6372070312</ele>
        <time>2010-11-14T08:10:34Z</time>
      </trkpt>
      <trkpt lat="45.36815" lon="5.90223">
        <ele>1768.0017089844</ele>
        <time>2010-11-14T08:10:57Z</time>
      </trkpt>
      <trkpt lat="45.36816" lon="5.90226">
        <ele>1770.8857421875</ele>
        <time>2010-11-14T08:11:10Z</time>
      </trkpt>
      <trkpt lat="45.36814" lon="5.90222">
        <ele>1772.80859375</ele>
        <time>2010-11-14T08:11:18Z</time>
      </trkpt>
      <trkpt lat="45.36818" lon="5.90218">
        <ele>1772.3278808594</ele>
        <time>2010-11-14T08:11:38Z</time>
      </trkpt>
      <trkpt lat="45.36815" lon="5.9022">
        <ele>1775.6923828125</ele>
        <time>2010-11-14T08:11:55Z</time>
      </trkpt>
      <trkpt lat="45.36816" lon="5.90216">
        <ele>1779.5375976562</ele>
        <time>2010-11-14T08:12:41Z</time>
      </trkpt>
      <trkpt lat="45.36815" lon="5.90214">
        <ele>1780.4990234375</ele>
        <time>2010-11-14T08:12:44Z</time>
      </trkpt>
      <trkpt lat="45.36811" lon="5.90215">
        <ele>1780.0183105469</ele>
        <time>2010-11-14T08:12:56Z</time>
      </trkpt>
      <trkpt lat="45.36804" lon="5.90208">
        <ele>1780.4990234375</ele>
        <time>2010-11-14T08:13:01Z</time>
      </trkpt>
      <trkpt lat="45.36801" lon="5.90209">
        <ele>1783.3828125</ele>
        <time>2010-11-14T08:13:05Z</time>
      </trkpt>
      <trkpt lat="45.36791" lon="5.90204">
        <ele>1786.7473144531</ele>
        <time>2010-11-14T08:13:20Z</time>
      </trkpt>
      <trkpt lat="45.3679" lon="5.90205">
        <ele>1787.7087402344</ele>
        <time>2010-11-14T08:13:31Z</time>
      </trkpt>
      <trkpt lat="45.36787" lon="5.90205">
        <ele>1790.5927734375</ele>
        <time>2010-11-14T08:13:35Z</time>
      </trkpt>
      <trkpt lat="45.36786" lon="5.90205">
        <ele>1790.1123046875</ele>
        <time>2010-11-14T08:13:36Z</time>
      </trkpt>
      <trkpt lat="45.36784" lon="5.90204">
        <ele>1792.0349121094</ele>
        <time>2010-11-14T08:13:38Z</time>
      </trkpt>
      <trkpt lat="45.36779" lon="5.90209">
        <ele>1792.515625</ele>
        <time>2010-11-14T08:14:01Z</time>
      </trkpt>
      <trkpt lat="45.36773" lon="5.90209">
        <ele>1794.4379882812</ele>
        <time>2010-11-14T08:14:15Z</time>
      </trkpt>
      <trkpt lat="45.36772" lon="5.90213">
        <ele>1791.0734863281</ele>
        <time>2010-11-14T08:14:26Z</time>
      </trkpt>
      <trkpt lat="45.36771" lon="5.9021">
        <ele>1787.7087402344</ele>
        <time>2010-11-14T08:14:33Z</time>
      </trkpt>
      <trkpt lat="45.36769" lon="5.90209">
        <ele>1787.7087402344</ele>
        <time>2010-11-14T08:14:34Z</time>
      </trkpt>
      <trkpt lat="45.36737" lon="5.90194">
        <ele>1787.2280273438</ele>
        <time>2010-11-14T08:14:57Z</time>
      </trkpt>
      <trkpt lat="45.367" lon="5.90182">
        <ele>1788.6704101562</ele>
        <time>2010-11-14T08:15:32Z</time>
      </trkpt>
      <trkpt lat="45.36697" lon="5.90189">
        <ele>1792.0349121094</ele>
        <time>2010-11-14T08:15:51Z</time>
      </trkpt>
      <trkpt lat="45.36681" lon="5.90185">
        <ele>1792.515625</ele>
        <time>2010-11-14T08:16:09Z</time>
      </trkpt>
      <trkpt lat="45.36677" lon="5.90183">
        <ele>1793.4768066406</ele>
        <time>2010-11-14T08:16:15Z</time>
      </trkpt>
      <trkpt lat="45.36672" lon="5.90182">
        <ele>1796.8413085938</ele>
        <time>2010-11-14T08:16:30Z</time>
      </trkpt>
      <trkpt lat="45.36657" lon="5.90187">
        <ele>1800.2060546875</ele>
        <time>2010-11-14T08:17:03Z</time>
      </trkpt>
      <trkpt lat="45.36642" lon="5.90192">
        <ele>1803.5705566406</ele>
        <time>2010-11-14T08:17:22Z</time>
      </trkpt>
      <trkpt lat="45.36634" lon="5.90196">
        <ele>1806.9353027344</ele>
        <time>2010-11-14T08:17:39Z</time>
      </trkpt>
      <trkpt lat="45.36628" lon="5.90197">
        <ele>1809.8190917969</ele>
        <time>2010-11-14T08:17:50Z</time>
      </trkpt>
      <trkpt lat="45.36628" lon="5.90198">
        <ele>1806.9353027344</ele>
        <time>2010-11-14T08:18:12Z</time>
      </trkpt>
      <trkpt lat="45.36623" lon="5.90204">
        <ele>1807.8967285156</ele>
        <time>2010-11-14T08:19:12Z</time>
      </trkpt>
      <trkpt lat="45.36603" lon="5.90211">
        <ele>1809.8190917969</ele>
        <time>2010-11-14T08:19:37Z</time>
      </trkpt>
      <trkpt lat="45.36588" lon="5.90211">
        <ele>1813.1838378906</ele>
        <time>2010-11-14T08:19:53Z</time>
      </trkpt>
      <trkpt lat="45.36576" lon="5.90216">
        <ele>1816.5483398438</ele>
        <time>2010-11-14T08:20:06Z</time>
      </trkpt>
      <trkpt lat="45.36576" lon="5.90226">
        <ele>1816.0676269531</ele>
        <time>2010-11-14T08:20:33Z</time>
      </trkpt>
      <trkpt lat="45.36573" lon="5.90243">
        <ele>1818.4709472656</ele>
        <time>2010-11-14T08:20:54Z</time>
      </trkpt>
      <trkpt lat="45.3657" lon="5.90243">
        <ele>1819.9128417969</ele>
        <time>2010-11-14T08:20:57Z</time>
      </trkpt>
      <trkpt lat="45.36547" lon="5.90244">
        <ele>1821.3549804688</ele>
        <time>2010-11-14T08:21:17Z</time>
      </trkpt>
      <trkpt lat="45.36544" lon="5.90245">
        <ele>1822.31640625</ele>
        <time>2010-11-14T08:21:22Z</time>
      </trkpt>
      <trkpt lat="45.36535" lon="5.90252">
        <ele>1824.2390136719</ele>
        <time>2010-11-14T08:21:38Z</time>
      </trkpt>
      <trkpt lat="45.36521" lon="5.9025">
        <ele>1827.603515625</ele>
        <time>2010-11-14T08:21:54Z</time>
      </trkpt>
      <trkpt lat="45.36519" lon="5.90254">
        <ele>1829.5261230469</ele>
        <time>2010-11-14T08:22:02Z</time>
      </trkpt>
      <trkpt lat="45.36517" lon="5.90289">
        <ele>1830.4875488281</ele>
        <time>2010-11-14T08:22:24Z</time>
      </trkpt>
      <trkpt lat="45.36518" lon="5.90294">
        <ele>1834.3327636719</ele>
        <time>2010-11-14T08:22:28Z</time>
      </trkpt>
      <trkpt lat="45.36518" lon="5.90295">
        <ele>1833.8520507812</ele>
        <time>2010-11-14T08:22:29Z</time>
      </trkpt>
      <trkpt lat="45.36518" lon="5.90304">
        <ele>1837.216796875</ele>
        <time>2010-11-14T08:22:32Z</time>
      </trkpt>
      <trkpt lat="45.36518" lon="5.90306">
        <ele>1837.216796875</ele>
        <time>2010-11-14T08:22:33Z</time>
      </trkpt>
      <trkpt lat="45.36509" lon="5.90308">
        <ele>1840.1008300781</ele>
        <time>2010-11-14T08:22:59Z</time>
      </trkpt>
      <trkpt lat="45.36504" lon="5.90301">
        <ele>1842.0234375</ele>
        <time>2010-11-14T08:23:15Z</time>
      </trkpt>
      <trkpt lat="45.36504" lon="5.90304">
        <ele>1844.9072265625</ele>
        <time>2010-11-14T08:23:24Z</time>
      </trkpt>
      <trkpt lat="45.36504" lon="5.90307">
        <ele>1842.0234375</ele>
        <time>2010-11-14T08:23:36Z</time>
      </trkpt>
      <trkpt lat="45.36502" lon="5.90308">
        <ele>1846.3493652344</ele>
        <time>2010-11-14T08:23:41Z</time>
      </trkpt>
      <trkpt lat="45.36501" lon="5.9031">
        <ele>1848.2717285156</ele>
        <time>2010-11-14T08:23:44Z</time>
      </trkpt>
      <trkpt lat="45.365" lon="5.90313">
        <ele>1845.3879394531</ele>
        <time>2010-11-14T08:23:51Z</time>
      </trkpt>
      <trkpt lat="45.365" lon="5.90314">
        <ele>1846.8298339844</ele>
        <time>2010-11-14T08:23:54Z</time>
      </trkpt>
      <trkpt lat="45.36499" lon="5.90317">
        <ele>1850.1945800781</ele>
        <time>2010-11-14T08:24:01Z</time>
      </trkpt>
      <trkpt lat="45.36499" lon="5.90317">
        <ele>1850.1945800781</ele>
        <time>2010-11-14T08:24:02Z</time>
      </trkpt>
      <trkpt lat="45.36497" lon="5.90321">
        <ele>1853.5593261719</ele>
        <time>2010-11-14T08:24:22Z</time>
      </trkpt>
      <trkpt lat="45.36497" lon="5.90321">
        <ele>1851.6364746094</ele>
        <time>2010-11-14T08:24:26Z</time>
      </trkpt>
      <trkpt lat="45.36497" lon="5.90322">
        <ele>1848.7524414062</ele>
        <time>2010-11-14T08:24:47Z</time>
      </trkpt>
      <trkpt lat="45.36497" lon="5.90322">
        <ele>1848.7524414062</ele>
        <time>2010-11-14T08:24:48Z</time>
      </trkpt>
      <trkpt lat="45.36497" lon="5.90322">
        <ele>1849.7138671875</ele>
        <time>2010-11-14T08:24:50Z</time>
      </trkpt>
      <trkpt lat="45.36498" lon="5.90322">
        <ele>1848.7524414062</ele>
        <time>2010-11-14T08:25:01Z</time>
      </trkpt>
      <trkpt lat="45.36498" lon="5.90323">
        <ele>1852.1171875</ele>
        <time>2010-11-14T08:25:09Z</time>
      </trkpt>
      <trkpt lat="45.36498" lon="5.90323">
        <ele>1852.1171875</ele>
        <time>2010-11-14T08:25:10Z</time>
      </trkpt>
      <trkpt lat="45.36498" lon="5.90323">
        <ele>1849.2331542969</ele>
        <time>2010-11-14T08:25:18Z</time>
      </trkpt>
      <trkpt lat="45.36498" lon="5.90323">
        <ele>1847.7912597656</ele>
        <time>2010-11-14T08:25:21Z</time>
      </trkpt>
      <trkpt lat="45.36499" lon="5.90323">
        <ele>1849.2331542969</ele>
        <time>2010-11-14T08:25:25Z</time>
      </trkpt>
      <trkpt lat="45.36503" lon="5.90329">
        <ele>1849.2331542969</ele>
        <time>2010-11-14T08:26:25Z</time>
      </trkpt>
      <trkpt lat="45.36503" lon="5.90329">
        <ele>1847.7912597656</ele>
        <time>2010-11-14T08:26:29Z</time>
      </trkpt>
      <trkpt lat="45.36504" lon="5.90327">
        <ele>1853.0786132812</ele>
        <time>2010-11-14T08:26:32Z</time>
      </trkpt>
      <trkpt lat="45.36503" lon="5.90326">
        <ele>1853.5593261719</ele>
        <time>2010-11-14T08:26:34Z</time>
      </trkpt>
      <trkpt lat="45.36501" lon="5.90325">
        <ele>1855.0012207031</ele>
        <time>2010-11-14T08:26:49Z</time>
      </trkpt>
      <trkpt lat="45.36501" lon="5.90324">
        <ele>1855.4819335938</ele>
        <time>2010-11-14T08:26:56Z</time>
      </trkpt>
      <trkpt lat="45.36502" lon="5.90324">
        <ele>1853.0786132812</ele>
        <time>2010-11-14T08:27:04Z</time>
      </trkpt>
      <trkpt lat="45.36503" lon="5.90323">
        <ele>1854.0400390625</ele>
        <time>2010-11-14T08:27:08Z</time>
      </trkpt>
      <trkpt lat="45.36503" lon="5.90324">
        <ele>1857.4045410156</ele>
        <time>2010-11-14T08:27:10Z</time>
      </trkpt>
      <trkpt lat="45.36503" lon="5.90324">
        <ele>1854.5205078125</ele>
        <time>2010-11-14T08:27:17Z</time>
      </trkpt>
      <trkpt lat="45.36503" lon="5.90323">
        <ele>1852.5979003906</ele>
        <time>2010-11-14T08:27:20Z</time>
      </trkpt>
      <trkpt lat="45.36502" lon="5.90326">
        <ele>1856.4431152344</ele>
        <time>2010-11-14T08:27:26Z</time>
      </trkpt>
      <trkpt lat="45.36503" lon="5.90326">
        <ele>1861.73046875</ele>
        <time>2010-11-14T08:27:27Z</time>
      </trkpt>
      <trkpt lat="45.36503" lon="5.90326">
        <ele>1866.0561523438</ele>
        <time>2010-11-14T08:27:28Z</time>
      </trkpt>
      <trkpt lat="45.36503" lon="5.90327">
        <ele>1862.6916503906</ele>
        <time>2010-11-14T08:27:31Z</time>
      </trkpt>
      <trkpt lat="45.36502" lon="5.90327">
        <ele>1858.8464355469</ele>
        <time>2010-11-14T08:27:35Z</time>
      </trkpt>
      <trkpt lat="45.36504" lon="5.90327">
        <ele>1861.73046875</ele>
        <time>2010-11-14T08:27:38Z</time>
      </trkpt>
      <trkpt lat="45.36507" lon="5.90325">
        <ele>1858.3657226562</ele>
        <time>2010-11-14T08:27:44Z</time>
      </trkpt>
      <trkpt lat="45.36509" lon="5.90326">
        <ele>1863.1723632812</ele>
        <time>2010-11-14T08:27:45Z</time>
      </trkpt>
      <trkpt lat="45.3651" lon="5.90328">
        <ele>1858.8464355469</ele>
        <time>2010-11-14T08:27:49Z</time>
      </trkpt>
      <trkpt lat="45.36511" lon="5.90328">
        <ele>1858.3657226562</ele>
        <time>2010-11-14T08:27:50Z</time>
      </trkpt>
      <trkpt lat="45.36515" lon="5.90328">
        <ele>1861.73046875</ele>
        <time>2010-11-14T08:27:56Z</time>
      </trkpt>
      <trkpt lat="45.36518" lon="5.90324">
        <ele>1860.2883300781</ele>
        <time>2010-11-14T08:28:07Z</time>
      </trkpt>
      <trkpt lat="45.36518" lon="5.90322">
        <ele>1865.0949707031</ele>
        <time>2010-11-14T08:28:14Z</time>
      </trkpt>
      <trkpt lat="45.36518" lon="5.90321">
        <ele>1864.1335449219</ele>
        <time>2010-11-14T08:28:15Z</time>
      </trkpt>
      <trkpt lat="45.36517" lon="5.90319">
        <ele>1865.5756835938</ele>
        <time>2010-11-14T08:28:21Z</time>
      </trkpt>
      <trkpt lat="45.36516" lon="5.90319">
        <ele>1864.1335449219</ele>
        <time>2010-11-14T08:28:23Z</time>
      </trkpt>
      <trkpt lat="45.36517" lon="5.90318">
        <ele>1866.5368652344</ele>
        <time>2010-11-14T08:28:25Z</time>
      </trkpt>
      <trkpt lat="45.36517" lon="5.90315">
        <ele>1867.498046875</ele>
        <time>2010-11-14T08:28:30Z</time>
      </trkpt>
      <trkpt lat="45.3652" lon="5.90312">
        <ele>1865.0949707031</ele>
        <time>2010-11-14T08:28:46Z</time>
      </trkpt>
      <trkpt lat="45.36521" lon="5.90311">
        <ele>1865.0949707031</ele>
        <time>2010-11-14T08:28:47Z</time>
      </trkpt>
      <trkpt lat="45.36522" lon="5.90311">
        <ele>1870.8630371094</ele>
        <time>2010-11-14T08:28:49Z</time>
      </trkpt>
      <trkpt lat="45.36522" lon="5.9031">
        <ele>1874.2275390625</ele>
        <time>2010-11-14T08:28:50Z</time>
      </trkpt>
      <trkpt lat="45.36522" lon="5.9031">
        <ele>1873.2663574219</ele>
        <time>2010-11-14T08:28:51Z</time>
      </trkpt>
      <trkpt lat="45.36522" lon="5.90309">
        <ele>1874.7082519531</ele>
        <time>2010-11-14T08:28:55Z</time>
      </trkpt>
      <trkpt lat="45.36522" lon="5.90307">
        <ele>1871.3435058594</ele>
        <time>2010-11-14T08:28:59Z</time>
      </trkpt>
      <trkpt lat="45.36521" lon="5.90306">
        <ele>1870.3823242188</ele>
        <time>2010-11-14T08:29:01Z</time>
      </trkpt>
      <trkpt lat="45.36524" lon="5.90306">
        <ele>1873.7468261719</ele>
        <time>2010-11-14T08:29:08Z</time>
      </trkpt>
      <trkpt lat="45.36524" lon="5.90305">
        <ele>1874.7082519531</ele>
        <time>2010-11-14T08:29:10Z</time>
      </trkpt>
      <trkpt lat="45.36523" lon="5.90305">
        <ele>1878.0727539062</ele>
        <time>2010-11-14T08:29:21Z</time>
      </trkpt>
      <trkpt lat="45.36522" lon="5.90304">
        <ele>1875.6694335938</ele>
        <time>2010-11-14T08:29:24Z</time>
      </trkpt>
      <trkpt lat="45.36526" lon="5.90304">
        <ele>1879.0339355469</ele>
        <time>2010-11-14T08:29:39Z</time>
      </trkpt>
      <trkpt lat="45.36526" lon="5.90301">
        <ele>1881.4372558594</ele>
        <time>2010-11-14T08:29:48Z</time>
      </trkpt>
      <trkpt lat="45.36527" lon="5.90301">
        <ele>1886.244140625</ele>
        <time>2010-11-14T08:29:49Z</time>
      </trkpt>
      <trkpt lat="45.36527" lon="5.90302">
        <ele>1881.4372558594</ele>
        <time>2010-11-14T08:29:53Z</time>
      </trkpt>
      <trkpt lat="45.36527" lon="5.90295">
        <ele>1881.4372558594</ele>
        <time>2010-11-14T08:30:09Z</time>
      </trkpt>
      <trkpt lat="45.36527" lon="5.90295">
        <ele>1884.3215332031</ele>
        <time>2010-11-14T08:30:16Z</time>
      </trkpt>
      <trkpt lat="45.36527" lon="5.90295">
        <ele>1880.4760742188</ele>
        <time>2010-11-14T08:30:25Z</time>
      </trkpt>
      <trkpt lat="45.36527" lon="5.90295">
        <ele>1885.2827148438</ele>
        <time>2010-11-14T08:30:28Z</time>
      </trkpt>
      <trkpt lat="45.36527" lon="5.90295">
        <ele>1884.8022460938</ele>
        <time>2010-11-14T08:30:29Z</time>
      </trkpt>
      <trkpt lat="45.36527" lon="5.90295">
        <ele>1888.1667480469</ele>
        <time>2010-11-14T08:30:42Z</time>
      </trkpt>
      <trkpt lat="45.36527" lon="5.90295">
        <ele>1884.8022460938</ele>
        <time>2010-11-14T08:30:43Z</time>
      </trkpt>
      <trkpt lat="45.36527" lon="5.90295">
        <ele>1883.3598632812</ele>
        <time>2010-11-14T08:30:45Z</time>
      </trkpt>
      <trkpt lat="45.36527" lon="5.90295">
        <ele>1883.8405761719</ele>
        <time>2010-11-14T08:30:53Z</time>
      </trkpt>
      <trkpt lat="45.36527" lon="5.90295">
        <ele>1882.8791503906</ele>
        <time>2010-11-14T08:30:57Z</time>
      </trkpt>
      <trkpt lat="45.36527" lon="5.90295">
        <ele>1885.2827148438</ele>
        <time>2010-11-14T08:31:00Z</time>
      </trkpt>
      <trkpt lat="45.36527" lon="5.90294">
        <ele>1890.0893554688</ele>
        <time>2010-11-14T08:31:06Z</time>
      </trkpt>
      <trkpt lat="45.36527" lon="5.90294">
        <ele>1888.1667480469</ele>
        <time>2010-11-14T08:31:07Z</time>
      </trkpt>
      <trkpt lat="45.36527" lon="5.90293">
        <ele>1884.8022460938</ele>
        <time>2010-11-14T08:31:09Z</time>
      </trkpt>
      <trkpt lat="45.36527" lon="5.90293">
        <ele>1885.2827148438</ele>
        <time>2010-11-14T08:31:10Z</time>
      </trkpt>
      <trkpt lat="45.36526" lon="5.90291">
        <ele>1882.3986816406</ele>
        <time>2010-11-14T08:31:22Z</time>
      </trkpt>
      <trkpt lat="45.36526" lon="5.9029">
        <ele>1885.7634277344</ele>
        <time>2010-11-14T08:31:28Z</time>
      </trkpt>
      <trkpt lat="45.36526" lon="5.9029">
        <ele>1885.7634277344</ele>
        <time>2010-11-14T08:31:29Z</time>
      </trkpt>
      <trkpt lat="45.36525" lon="5.90291">
        <ele>1889.6086425781</ele>
        <time>2010-11-14T08:31:31Z</time>
      </trkpt>
      <trkpt lat="45.36524" lon="5.90291">
        <ele>1896.818359375</ele>
        <time>2010-11-14T08:31:32Z</time>
      </trkpt>
      <trkpt lat="45.36524" lon="5.90291">
        <ele>1893.4538574219</ele>
        <time>2010-11-14T08:31:33Z</time>
      </trkpt>
      <trkpt lat="45.36524" lon="5.9029">
        <ele>1892.4926757812</ele>
        <time>2010-11-14T08:31:39Z</time>
      </trkpt>
      <trkpt lat="45.36524" lon="5.90288">
        <ele>1887.2053222656</ele>
        <time>2010-11-14T08:31:45Z</time>
      </trkpt>
      <trkpt lat="45.36524" lon="5.90287">
        <ele>1887.2053222656</ele>
        <time>2010-11-14T08:31:46Z</time>
      </trkpt>
      <trkpt lat="45.36523" lon="5.90285">
        <ele>1887.2053222656</ele>
        <time>2010-11-14T08:31:51Z</time>
      </trkpt>
      <trkpt lat="45.36525" lon="5.90284">
        <ele>1890.0893554688</ele>
        <time>2010-11-14T08:31:59Z</time>
      </trkpt>
      <trkpt lat="45.36525" lon="5.90284">
        <ele>1890.0893554688</ele>
        <time>2010-11-14T08:32:00Z</time>
      </trkpt>
      <trkpt lat="45.36525" lon="5.90284">
        <ele>1888.1667480469</ele>
        <time>2010-11-14T08:32:02Z</time>
      </trkpt>
      <trkpt lat="45.36525" lon="5.90282">
        <ele>1890.5698242188</ele>
        <time>2010-11-14T08:32:06Z</time>
      </trkpt>
      <trkpt lat="45.36525" lon="5.9028">
        <ele>1894.4150390625</ele>
        <time>2010-11-14T08:32:13Z</time>
      </trkpt>
      <trkpt lat="45.36525" lon="5.90279">
        <ele>1891.53125</ele>
        <time>2010-11-14T08:32:17Z</time>
      </trkpt>
      <trkpt lat="45.36524" lon="5.90278">
        <ele>1891.53125</ele>
        <time>2010-11-14T08:32:18Z</time>
      </trkpt>
      <trkpt lat="45.36524" lon="5.90275">
        <ele>1895.8571777344</ele>
        <time>2010-11-14T08:32:28Z</time>
      </trkpt>
      <trkpt lat="45.36524" lon="5.90273">
        <ele>1895.8571777344</ele>
        <time>2010-11-14T08:32:29Z</time>
      </trkpt>
      <trkpt lat="45.36522" lon="5.90272">
        <ele>1894.4150390625</ele>
        <time>2010-11-14T08:32:32Z</time>
      </trkpt>
      <trkpt lat="45.36522" lon="5.90271">
        <ele>1891.0505371094</ele>
        <time>2010-11-14T08:32:36Z</time>
      </trkpt>
      <trkpt lat="45.36522" lon="5.90271">
        <ele>1885.7634277344</ele>
        <time>2010-11-14T08:32:38Z</time>
      </trkpt>
      <trkpt lat="45.36522" lon="5.90272">
        <ele>1890.0893554688</ele>
        <time>2010-11-14T08:32:40Z</time>
      </trkpt>
      <trkpt lat="45.36522" lon="5.90272">
        <ele>1894.4150390625</ele>
        <time>2010-11-14T08:32:51Z</time>
      </trkpt>
      <trkpt lat="45.36523" lon="5.90271">
        <ele>1891.53125</ele>
        <time>2010-11-14T08:33:02Z</time>
      </trkpt>
      <trkpt lat="45.36523" lon="5.90271">
        <ele>1891.53125</ele>
        <time>2010-11-14T08:33:03Z</time>
      </trkpt>
      <trkpt lat="45.36523" lon="5.90272">
        <ele>1891.53125</ele>
        <time>2010-11-14T08:33:08Z</time>
      </trkpt>
      <trkpt lat="45.36523" lon="5.90272">
        <ele>1894.4150390625</ele>
        <time>2010-11-14T08:33:17Z</time>
      </trkpt>
      <trkpt lat="45.36523" lon="5.90272">
        <ele>1894.8957519531</ele>
        <time>2010-11-14T08:33:18Z</time>
      </trkpt>
      <trkpt lat="45.36523" lon="5.90272">
        <ele>1891.0505371094</ele>
        <time>2010-11-14T08:33:24Z</time>
      </trkpt>
      <trkpt lat="45.36523" lon="5.90272">
        <ele>1894.8957519531</ele>
        <time>2010-11-14T08:33:25Z</time>
      </trkpt>
      <trkpt lat="45.36523" lon="5.90272">
        <ele>1896.337890625</ele>
        <time>2010-11-14T08:33:29Z</time>
      </trkpt>
      <trkpt lat="45.36523" lon="5.90272">
        <ele>1892.4926757812</ele>
        <time>2010-11-14T08:33:33Z</time>
      </trkpt>
      <trkpt lat="45.36523" lon="5.90272">
        <ele>1891.0505371094</ele>
        <time>2010-11-14T08:33:35Z</time>
      </trkpt>
      <trkpt lat="45.36523" lon="5.90272">
        <ele>1895.3764648438</ele>
        <time>2010-11-14T08:34:00Z</time>
      </trkpt>
      <trkpt lat="45.36523" lon="5.90272">
        <ele>1894.4150390625</ele>
        <time>2010-11-14T08:34:01Z</time>
      </trkpt>
      <trkpt lat="45.36523" lon="5.90272">
        <ele>1891.53125</ele>
        <time>2010-11-14T08:34:08Z</time>
      </trkpt>
      <trkpt lat="45.36523" lon="5.90272">
        <ele>1895.8571777344</ele>
        <time>2010-11-14T08:34:13Z</time>
      </trkpt>
      <trkpt lat="45.36523" lon="5.90272">
        <ele>1896.337890625</ele>
        <time>2010-11-14T08:34:15Z</time>
      </trkpt>
      <trkpt lat="45.36523" lon="5.90272">
        <ele>1894.4150390625</ele>
        <time>2010-11-14T08:34:17Z</time>
      </trkpt>
      <trkpt lat="45.36523" lon="5.90272">
        <ele>1891.0505371094</ele>
        <time>2010-11-14T08:34:24Z</time>
      </trkpt>
      <trkpt lat="45.36523" lon="5.90272">
        <ele>1890.5698242188</ele>
        <time>2010-11-14T08:34:31Z</time>
      </trkpt>
      <trkpt lat="45.36523" lon="5.90272">
        <ele>1891.0505371094</ele>
        <time>2010-11-14T08:34:43Z</time>
      </trkpt>
      <trkpt lat="45.36523" lon="5.90272">
        <ele>1894.4150390625</ele>
        <time>2010-11-14T08:34:59Z</time>
      </trkpt>
      <trkpt lat="45.36523" lon="5.90272">
        <ele>1891.53125</ele>
        <time>2010-11-14T08:35:04Z</time>
      </trkpt>
      <trkpt lat="45.36523" lon="5.90272">
        <ele>1891.53125</ele>
        <time>2010-11-14T08:35:18Z</time>
      </trkpt>
      <trkpt lat="45.36523" lon="5.90272">
        <ele>1888.6474609375</ele>
        <time>2010-11-14T08:35:22Z</time>
      </trkpt>
      <trkpt lat="45.36523" lon="5.90272">
        <ele>1888.1667480469</ele>
        <time>2010-11-14T08:35:23Z</time>
      </trkpt>
      <trkpt lat="45.36523" lon="5.90272">
        <ele>1891.53125</ele>
        <time>2010-11-14T08:35:26Z</time>
      </trkpt>
      <trkpt lat="45.36523" lon="5.90272">
        <ele>1896.818359375</ele>
        <time>2010-11-14T08:35:28Z</time>
      </trkpt>
      <trkpt lat="45.36523" lon="5.90272">
        <ele>1891.0505371094</ele>
        <time>2010-11-14T08:35:32Z</time>
      </trkpt>
      <trkpt lat="45.36523" lon="5.90272">
        <ele>1891.53125</ele>
        <time>2010-11-14T08:35:33Z</time>
      </trkpt>
      <trkpt lat="45.36523" lon="5.90272">
        <ele>1891.53125</ele>
        <time>2010-11-14T08:36:10Z</time>
      </trkpt>
      <trkpt lat="45.36523" lon="5.90272">
        <ele>1895.3764648438</ele>
        <time>2010-11-14T08:36:13Z</time>
      </trkpt>
      <trkpt lat="45.36523" lon="5.90272">
        <ele>1893.4538574219</ele>
        <time>2010-11-14T08:36:16Z</time>
      </trkpt>
      <trkpt lat="45.36523" lon="5.90272">
        <ele>1890.5698242188</ele>
        <time>2010-11-14T08:36:34Z</time>
      </trkpt>
      <trkpt lat="45.36523" lon="5.90272">
        <ele>1894.8957519531</ele>
        <time>2010-11-14T08:36:38Z</time>
      </trkpt>
      <trkpt lat="45.36523" lon="5.90272">
        <ele>1893.9345703125</ele>
        <time>2010-11-14T08:36:39Z</time>
      </trkpt>
      <trkpt lat="45.36523" lon="5.90272">
        <ele>1897.7797851562</ele>
        <time>2010-11-14T08:36:40Z</time>
      </trkpt>
      <trkpt lat="45.36523" lon="5.90272">
        <ele>1896.337890625</ele>
        <time>2010-11-14T08:36:41Z</time>
      </trkpt>
      <trkpt lat="45.36523" lon="5.90272">
        <ele>1892.9731445312</ele>
        <time>2010-11-14T08:36:45Z</time>
      </trkpt>
      <trkpt lat="45.36523" lon="5.90272">
        <ele>1892.0119628906</ele>
        <time>2010-11-14T08:36:50Z</time>
      </trkpt>
      <trkpt lat="45.36523" lon="5.90272">
        <ele>1894.4150390625</ele>
        <time>2010-11-14T08:36:57Z</time>
      </trkpt>
      <trkpt lat="45.36523" lon="5.90272">
        <ele>1891.53125</ele>
        <time>2010-11-14T08:37:01Z</time>
      </trkpt>
      <trkpt lat="45.36523" lon="5.90272">
        <ele>1893.4538574219</ele>
        <time>2010-11-14T08:37:04Z</time>
      </trkpt>
      <trkpt lat="45.36523" lon="5.90272">
        <ele>1890.5698242188</ele>
        <time>2010-11-14T08:37:21Z</time>
      </trkpt>
      <trkpt lat="45.36523" lon="5.90272">
        <ele>1894.4150390625</ele>
        <time>2010-11-14T08:37:28Z</time>
      </trkpt>
      <trkpt lat="45.36523" lon="5.90272">
        <ele>1894.4150390625</ele>
        <time>2010-11-14T08:37:29Z</time>
      </trkpt>
      <trkpt lat="45.36523" lon="5.90272">
        <ele>1891.0505371094</ele>
        <time>2010-11-14T08:37:49Z</time>
      </trkpt>
      <trkpt lat="45.36523" lon="5.90272">
        <ele>1892.9731445312</ele>
        <time>2010-11-14T08:38:00Z</time>
      </trkpt>
      <trkpt lat="45.36523" lon="5.90272">
        <ele>1889.6086425781</ele>
        <time>2010-11-14T08:38:06Z</time>
      </trkpt>
      <trkpt lat="45.36523" lon="5.90272">
        <ele>1893.9345703125</ele>
        <time>2010-11-14T08:38:09Z</time>
      </trkpt>
      <trkpt lat="45.36522" lon="5.90273">
        <ele>1892.9731445312</ele>
        <time>2010-11-14T08:38:10Z</time>
      </trkpt>
      <trkpt lat="45.36522" lon="5.90273">
        <ele>1889.1279296875</ele>
        <time>2010-11-14T08:38:11Z</time>
      </trkpt>
      <trkpt lat="45.36522" lon="5.90273">
        <ele>1890.5698242188</ele>
        <time>2010-11-14T08:38:12Z</time>
      </trkpt>
      <trkpt lat="45.36522" lon="5.90273">
        <ele>1890.0893554688</ele>
        <time>2010-11-14T08:38:18Z</time>
      </trkpt>
      <trkpt lat="45.36522" lon="5.90273">
        <ele>1893.4538574219</ele>
        <time>2010-11-14T08:38:19Z</time>
      </trkpt>
      <trkpt lat="45.36522" lon="5.90273">
        <ele>1897.2990722656</ele>
        <time>2010-11-14T08:38:21Z</time>
      </trkpt>
      <trkpt lat="45.36522" lon="5.90273">
        <ele>1908.8349609375</ele>
        <time>2010-11-14T08:38:22Z</time>
      </trkpt>
      <trkpt lat="45.36522" lon="5.90273">
        <ele>1911.7189941406</ele>
        <time>2010-11-14T08:38:23Z</time>
      </trkpt>
      <trkpt lat="45.36522" lon="5.90273">
        <ele>1906.431640625</ele>
        <time>2010-11-14T08:38:24Z</time>
      </trkpt>
      <trkpt lat="45.36522" lon="5.90273">
        <ele>1902.1057128906</ele>
        <time>2010-11-14T08:38:25Z</time>
      </trkpt>
      <trkpt lat="45.36522" lon="5.90273">
        <ele>1898.7409667969</ele>
        <time>2010-11-14T08:38:26Z</time>
      </trkpt>
      <trkpt lat="45.36522" lon="5.90273">
        <ele>1891.53125</ele>
        <time>2010-11-14T08:38:31Z</time>
      </trkpt>
      <trkpt lat="45.36522" lon="5.90274">
        <ele>1891.53125</ele>
        <time>2010-11-14T08:38:32Z</time>
      </trkpt>
      <trkpt lat="45.36522" lon="5.90274">
        <ele>1895.3764648438</ele>
        <time>2010-11-14T08:38:34Z</time>
      </trkpt>
      <trkpt lat="45.36522" lon="5.90275">
        <ele>1895.8571777344</ele>
        <time>2010-11-14T08:38:36Z</time>
      </trkpt>
      <trkpt lat="45.3652" lon="5.90275">
        <ele>1892.0119628906</ele>
        <time>2010-11-14T08:38:43Z</time>
      </trkpt>
      <trkpt lat="45.3652" lon="5.90275">
        <ele>1892.0119628906</ele>
        <time>2010-11-14T08:38:44Z</time>
      </trkpt>
      <trkpt lat="45.3652" lon="5.90274">
        <ele>1894.8957519531</ele>
        <time>2010-11-14T08:38:47Z</time>
      </trkpt>
      <trkpt lat="45.3652" lon="5.90274">
        <ele>1891.0505371094</ele>
        <time>2010-11-14T08:38:50Z</time>
      </trkpt>
      <trkpt lat="45.3652" lon="5.90274">
        <ele>1891.0505371094</ele>
        <time>2010-11-14T08:38:51Z</time>
      </trkpt>
      <trkpt lat="45.3652" lon="5.90275">
        <ele>1894.8957519531</ele>
        <time>2010-11-14T08:38:53Z</time>
      </trkpt>
      <trkpt lat="45.3652" lon="5.90274">
        <ele>1892.4926757812</ele>
        <time>2010-11-14T08:39:07Z</time>
      </trkpt>
      <trkpt lat="45.3652" lon="5.90273">
        <ele>1889.6086425781</ele>
        <time>2010-11-14T08:39:11Z</time>
      </trkpt>
      <trkpt lat="45.3652" lon="5.90273">
        <ele>1894.4150390625</ele>
        <time>2010-11-14T08:39:16Z</time>
      </trkpt>
      <trkpt lat="45.3652" lon="5.90273">
        <ele>1895.8571777344</ele>
        <time>2010-11-14T08:39:18Z</time>
      </trkpt>
      <trkpt lat="45.3652" lon="5.90273">
        <ele>1899.2216796875</ele>
        <time>2010-11-14T08:39:28Z</time>
      </trkpt>
      <trkpt lat="45.3652" lon="5.90273">
        <ele>1895.8571777344</ele>
        <time>2010-11-14T08:39:34Z</time>
      </trkpt>
      <trkpt lat="45.3652" lon="5.90273">
        <ele>1891.53125</ele>
        <time>2010-11-14T08:39:35Z</time>
      </trkpt>
      <trkpt lat="45.3652" lon="5.90273">
        <ele>1899.2216796875</ele>
        <time>2010-11-14T08:39:41Z</time>
      </trkpt>
      <trkpt lat="45.3652" lon="5.90273">
        <ele>1897.2990722656</ele>
        <time>2010-11-14T08:39:44Z</time>
      </trkpt>
      <trkpt lat="45.3652" lon="5.90273">
        <ele>1894.8957519531</ele>
        <time>2010-11-14T08:39:48Z</time>
      </trkpt>
      <trkpt lat="45.3652" lon="5.90272">
        <ele>1898.2602539062</ele>
        <time>2010-11-14T08:39:55Z</time>
      </trkpt>
      <trkpt lat="45.3652" lon="5.90272">
        <ele>1905.4704589844</ele>
        <time>2010-11-14T08:39:56Z</time>
      </trkpt>
      <trkpt lat="45.3652" lon="5.90272">
        <ele>1912.1994628906</ele>
        <time>2010-11-14T08:39:57Z</time>
      </trkpt>
      <trkpt lat="45.3652" lon="5.90271">
        <ele>1909.7961425781</ele>
        <time>2010-11-14T08:39:58Z</time>
      </trkpt>
      <trkpt lat="45.3652" lon="5.90271">
        <ele>1904.5090332031</ele>
        <time>2010-11-14T08:39:59Z</time>
      </trkpt>
      <trkpt lat="45.3652" lon="5.90271">
        <ele>1900.6638183594</ele>
        <time>2010-11-14T08:40:00Z</time>
      </trkpt>
      <trkpt lat="45.36523" lon="5.9027">
        <ele>1896.337890625</ele>
        <time>2010-11-14T08:40:02Z</time>
      </trkpt>
      <trkpt lat="45.36523" lon="5.9027">
        <ele>1894.8957519531</ele>
        <time>2010-11-14T08:40:04Z</time>
      </trkpt>
      <trkpt lat="45.36523" lon="5.90271">
        <ele>1895.3764648438</ele>
        <time>2010-11-14T08:40:27Z</time>
      </trkpt>
      <trkpt lat="45.3652" lon="5.90272">
        <ele>1896.337890625</ele>
        <time>2010-11-14T08:40:35Z</time>
      </trkpt>
      <trkpt lat="45.3652" lon="5.90272">
        <ele>1900.1833496094</ele>
        <time>2010-11-14T08:40:45Z</time>
      </trkpt>
      <trkpt lat="45.3652" lon="5.90272">
        <ele>1904.5090332031</ele>
        <time>2010-11-14T08:40:46Z</time>
      </trkpt>
      <trkpt lat="45.3652" lon="5.90272">
        <ele>1902.1057128906</ele>
        <time>2010-11-14T08:40:47Z</time>
      </trkpt>
      <trkpt lat="45.3652" lon="5.90272">
        <ele>1897.2990722656</ele>
        <time>2010-11-14T08:40:52Z</time>
      </trkpt>
      <trkpt lat="45.3652" lon="5.90272">
        <ele>1896.337890625</ele>
        <time>2010-11-14T08:40:54Z</time>
      </trkpt>
      <trkpt lat="45.3652" lon="5.90272">
        <ele>1895.3764648438</ele>
        <time>2010-11-14T08:41:14Z</time>
      </trkpt>
      <trkpt lat="45.3652" lon="5.90262">
        <ele>1890.5698242188</ele>
        <time>2010-11-14T08:41:24Z</time>
      </trkpt>
      <trkpt lat="45.3652" lon="5.90262">
        <ele>1890.5698242188</ele>
        <time>2010-11-14T08:41:25Z</time>
      </trkpt>
      <trkpt lat="45.36519" lon="5.90259">
        <ele>1889.6086425781</ele>
        <time>2010-11-14T08:41:27Z</time>
      </trkpt>
      <trkpt lat="45.36516" lon="5.90256">
        <ele>1892.4926757812</ele>
        <time>2010-11-14T08:41:31Z</time>
      </trkpt>
      <trkpt lat="45.36516" lon="5.90256">
        <ele>1887.2053222656</ele>
        <time>2010-11-14T08:41:33Z</time>
      </trkpt>
      <trkpt lat="45.36515" lon="5.90255">
        <ele>1888.1667480469</ele>
        <time>2010-11-14T08:41:34Z</time>
      </trkpt>
      <trkpt lat="45.36514" lon="5.90252">
        <ele>1892.0119628906</ele>
        <time>2010-11-14T08:41:36Z</time>
      </trkpt>
      <trkpt lat="45.36512" lon="5.90249">
        <ele>1887.2053222656</ele>
        <time>2010-11-14T08:41:39Z</time>
      </trkpt>
      <trkpt lat="45.36511" lon="5.90248">
        <ele>1887.2053222656</ele>
        <time>2010-11-14T08:41:40Z</time>
      </trkpt>
      <trkpt lat="45.36511" lon="5.90246">
        <ele>1883.8405761719</ele>
        <time>2010-11-14T08:41:42Z</time>
      </trkpt>
      <trkpt lat="45.36511" lon="5.90245">
        <ele>1883.8405761719</ele>
        <time>2010-11-14T08:41:43Z</time>
      </trkpt>
      <trkpt lat="45.36512" lon="5.90243">
        <ele>1883.8405761719</ele>
        <time>2010-11-14T08:41:45Z</time>
      </trkpt>
      <trkpt lat="45.36513" lon="5.90232">
        <ele>1880.9567871094</ele>
        <time>2010-11-14T08:41:57Z</time>
      </trkpt>
      <trkpt lat="45.36507" lon="5.90222">
        <ele>1875.1887207031</ele>
        <time>2010-11-14T08:42:04Z</time>
      </trkpt>
      <trkpt lat="45.36507" lon="5.9022">
        <ele>1875.6694335938</ele>
        <time>2010-11-14T08:42:05Z</time>
      </trkpt>
      <trkpt lat="45.36506" lon="5.90216">
        <ele>1873.7468261719</ele>
        <time>2010-11-14T08:42:09Z</time>
      </trkpt>
      <trkpt lat="45.36506" lon="5.90212">
        <ele>1878.0727539062</ele>
        <time>2010-11-14T08:42:12Z</time>
      </trkpt>
      <trkpt lat="45.36506" lon="5.90202">
        <ele>1876.630859375</ele>
        <time>2010-11-14T08:42:20Z</time>
      </trkpt>
      <trkpt lat="45.36505" lon="5.90196">
        <ele>1872.7856445312</ele>
        <time>2010-11-14T08:42:26Z</time>
      </trkpt>
      <trkpt lat="45.36502" lon="5.90192">
        <ele>1873.7468261719</ele>
        <time>2010-11-14T08:42:32Z</time>
      </trkpt>
      <trkpt lat="45.365" lon="5.90189">
        <ele>1872.3049316406</ele>
        <time>2010-11-14T08:42:36Z</time>
      </trkpt>
      <trkpt lat="45.36488" lon="5.90178">
        <ele>1869.9016113281</ele>
        <time>2010-11-14T08:42:51Z</time>
      </trkpt>
      <trkpt lat="45.36488" lon="5.90179">
        <ele>1867.017578125</ele>
        <time>2010-11-14T08:42:55Z</time>
      </trkpt>
      <trkpt lat="45.36488" lon="5.90179">
        <ele>1866.5368652344</ele>
        <time>2010-11-14T08:42:56Z</time>
      </trkpt>
      <trkpt lat="45.36484" lon="5.90171">
        <ele>1863.1723632812</ele>
        <time>2010-11-14T08:43:07Z</time>
      </trkpt>
      <trkpt lat="45.3648" lon="5.90168">
        <ele>1859.3271484375</ele>
        <time>2010-11-14T08:43:10Z</time>
      </trkpt>
      <trkpt lat="45.36479" lon="5.90167">
        <ele>1859.3271484375</ele>
        <time>2010-11-14T08:43:11Z</time>
      </trkpt>
      <trkpt lat="45.36475" lon="5.90162">
        <ele>1862.6916503906</ele>
        <time>2010-11-14T08:43:17Z</time>
      </trkpt>
      <trkpt lat="45.36475" lon="5.90161">
        <ele>1863.1723632812</ele>
        <time>2010-11-14T08:43:18Z</time>
      </trkpt>
      <trkpt lat="45.36475" lon="5.90158">
        <ele>1856.4431152344</ele>
        <time>2010-11-14T08:43:20Z</time>
      </trkpt>
      <trkpt lat="45.36475" lon="5.90157">
        <ele>1856.923828125</ele>
        <time>2010-11-14T08:43:21Z</time>
      </trkpt>
      <trkpt lat="45.36472" lon="5.90153">
        <ele>1858.8464355469</ele>
        <time>2010-11-14T08:43:27Z</time>
      </trkpt>
      <trkpt lat="45.36469" lon="5.9015">
        <ele>1861.2497558594</ele>
        <time>2010-11-14T08:43:30Z</time>
      </trkpt>
      <trkpt lat="45.36468" lon="5.9015">
        <ele>1859.8076171875</ele>
        <time>2010-11-14T08:43:31Z</time>
      </trkpt>
      <trkpt lat="45.3646" lon="5.90147">
        <ele>1860.7690429688</ele>
        <time>2010-11-14T08:43:37Z</time>
      </trkpt>
      <trkpt lat="45.36457" lon="5.90144">
        <ele>1858.8464355469</ele>
        <time>2010-11-14T08:43:40Z</time>
      </trkpt>
      <trkpt lat="45.36453" lon="5.90143">
        <ele>1864.1335449219</ele>
        <time>2010-11-14T08:43:43Z</time>
      </trkpt>
      <trkpt lat="45.36452" lon="5.90143">
        <ele>1864.1335449219</ele>
        <time>2010-11-14T08:43:44Z</time>
      </trkpt>
      <trkpt lat="45.36451" lon="5.90143">
        <ele>1860.7690429688</ele>
        <time>2010-11-14T08:43:48Z</time>
      </trkpt>
      <trkpt lat="45.36451" lon="5.90142">
        <ele>1860.2883300781</ele>
        <time>2010-11-14T08:43:50Z</time>
      </trkpt>
      <trkpt lat="45.36451" lon="5.90142">
        <ele>1858.8464355469</ele>
        <time>2010-11-14T08:43:51Z</time>
      </trkpt>
      <trkpt lat="45.36443" lon="5.90138">
        <ele>1861.73046875</ele>
        <time>2010-11-14T08:43:59Z</time>
      </trkpt>
      <trkpt lat="45.36436" lon="5.90138">
        <ele>1865.0949707031</ele>
        <time>2010-11-14T08:44:10Z</time>
      </trkpt>
      <trkpt lat="45.36432" lon="5.90136">
        <ele>1861.73046875</ele>
        <time>2010-11-14T08:44:14Z</time>
      </trkpt>
      <trkpt lat="45.36417" lon="5.90138">
        <ele>1863.1723632812</ele>
        <time>2010-11-14T08:44:27Z</time>
      </trkpt>
      <trkpt lat="45.36411" lon="5.90142">
        <ele>1867.017578125</ele>
        <time>2010-11-14T08:44:36Z</time>
      </trkpt>
      <trkpt lat="45.36405" lon="5.90145">
        <ele>1870.3823242188</ele>
        <time>2010-11-14T08:44:44Z</time>
      </trkpt>
      <trkpt lat="45.36402" lon="5.90145">
        <ele>1869.4211425781</ele>
        <time>2010-11-14T08:44:48Z</time>
      </trkpt>
      <trkpt lat="45.36398" lon="5.90146">
        <ele>1868.4597167969</ele>
        <time>2010-11-14T08:44:52Z</time>
      </trkpt>
      <trkpt lat="45.36398" lon="5.90148">
        <ele>1870.3823242188</ele>
        <time>2010-11-14T08:44:56Z</time>
      </trkpt>
      <trkpt lat="45.36387" lon="5.90156">
        <ele>1871.3435058594</ele>
        <time>2010-11-14T08:45:13Z</time>
      </trkpt>
      <trkpt lat="45.36378" lon="5.90157">
        <ele>1875.1887207031</ele>
        <time>2010-11-14T08:45:24Z</time>
      </trkpt>
      <trkpt lat="45.36377" lon="5.90157">
        <ele>1876.1501464844</ele>
        <time>2010-11-14T08:45:26Z</time>
      </trkpt>
      <trkpt lat="45.36367" lon="5.90162">
        <ele>1873.7468261719</ele>
        <time>2010-11-14T08:45:38Z</time>
      </trkpt>
      <trkpt lat="45.36363" lon="5.90167">
        <ele>1876.1501464844</ele>
        <time>2010-11-14T08:45:45Z</time>
      </trkpt>
      <trkpt lat="45.36362" lon="5.90168">
        <ele>1879.9953613281</ele>
        <time>2010-11-14T08:45:47Z</time>
      </trkpt>
      <trkpt lat="45.36357" lon="5.90171">
        <ele>1882.3986816406</ele>
        <time>2010-11-14T08:45:59Z</time>
      </trkpt>
      <trkpt lat="45.36357" lon="5.90169">
        <ele>1881.91796875</ele>
        <time>2010-11-14T08:46:00Z</time>
      </trkpt>
      <trkpt lat="45.36356" lon="5.90167">
        <ele>1880.9567871094</ele>
        <time>2010-11-14T08:46:02Z</time>
      </trkpt>
      <trkpt lat="45.36349" lon="5.90168">
        <ele>1878.0727539062</ele>
        <time>2010-11-14T08:46:10Z</time>
      </trkpt>
      <trkpt lat="45.36347" lon="5.90168">
        <ele>1881.4372558594</ele>
        <time>2010-11-14T08:46:13Z</time>
      </trkpt>
      <trkpt lat="45.36344" lon="5.90168">
        <ele>1884.8022460938</ele>
        <time>2010-11-14T08:46:16Z</time>
      </trkpt>
      <trkpt lat="45.36341" lon="5.90169">
        <ele>1888.1667480469</ele>
        <time>2010-11-14T08:46:19Z</time>
      </trkpt>
      <trkpt lat="45.3634" lon="5.90168">
        <ele>1884.3215332031</ele>
        <time>2010-11-14T08:46:22Z</time>
      </trkpt>
      <trkpt lat="45.36337" lon="5.90165">
        <ele>1880.9567871094</ele>
        <time>2010-11-14T08:46:26Z</time>
      </trkpt>
      <trkpt lat="45.36337" lon="5.90164">
        <ele>1880.9567871094</ele>
        <time>2010-11-14T08:46:27Z</time>
      </trkpt>
      <trkpt lat="45.36332" lon="5.90156">
        <ele>1881.91796875</ele>
        <time>2010-11-14T08:46:36Z</time>
      </trkpt>
      <trkpt lat="45.36327" lon="5.90147">
        <ele>1878.5534667969</ele>
        <time>2010-11-14T08:46:42Z</time>
      </trkpt>
      <trkpt lat="45.36326" lon="5.90145">
        <ele>1878.0727539062</ele>
        <time>2010-11-14T08:46:44Z</time>
      </trkpt>
      <trkpt lat="45.36324" lon="5.90144">
        <ele>1879.0339355469</ele>
        <time>2010-11-14T08:46:47Z</time>
      </trkpt>
      <trkpt lat="45.36322" lon="5.90139">
        <ele>1876.1501464844</ele>
        <time>2010-11-14T08:46:51Z</time>
      </trkpt>
      <trkpt lat="45.36321" lon="5.90138">
        <ele>1876.630859375</ele>
        <time>2010-11-14T08:46:52Z</time>
      </trkpt>
      <trkpt lat="45.36316" lon="5.90131">
        <ele>1872.7856445312</ele>
        <time>2010-11-14T08:46:59Z</time>
      </trkpt>
      <trkpt lat="45.36315" lon="5.9013">
        <ele>1872.7856445312</ele>
        <time>2010-11-14T08:47:00Z</time>
      </trkpt>
      <trkpt lat="45.36311" lon="5.90125">
        <ele>1875.1887207031</ele>
        <time>2010-11-14T08:47:07Z</time>
      </trkpt>
      <trkpt lat="45.36307" lon="5.90119">
        <ele>1877.1115722656</ele>
        <time>2010-11-14T08:47:10Z</time>
      </trkpt>
      <trkpt lat="45.36306" lon="5.90119">
        <ele>1876.630859375</ele>
        <time>2010-11-14T08:47:11Z</time>
      </trkpt>
      <trkpt lat="45.36302" lon="5.9011">
        <ele>1875.1887207031</ele>
        <time>2010-11-14T08:47:18Z</time>
      </trkpt>
      <trkpt lat="45.36301" lon="5.90106">
        <ele>1872.3049316406</ele>
        <time>2010-11-14T08:47:21Z</time>
      </trkpt>
      <trkpt lat="45.363" lon="5.90093">
        <ele>1869.4211425781</ele>
        <time>2010-11-14T08:47:29Z</time>
      </trkpt>
      <trkpt lat="45.36298" lon="5.90089">
        <ele>1866.0561523438</ele>
        <time>2010-11-14T08:47:31Z</time>
      </trkpt>
      <trkpt lat="45.36295" lon="5.90085">
        <ele>1862.6916503906</ele>
        <time>2010-11-14T08:47:34Z</time>
      </trkpt>
      <trkpt lat="45.36292" lon="5.90083">
        <ele>1861.2497558594</ele>
        <time>2010-11-14T08:47:37Z</time>
      </trkpt>
      <trkpt lat="45.36284" lon="5.9008">
        <ele>1860.2883300781</ele>
        <time>2010-11-14T08:47:44Z</time>
      </trkpt>
      <trkpt lat="45.36282" lon="5.90079">
        <ele>1859.3271484375</ele>
        <time>2010-11-14T08:47:46Z</time>
      </trkpt>
      <trkpt lat="45.3628" lon="5.90077">
        <ele>1863.1723632812</ele>
        <time>2010-11-14T08:47:49Z</time>
      </trkpt>
      <trkpt lat="45.36275" lon="5.90071">
        <ele>1860.7690429688</ele>
        <time>2010-11-14T08:48:01Z</time>
      </trkpt>
      <trkpt lat="45.36266" lon="5.90063">
        <ele>1864.1335449219</ele>
        <time>2010-11-14T08:48:10Z</time>
      </trkpt>
      <trkpt lat="45.36254" lon="5.90049">
        <ele>1862.6916503906</ele>
        <time>2010-11-14T08:48:23Z</time>
      </trkpt>
      <trkpt lat="45.36243" lon="5.90035">
        <ele>1862.2109375</ele>
        <time>2010-11-14T08:48:39Z</time>
      </trkpt>
      <trkpt lat="45.36242" lon="5.90034">
        <ele>1863.6528320312</ele>
        <time>2010-11-14T08:48:41Z</time>
      </trkpt>
      <trkpt lat="45.36235" lon="5.90026">
        <ele>1860.2883300781</ele>
        <time>2010-11-14T08:48:50Z</time>
      </trkpt>
      <trkpt lat="45.36234" lon="5.90025">
        <ele>1860.2883300781</ele>
        <time>2010-11-14T08:48:51Z</time>
      </trkpt>
      <trkpt lat="45.36227" lon="5.90018">
        <ele>1864.6142578125</ele>
        <time>2010-11-14T08:49:00Z</time>
      </trkpt>
      <trkpt lat="45.36219" lon="5.90011">
        <ele>1865.0949707031</ele>
        <time>2010-11-14T08:49:09Z</time>
      </trkpt>
      <trkpt lat="45.36217" lon="5.90007">
        <ele>1862.6916503906</ele>
        <time>2010-11-14T08:49:13Z</time>
      </trkpt>
      <trkpt lat="45.36214" lon="5.90001">
        <ele>1866.5368652344</ele>
        <time>2010-11-14T08:49:20Z</time>
      </trkpt>
      <trkpt lat="45.36213" lon="5.9">
        <ele>1866.0561523438</ele>
        <time>2010-11-14T08:49:21Z</time>
      </trkpt>
      <trkpt lat="45.36211" lon="5.89995">
        <ele>1864.6142578125</ele>
        <time>2010-11-14T08:49:24Z</time>
      </trkpt>
      <trkpt lat="45.3621" lon="5.89992">
        <ele>1861.73046875</ele>
        <time>2010-11-14T08:49:26Z</time>
      </trkpt>
      <trkpt lat="45.36206" lon="5.89985">
        <ele>1862.2109375</ele>
        <time>2010-11-14T08:49:37Z</time>
      </trkpt>
      <trkpt lat="45.36204" lon="5.89981">
        <ele>1861.2497558594</ele>
        <time>2010-11-14T08:49:39Z</time>
      </trkpt>
      <trkpt lat="45.36195" lon="5.8997">
        <ele>1862.6916503906</ele>
        <time>2010-11-14T08:49:49Z</time>
      </trkpt>
      <trkpt lat="45.3619" lon="5.89965">
        <ele>1864.6142578125</ele>
        <time>2010-11-14T08:49:56Z</time>
      </trkpt>
      <trkpt lat="45.36183" lon="5.89955">
        <ele>1860.7690429688</ele>
        <time>2010-11-14T08:50:04Z</time>
      </trkpt>
      <trkpt lat="45.36167" lon="5.89943">
        <ele>1861.2497558594</ele>
        <time>2010-11-14T08:50:18Z</time>
      </trkpt>
      <trkpt lat="45.36157" lon="5.89934">
        <ele>1857.4045410156</ele>
        <time>2010-11-14T08:50:28Z</time>
      </trkpt>
      <trkpt lat="45.36156" lon="5.89933">
        <ele>1857.4045410156</ele>
        <time>2010-11-14T08:50:29Z</time>
      </trkpt>
      <trkpt lat="45.36152" lon="5.89926">
        <ele>1858.3657226562</ele>
        <time>2010-11-14T08:50:33Z</time>
      </trkpt>
      <trkpt lat="45.3615" lon="5.89925">
        <ele>1859.8076171875</ele>
        <time>2010-11-14T08:50:34Z</time>
      </trkpt>
      <trkpt lat="45.36143" lon="5.89919">
        <ele>1858.3657226562</ele>
        <time>2010-11-14T08:50:41Z</time>
      </trkpt>
      <trkpt lat="45.36137" lon="5.89916">
        <ele>1856.4431152344</ele>
        <time>2010-11-14T08:50:46Z</time>
      </trkpt>
      <trkpt lat="45.36131" lon="5.89906">
        <ele>1852.5979003906</ele>
        <time>2010-11-14T08:50:57Z</time>
      </trkpt>
      <trkpt lat="45.36127" lon="5.89905">
        <ele>1851.1557617188</ele>
        <time>2010-11-14T08:51:02Z</time>
      </trkpt>
      <trkpt lat="45.36124" lon="5.89903">
        <ele>1853.5593261719</ele>
        <time>2010-11-14T08:51:07Z</time>
      </trkpt>
      <trkpt lat="45.36124" lon="5.89897">
        <ele>1850.1945800781</ele>
        <time>2010-11-14T08:51:11Z</time>
      </trkpt>
      <trkpt lat="45.36125" lon="5.89887">
        <ele>1848.7524414062</ele>
        <time>2010-11-14T08:51:20Z</time>
      </trkpt>
      <trkpt lat="45.36125" lon="5.89881">
        <ele>1846.8298339844</ele>
        <time>2010-11-14T08:51:23Z</time>
      </trkpt>
      <trkpt lat="45.36125" lon="5.89879">
        <ele>1846.3493652344</ele>
        <time>2010-11-14T08:51:24Z</time>
      </trkpt>
      <trkpt lat="45.36125" lon="5.89874">
        <ele>1842.5041503906</ele>
        <time>2010-11-14T08:51:27Z</time>
      </trkpt>
      <trkpt lat="45.3612" lon="5.89873">
        <ele>1839.1394042969</ele>
        <time>2010-11-14T08:51:35Z</time>
      </trkpt>
      <trkpt lat="45.36118" lon="5.89874">
        <ele>1840.1008300781</ele>
        <time>2010-11-14T08:51:39Z</time>
      </trkpt>
      <trkpt lat="45.36111" lon="5.89878">
        <ele>1837.216796875</ele>
        <time>2010-11-14T08:51:49Z</time>
      </trkpt>
      <trkpt lat="45.36107" lon="5.89871">
        <ele>1833.8520507812</ele>
        <time>2010-11-14T08:51:58Z</time>
      </trkpt>
      <trkpt lat="45.36107" lon="5.89871">
        <ele>1833.3713378906</ele>
        <time>2010-11-14T08:51:59Z</time>
      </trkpt>
      <trkpt lat="45.36103" lon="5.89869">
        <ele>1834.8134765625</ele>
        <time>2010-11-14T08:52:06Z</time>
      </trkpt>
      <trkpt lat="45.36102" lon="5.89864">
        <ele>1830.9682617188</ele>
        <time>2010-11-14T08:52:12Z</time>
      </trkpt>
      <trkpt lat="45.36103" lon="5.89859">
        <ele>1827.123046875</ele>
        <time>2010-11-14T08:52:16Z</time>
      </trkpt>
      <trkpt lat="45.36104" lon="5.89858">
        <ele>1827.123046875</ele>
        <time>2010-11-14T08:52:17Z</time>
      </trkpt>
      <trkpt lat="45.36101" lon="5.89856">
        <ele>1825.2001953125</ele>
        <time>2010-11-14T08:52:21Z</time>
      </trkpt>
      <trkpt lat="45.36098" lon="5.89857">
        <ele>1824.2390136719</ele>
        <time>2010-11-14T08:52:23Z</time>
      </trkpt>
      <trkpt lat="45.36098" lon="5.89857">
        <ele>1826.1616210938</ele>
        <time>2010-11-14T08:52:28Z</time>
      </trkpt>
      <trkpt lat="45.36097" lon="5.89855">
        <ele>1824.2390136719</ele>
        <time>2010-11-14T08:52:30Z</time>
      </trkpt>
      <trkpt lat="45.36091" lon="5.89854">
        <ele>1826.1616210938</ele>
        <time>2010-11-14T08:52:35Z</time>
      </trkpt>
      <trkpt lat="45.36087" lon="5.89855">
        <ele>1829.0454101562</ele>
        <time>2010-11-14T08:52:38Z</time>
      </trkpt>
      <trkpt lat="45.36084" lon="5.89856">
        <ele>1827.123046875</ele>
        <time>2010-11-14T08:52:41Z</time>
      </trkpt>
      <trkpt lat="45.36078" lon="5.89856">
        <ele>1824.2390136719</ele>
        <time>2010-11-14T08:52:46Z</time>
      </trkpt>
      <trkpt lat="45.36076" lon="5.89856">
        <ele>1821.8356933594</ele>
        <time>2010-11-14T08:52:49Z</time>
      </trkpt>
      <trkpt lat="45.36072" lon="5.89854">
        <ele>1819.9128417969</ele>
        <time>2010-11-14T08:52:53Z</time>
      </trkpt>
      <trkpt lat="45.36068" lon="5.89853">
        <ele>1818.9516601562</ele>
        <time>2010-11-14T08:52:57Z</time>
      </trkpt>
      <trkpt lat="45.36066" lon="5.89852">
        <ele>1817.0290527344</ele>
        <time>2010-11-14T08:52:59Z</time>
      </trkpt>
      <trkpt lat="45.36065" lon="5.89851">
        <ele>1814.6257324219</ele>
        <time>2010-11-14T08:53:02Z</time>
      </trkpt>
      <trkpt lat="45.36061" lon="5.89853">
        <ele>1817.990234375</ele>
        <time>2010-11-14T08:53:11Z</time>
      </trkpt>
      <trkpt lat="45.36048" lon="5.89855">
        <ele>1820.3937988281</ele>
        <time>2010-11-14T08:53:26Z</time>
      </trkpt>
      <trkpt lat="45.3604" lon="5.89862">
        <ele>1817.0290527344</ele>
        <time>2010-11-14T08:53:33Z</time>
      </trkpt>
      <trkpt lat="45.36041" lon="5.89858">
        <ele>1814.1450195312</ele>
        <time>2010-11-14T08:53:47Z</time>
      </trkpt>
      <trkpt lat="45.36032" lon="5.89855">
        <ele>1814.1450195312</ele>
        <time>2010-11-14T08:54:06Z</time>
      </trkpt>
      <trkpt lat="45.36031" lon="5.89855">
        <ele>1812.2224121094</ele>
        <time>2010-11-14T08:54:12Z</time>
      </trkpt>
      <trkpt lat="45.36021" lon="5.89853">
        <ele>1808.8579101562</ele>
        <time>2010-11-14T08:54:28Z</time>
      </trkpt>
      <trkpt lat="45.3602" lon="5.89854">
        <ele>1810.2998046875</ele>
        <time>2010-11-14T08:54:31Z</time>
      </trkpt>
      <trkpt lat="45.3602" lon="5.89855">
        <ele>1812.2224121094</ele>
        <time>2010-11-14T08:54:33Z</time>
      </trkpt>
      <trkpt lat="45.3602" lon="5.89856">
        <ele>1815.1064453125</ele>
        <time>2010-11-14T08:54:46Z</time>
      </trkpt>
      <trkpt lat="45.36021" lon="5.89854">
        <ele>1817.0290527344</ele>
        <time>2010-11-14T08:54:49Z</time>
      </trkpt>
      <trkpt lat="45.3602" lon="5.89853">
        <ele>1816.5483398438</ele>
        <time>2010-11-14T08:54:50Z</time>
      </trkpt>
      <trkpt lat="45.36018" lon="5.89849">
        <ele>1812.703125</ele>
        <time>2010-11-14T08:54:53Z</time>
      </trkpt>
      <trkpt lat="45.36014" lon="5.89846">
        <ele>1809.3386230469</ele>
        <time>2010-11-14T08:54:58Z</time>
      </trkpt>
      <trkpt lat="45.36011" lon="5.8985">
        <ele>1812.2224121094</ele>
        <time>2010-11-14T08:55:12Z</time>
      </trkpt>
      <trkpt lat="45.36011" lon="5.89851">
        <ele>1812.703125</ele>
        <time>2010-11-14T08:55:42Z</time>
      </trkpt>
      <trkpt lat="45.36011" lon="5.89851">
        <ele>1815.1064453125</ele>
        <time>2010-11-14T08:55:46Z</time>
      </trkpt>
      <trkpt lat="45.36007" lon="5.89846">
        <ele>1812.703125</ele>
        <time>2010-11-14T08:55:56Z</time>
      </trkpt>
      <trkpt lat="45.35997" lon="5.89839">
        <ele>1813.1838378906</ele>
        <time>2010-11-14T08:56:14Z</time>
      </trkpt>
      <trkpt lat="45.35993" lon="5.89837">
        <ele>1814.6257324219</ele>
        <time>2010-11-14T08:56:18Z</time>
      </trkpt>
      <trkpt lat="45.35986" lon="5.89835">
        <ele>1817.0290527344</ele>
        <time>2010-11-14T08:56:26Z</time>
      </trkpt>
      <trkpt lat="45.35975" lon="5.89833">
        <ele>1816.5483398438</ele>
        <time>2010-11-14T08:56:39Z</time>
      </trkpt>
      <trkpt lat="45.35969" lon="5.89831">
        <ele>1819.4323730469</ele>
        <time>2010-11-14T08:56:48Z</time>
      </trkpt>
      <trkpt lat="45.35965" lon="5.89832">
        <ele>1819.4323730469</ele>
        <time>2010-11-14T08:56:53Z</time>
      </trkpt>
      <trkpt lat="45.3595" lon="5.89819">
        <ele>1817.990234375</ele>
        <time>2010-11-14T08:57:10Z</time>
      </trkpt>
      <trkpt lat="45.3594" lon="5.89799">
        <ele>1817.990234375</ele>
        <time>2010-11-14T08:57:25Z</time>
      </trkpt>
      <trkpt lat="45.3593" lon="5.89797">
        <ele>1818.9516601562</ele>
        <time>2010-11-14T08:57:42Z</time>
      </trkpt>
      <trkpt lat="45.35929" lon="5.89797">
        <ele>1820.3937988281</ele>
        <time>2010-11-14T08:57:46Z</time>
      </trkpt>
      <trkpt lat="45.35926" lon="5.89795">
        <ele>1823.2778320312</ele>
        <time>2010-11-14T08:57:59Z</time>
      </trkpt>
      <trkpt lat="45.35923" lon="5.89792">
        <ele>1826.6423339844</ele>
        <time>2010-11-14T08:58:06Z</time>
      </trkpt>
      <trkpt lat="45.35923" lon="5.89791">
        <ele>1827.603515625</ele>
        <time>2010-11-14T08:58:08Z</time>
      </trkpt>
      <trkpt lat="45.35917" lon="5.89785">
        <ele>1824.2390136719</ele>
        <time>2010-11-14T08:58:20Z</time>
      </trkpt>
      <trkpt lat="45.35911" lon="5.89779">
        <ele>1827.123046875</ele>
        <time>2010-11-14T08:58:28Z</time>
      </trkpt>
      <trkpt lat="45.35904" lon="5.8977">
        <ele>1823.7583007812</ele>
        <time>2010-11-14T08:58:42Z</time>
      </trkpt>
      <trkpt lat="45.359" lon="5.89766">
        <ele>1827.123046875</ele>
        <time>2010-11-14T08:58:47Z</time>
      </trkpt>
      <trkpt lat="45.35898" lon="5.89764">
        <ele>1828.0842285156</ele>
        <time>2010-11-14T08:58:48Z</time>
      </trkpt>
      <trkpt lat="45.35884" lon="5.89752">
        <ele>1825.2001953125</ele>
        <time>2010-11-14T08:59:03Z</time>
      </trkpt>
      <trkpt lat="45.35876" lon="5.89746">
        <ele>1828.5649414062</ele>
        <time>2010-11-14T08:59:09Z</time>
      </trkpt>
      <trkpt lat="45.35876" lon="5.89743">
        <ele>1827.123046875</ele>
        <time>2010-11-14T08:59:12Z</time>
      </trkpt>
      <trkpt lat="45.35875" lon="5.89741">
        <ele>1826.6423339844</ele>
        <time>2010-11-14T08:59:14Z</time>
      </trkpt>
      <trkpt lat="45.35872" lon="5.89733">
        <ele>1822.7971191406</ele>
        <time>2010-11-14T08:59:21Z</time>
      </trkpt>
      <trkpt lat="45.35871" lon="5.89731">
        <ele>1821.8356933594</ele>
        <time>2010-11-14T08:59:23Z</time>
      </trkpt>
      <trkpt lat="45.3587" lon="5.8973">
        <ele>1821.3549804688</ele>
        <time>2010-11-14T08:59:24Z</time>
      </trkpt>
      <trkpt lat="45.35867" lon="5.89726">
        <ele>1821.3549804688</ele>
        <time>2010-11-14T08:59:26Z</time>
      </trkpt>
      <trkpt lat="45.35848" lon="5.89714">
        <ele>1822.31640625</ele>
        <time>2010-11-14T08:59:45Z</time>
      </trkpt>
      <trkpt lat="45.35825" lon="5.897">
        <ele>1822.31640625</ele>
        <time>2010-11-14T09:00:07Z</time>
      </trkpt>
      <trkpt lat="45.35819" lon="5.89694">
        <ele>1824.2390136719</ele>
        <time>2010-11-14T09:00:15Z</time>
      </trkpt>
      <trkpt lat="45.35814" lon="5.89688">
        <ele>1821.3549804688</ele>
        <time>2010-11-14T09:00:29Z</time>
      </trkpt>
      <trkpt lat="45.35813" lon="5.8969">
        <ele>1821.3549804688</ele>
        <time>2010-11-14T09:00:32Z</time>
      </trkpt>
      <trkpt lat="45.3581" lon="5.89691">
        <ele>1822.31640625</ele>
        <time>2010-11-14T09:00:35Z</time>
      </trkpt>
      <trkpt lat="45.35812" lon="5.89696">
        <ele>1819.4323730469</ele>
        <time>2010-11-14T09:00:39Z</time>
      </trkpt>
      <trkpt lat="45.35811" lon="5.89699">
        <ele>1818.4709472656</ele>
        <time>2010-11-14T09:00:42Z</time>
      </trkpt>
      <trkpt lat="45.35809" lon="5.89716">
        <ele>1815.1064453125</ele>
        <time>2010-11-14T09:00:56Z</time>
      </trkpt>
      <trkpt lat="45.35807" lon="5.89724">
        <ele>1811.7419433594</ele>
        <time>2010-11-14T09:01:02Z</time>
      </trkpt>
      <trkpt lat="45.3581" lon="5.89738">
        <ele>1807.8967285156</ele>
        <time>2010-11-14T09:01:14Z</time>
      </trkpt>
      <trkpt lat="45.3581" lon="5.89737">
        <ele>1806.9353027344</ele>
        <time>2010-11-14T09:01:15Z</time>
      </trkpt>
      <trkpt lat="45.35807" lon="5.89733">
        <ele>1805.4934082031</ele>
        <time>2010-11-14T09:01:18Z</time>
      </trkpt>
      <trkpt lat="45.35807" lon="5.89729">
        <ele>1805.4934082031</ele>
        <time>2010-11-14T09:01:23Z</time>
      </trkpt>
      <trkpt lat="45.35815" lon="5.89729">
        <ele>1804.0515136719</ele>
        <time>2010-11-14T09:01:29Z</time>
      </trkpt>
      <trkpt lat="45.35822" lon="5.89738">
        <ele>1800.6865234375</ele>
        <time>2010-11-14T09:01:40Z</time>
      </trkpt>
      <trkpt lat="45.35823" lon="5.89739">
        <ele>1799.2446289062</ele>
        <time>2010-11-14T09:01:42Z</time>
      </trkpt>
      <trkpt lat="45.35822" lon="5.89743">
        <ele>1797.802734375</ele>
        <time>2010-11-14T09:01:50Z</time>
      </trkpt>
      <trkpt lat="45.35816" lon="5.89738">
        <ele>1796.8413085938</ele>
        <time>2010-11-14T09:01:57Z</time>
      </trkpt>
      <trkpt lat="45.35808" lon="5.89744">
        <ele>1795.8801269531</ele>
        <time>2010-11-14T09:02:06Z</time>
      </trkpt>
      <trkpt lat="45.35799" lon="5.8976">
        <ele>1798.283203125</ele>
        <time>2010-11-14T09:02:20Z</time>
      </trkpt>
      <trkpt lat="45.35794" lon="5.89772">
        <ele>1799.7253417969</ele>
        <time>2010-11-14T09:02:34Z</time>
      </trkpt>
      <trkpt lat="45.35791" lon="5.8978">
        <ele>1799.7253417969</ele>
        <time>2010-11-14T09:02:40Z</time>
      </trkpt>
      <trkpt lat="45.35781" lon="5.89791">
        <ele>1803.5705566406</ele>
        <time>2010-11-14T09:02:53Z</time>
      </trkpt>
      <trkpt lat="45.3578" lon="5.89793">
        <ele>1803.5705566406</ele>
        <time>2010-11-14T09:02:54Z</time>
      </trkpt>
      <trkpt lat="45.35772" lon="5.89794">
        <ele>1802.1284179688</ele>
        <time>2010-11-14T09:03:07Z</time>
      </trkpt>
      <trkpt lat="45.35767" lon="5.89793">
        <ele>1797.802734375</ele>
        <time>2010-11-14T09:03:11Z</time>
      </trkpt>
      <trkpt lat="45.35765" lon="5.89791">
        <ele>1801.6479492188</ele>
        <time>2010-11-14T09:03:14Z</time>
      </trkpt>
      <trkpt lat="45.35764" lon="5.8979">
        <ele>1804.0515136719</ele>
        <time>2010-11-14T09:03:16Z</time>
      </trkpt>
      <trkpt lat="45.35754" lon="5.89786">
        <ele>1802.6091308594</ele>
        <time>2010-11-14T09:03:24Z</time>
      </trkpt>
      <trkpt lat="45.35752" lon="5.89782">
        <ele>1801.1672363281</ele>
        <time>2010-11-14T09:03:27Z</time>
      </trkpt>
      <trkpt lat="45.35751" lon="5.89779">
        <ele>1800.6865234375</ele>
        <time>2010-11-14T09:03:29Z</time>
      </trkpt>
      <trkpt lat="45.35744" lon="5.89766">
        <ele>1799.2446289062</ele>
        <time>2010-11-14T09:03:39Z</time>
      </trkpt>
      <trkpt lat="45.35743" lon="5.89761">
        <ele>1793.4768066406</ele>
        <time>2010-11-14T09:03:42Z</time>
      </trkpt>
      <trkpt lat="45.35741" lon="5.89754">
        <ele>1796.3608398438</ele>
        <time>2010-11-14T09:03:50Z</time>
      </trkpt>
      <trkpt lat="45.35742" lon="5.89753">
        <ele>1796.3608398438</ele>
        <time>2010-11-14T09:03:51Z</time>
      </trkpt>
      <trkpt lat="45.35739" lon="5.89747">
        <ele>1792.515625</ele>
        <time>2010-11-14T09:03:56Z</time>
      </trkpt>
      <trkpt lat="45.3574" lon="5.89738">
        <ele>1789.6315917969</ele>
        <time>2010-11-14T09:04:04Z</time>
      </trkpt>
      <trkpt lat="45.35742" lon="5.89734">
        <ele>1790.5927734375</ele>
        <time>2010-11-14T09:04:08Z</time>
      </trkpt>
      <trkpt lat="45.35745" lon="5.89727">
        <ele>1785.3054199219</ele>
        <time>2010-11-14T09:04:15Z</time>
      </trkpt>
      <trkpt lat="45.35746" lon="5.89722">
        <ele>1784.8249511719</ele>
        <time>2010-11-14T09:04:19Z</time>
      </trkpt>
      <trkpt lat="45.35747" lon="5.89719">
        <ele>1782.4216308594</ele>
        <time>2010-11-14T09:04:21Z</time>
      </trkpt>
      <trkpt lat="45.35749" lon="5.89713">
        <ele>1786.2668457031</ele>
        <time>2010-11-14T09:04:33Z</time>
      </trkpt>
      <trkpt lat="45.35749" lon="5.89713">
        <ele>1782.9020996094</ele>
        <time>2010-11-14T09:04:36Z</time>
      </trkpt>
      <trkpt lat="45.35749" lon="5.89713">
        <ele>1779.0568847656</ele>
        <time>2010-11-14T09:04:38Z</time>
      </trkpt>
      <trkpt lat="45.35748" lon="5.89711">
        <ele>1775.6923828125</ele>
        <time>2010-11-14T09:04:41Z</time>
      </trkpt>
      <trkpt lat="45.35748" lon="5.8971">
        <ele>1775.2116699219</ele>
        <time>2010-11-14T09:04:42Z</time>
      </trkpt>
      <trkpt lat="45.35752" lon="5.897">
        <ele>1778.5764160156</ele>
        <time>2010-11-14T09:04:50Z</time>
      </trkpt>
      <trkpt lat="45.35752" lon="5.89698">
        <ele>1775.2116699219</ele>
        <time>2010-11-14T09:04:52Z</time>
      </trkpt>
      <trkpt lat="45.35753" lon="5.89698">
        <ele>1775.2116699219</ele>
        <time>2010-11-14T09:04:53Z</time>
      </trkpt>
      <trkpt lat="45.35751" lon="5.89687">
        <ele>1771.8469238281</ele>
        <time>2010-11-14T09:05:01Z</time>
      </trkpt>
      <trkpt lat="45.35751" lon="5.89681">
        <ele>1768.9631347656</ele>
        <time>2010-11-14T09:05:07Z</time>
      </trkpt>
      <trkpt lat="45.35751" lon="5.89677">
        <ele>1769.4438476562</ele>
        <time>2010-11-14T09:05:10Z</time>
      </trkpt>
      <trkpt lat="45.3575" lon="5.89666">
        <ele>1767.0405273438</ele>
        <time>2010-11-14T09:05:13Z</time>
      </trkpt>
      <trkpt lat="45.3575" lon="5.89657">
        <ele>1767.0405273438</ele>
        <time>2010-11-14T09:05:19Z</time>
      </trkpt>
      <trkpt lat="45.35749" lon="5.89652">
        <ele>1770.8857421875</ele>
        <time>2010-11-14T09:05:23Z</time>
      </trkpt>
      <trkpt lat="45.35748" lon="5.89642">
        <ele>1769.9243164062</ele>
        <time>2010-11-14T09:05:29Z</time>
      </trkpt>
      <trkpt lat="45.35749" lon="5.89636">
        <ele>1763.67578125</ele>
        <time>2010-11-14T09:05:32Z</time>
      </trkpt>
      <trkpt lat="45.35747" lon="5.89621">
        <ele>1768.0017089844</ele>
        <time>2010-11-14T09:05:39Z</time>
      </trkpt>
      <trkpt lat="45.35748" lon="5.89617">
        <ele>1771.3662109375</ele>
        <time>2010-11-14T09:05:41Z</time>
      </trkpt>
      <trkpt lat="45.35749" lon="5.89611">
        <ele>1772.3278808594</ele>
        <time>2010-11-14T09:05:43Z</time>
      </trkpt>
      <trkpt lat="45.35748" lon="5.89602">
        <ele>1768.482421875</ele>
        <time>2010-11-14T09:05:47Z</time>
      </trkpt>
      <trkpt lat="45.35744" lon="5.89592">
        <ele>1764.6372070312</ele>
        <time>2010-11-14T09:05:52Z</time>
      </trkpt>
      <trkpt lat="45.3574" lon="5.8959">
        <ele>1763.67578125</ele>
        <time>2010-11-14T09:05:55Z</time>
      </trkpt>
      <trkpt lat="45.35731" lon="5.89595">
        <ele>1766.5598144531</ele>
        <time>2010-11-14T09:06:00Z</time>
      </trkpt>
      <trkpt lat="45.35727" lon="5.89586">
        <ele>1765.5986328125</ele>
        <time>2010-11-14T09:06:05Z</time>
      </trkpt>
      <trkpt lat="45.35725" lon="5.89576">
        <ele>1763.1953125</ele>
        <time>2010-11-14T09:06:09Z</time>
      </trkpt>
      <trkpt lat="45.35722" lon="5.89564">
        <ele>1767.0405273438</ele>
        <time>2010-11-14T09:06:16Z</time>
      </trkpt>
      <trkpt lat="45.35722" lon="5.89564">
        <ele>1767.0405273438</ele>
        <time>2010-11-14T09:06:17Z</time>
      </trkpt>
      <trkpt lat="45.35719" lon="5.89562">
        <ele>1764.6372070312</ele>
        <time>2010-11-14T09:06:21Z</time>
      </trkpt>
      <trkpt lat="45.35712" lon="5.89551">
        <ele>1765.5986328125</ele>
        <time>2010-11-14T09:06:29Z</time>
      </trkpt>
      <trkpt lat="45.35711" lon="5.89541">
        <ele>1765.5986328125</ele>
        <time>2010-11-14T09:06:36Z</time>
      </trkpt>
      <trkpt lat="45.3571" lon="5.89532">
        <ele>1764.1564941406</ele>
        <time>2010-11-14T09:06:40Z</time>
      </trkpt>
      <trkpt lat="45.35711" lon="5.89526">
        <ele>1767.0405273438</ele>
        <time>2010-11-14T09:06:43Z</time>
      </trkpt>
      <trkpt lat="45.35711" lon="5.89528">
        <ele>1766.5598144531</ele>
        <time>2010-11-14T09:06:44Z</time>
      </trkpt>
      <trkpt lat="45.3571" lon="5.8953">
        <ele>1766.0791015625</ele>
        <time>2010-11-14T09:06:45Z</time>
      </trkpt>
      <trkpt lat="45.35709" lon="5.8954">
        <ele>1760.7919921875</ele>
        <time>2010-11-14T09:06:48Z</time>
      </trkpt>
      <trkpt lat="45.35708" lon="5.89549">
        <ele>1759.8305664062</ele>
        <time>2010-11-14T09:06:52Z</time>
      </trkpt>
      <trkpt lat="45.35707" lon="5.89553">
        <ele>1758.388671875</ele>
        <time>2010-11-14T09:06:55Z</time>
      </trkpt>
      <trkpt lat="45.35708" lon="5.89558">
        <ele>1754.0627441406</ele>
        <time>2010-11-14T09:06:58Z</time>
      </trkpt>
      <trkpt lat="45.35708" lon="5.89559">
        <ele>1752.1398925781</ele>
        <time>2010-11-14T09:07:00Z</time>
      </trkpt>
      <trkpt lat="45.3571" lon="5.89561">
        <ele>1755.9851074219</ele>
        <time>2010-11-14T09:07:03Z</time>
      </trkpt>
      <trkpt lat="45.35709" lon="5.89562">
        <ele>1759.3500976562</ele>
        <time>2010-11-14T09:07:05Z</time>
      </trkpt>
      <trkpt lat="45.35709" lon="5.89563">
        <ele>1759.8305664062</ele>
        <time>2010-11-14T09:07:06Z</time>
      </trkpt>
      <trkpt lat="45.35707" lon="5.89563">
        <ele>1764.1564941406</ele>
        <time>2010-11-14T09:07:08Z</time>
      </trkpt>
      <trkpt lat="45.35707" lon="5.89562">
        <ele>1762.2338867188</ele>
        <time>2010-11-14T09:07:09Z</time>
      </trkpt>
      <trkpt lat="45.35707" lon="5.89561">
        <ele>1759.3500976562</ele>
        <time>2010-11-14T09:07:11Z</time>
      </trkpt>
      <trkpt lat="45.35706" lon="5.89558">
        <ele>1759.3500976562</ele>
        <time>2010-11-14T09:07:14Z</time>
      </trkpt>
      <trkpt lat="45.35703" lon="5.89553">
        <ele>1755.5046386719</ele>
        <time>2010-11-14T09:07:20Z</time>
      </trkpt>
      <trkpt lat="45.35702" lon="5.89553">
        <ele>1754.5432128906</ele>
        <time>2010-11-14T09:07:22Z</time>
      </trkpt>
      <trkpt lat="45.35701" lon="5.89551">
        <ele>1752.1398925781</ele>
        <time>2010-11-14T09:07:27Z</time>
      </trkpt>
      <trkpt lat="45.35699" lon="5.89545">
        <ele>1752.6206054688</ele>
        <time>2010-11-14T09:07:32Z</time>
      </trkpt>
      <trkpt lat="45.35696" lon="5.89544">
        <ele>1750.2175292969</ele>
        <time>2010-11-14T09:07:35Z</time>
      </trkpt>
      <trkpt lat="45.35693" lon="5.89535">
        <ele>1747.3334960938</ele>
        <time>2010-11-14T09:07:45Z</time>
      </trkpt>
      <trkpt lat="45.35688" lon="5.89536">
        <ele>1747.3334960938</ele>
        <time>2010-11-14T09:07:48Z</time>
      </trkpt>
      <trkpt lat="45.35686" lon="5.89535">
        <ele>1747.8142089844</ele>
        <time>2010-11-14T09:07:50Z</time>
      </trkpt>
      <trkpt lat="45.35685" lon="5.89537">
        <ele>1745.8916015625</ele>
        <time>2010-11-14T09:07:53Z</time>
      </trkpt>
      <trkpt lat="45.35685" lon="5.89538">
        <ele>1744.4494628906</ele>
        <time>2010-11-14T09:07:55Z</time>
      </trkpt>
      <trkpt lat="45.35685" lon="5.89539">
        <ele>1743.48828125</ele>
        <time>2010-11-14T09:07:56Z</time>
      </trkpt>
      <trkpt lat="45.3569" lon="5.89542">
        <ele>1742.0463867188</ele>
        <time>2010-11-14T09:07:58Z</time>
      </trkpt>
      <trkpt lat="45.35692" lon="5.89548">
        <ele>1738.681640625</ele>
        <time>2010-11-14T09:08:05Z</time>
      </trkpt>
      <trkpt lat="45.35692" lon="5.89549">
        <ele>1738.2009277344</ele>
        <time>2010-11-14T09:08:06Z</time>
      </trkpt>
      <trkpt lat="45.35691" lon="5.89555">
        <ele>1740.6042480469</ele>
        <time>2010-11-14T09:08:10Z</time>
      </trkpt>
      <trkpt lat="45.35693" lon="5.89557">
        <ele>1740.1237792969</ele>
        <time>2010-11-14T09:08:12Z</time>
      </trkpt>
      <trkpt lat="45.35695" lon="5.89563">
        <ele>1742.0463867188</ele>
        <time>2010-11-14T09:08:17Z</time>
      </trkpt>
      <trkpt lat="45.35696" lon="5.89569">
        <ele>1742.0463867188</ele>
        <time>2010-11-14T09:08:21Z</time>
      </trkpt>
      <trkpt lat="45.35695" lon="5.89572">
        <ele>1746.3723144531</ele>
        <time>2010-11-14T09:08:23Z</time>
      </trkpt>
      <trkpt lat="45.35693" lon="5.89573">
        <ele>1743.9689941406</ele>
        <time>2010-11-14T09:08:27Z</time>
      </trkpt>
      <trkpt lat="45.35693" lon="5.89572">
        <ele>1743.48828125</ele>
        <time>2010-11-14T09:08:28Z</time>
      </trkpt>
      <trkpt lat="45.35688" lon="5.89566">
        <ele>1741.0849609375</ele>
        <time>2010-11-14T09:08:34Z</time>
      </trkpt>
      <trkpt lat="45.35686" lon="5.89567">
        <ele>1745.4108886719</ele>
        <time>2010-11-14T09:08:38Z</time>
      </trkpt>
      <trkpt lat="45.35686" lon="5.89565">
        <ele>1744.9301757812</ele>
        <time>2010-11-14T09:08:39Z</time>
      </trkpt>
      <trkpt lat="45.35685" lon="5.89564">
        <ele>1741.5656738281</ele>
        <time>2010-11-14T09:08:42Z</time>
      </trkpt>
      <trkpt lat="45.35683" lon="5.89564">
        <ele>1738.681640625</ele>
        <time>2010-11-14T09:08:44Z</time>
      </trkpt>
      <trkpt lat="45.35683" lon="5.89563">
        <ele>1739.162109375</ele>
        <time>2010-11-14T09:08:45Z</time>
      </trkpt>
      <trkpt lat="45.3568" lon="5.89561">
        <ele>1736.7587890625</ele>
        <time>2010-11-14T09:08:49Z</time>
      </trkpt>
      <trkpt lat="45.35679" lon="5.89559">
        <ele>1731.4716796875</ele>
        <time>2010-11-14T09:08:55Z</time>
      </trkpt>
      <trkpt lat="45.35678" lon="5.89558">
        <ele>1728.1071777344</ele>
        <time>2010-11-14T09:08:59Z</time>
      </trkpt>
      <trkpt lat="45.35674" lon="5.8956">
        <ele>1728.1071777344</ele>
        <time>2010-11-14T09:09:07Z</time>
      </trkpt>
      <trkpt lat="45.35672" lon="5.89561">
        <ele>1726.1845703125</ele>
        <time>2010-11-14T09:09:10Z</time>
      </trkpt>
      <trkpt lat="45.35668" lon="5.8956">
        <ele>1728.1071777344</ele>
        <time>2010-11-14T09:09:13Z</time>
      </trkpt>
      <trkpt lat="45.35666" lon="5.89559">
        <ele>1724.7426757812</ele>
        <time>2010-11-14T09:09:16Z</time>
      </trkpt>
      <trkpt lat="45.35666" lon="5.89559">
        <ele>1725.2231445312</ele>
        <time>2010-11-14T09:09:17Z</time>
      </trkpt>
      <trkpt lat="45.35664" lon="5.89559">
        <ele>1727.6264648438</ele>
        <time>2010-11-14T09:09:19Z</time>
      </trkpt>
      <trkpt lat="45.35659" lon="5.89558">
        <ele>1724.2619628906</ele>
        <time>2010-11-14T09:09:23Z</time>
      </trkpt>
      <trkpt lat="45.35657" lon="5.89557">
        <ele>1720.8972167969</ele>
        <time>2010-11-14T09:09:26Z</time>
      </trkpt>
      <trkpt lat="45.3565" lon="5.89558">
        <ele>1717.5324707031</ele>
        <time>2010-11-14T09:09:38Z</time>
      </trkpt>
      <trkpt lat="45.35652" lon="5.89562">
        <ele>1718.4938964844</ele>
        <time>2010-11-14T09:09:41Z</time>
      </trkpt>
      <trkpt lat="45.35653" lon="5.89562">
        <ele>1718.4938964844</ele>
        <time>2010-11-14T09:09:42Z</time>
      </trkpt>
      <trkpt lat="45.35655" lon="5.89564">
        <ele>1717.0520019531</ele>
        <time>2010-11-14T09:09:44Z</time>
      </trkpt>
      <trkpt lat="45.3566" lon="5.89573">
        <ele>1713.6872558594</ele>
        <time>2010-11-14T09:09:54Z</time>
      </trkpt>
      <trkpt lat="45.35661" lon="5.89577">
        <ele>1714.6486816406</ele>
        <time>2010-11-14T09:09:58Z</time>
      </trkpt>
      <trkpt lat="45.35661" lon="5.89578">
        <ele>1711.7648925781</ele>
        <time>2010-11-14T09:10:01Z</time>
      </trkpt>
      <trkpt lat="45.35654" lon="5.89577">
        <ele>1711.7648925781</ele>
        <time>2010-11-14T09:10:09Z</time>
      </trkpt>
      <trkpt lat="45.35653" lon="5.89573">
        <ele>1709.8420410156</ele>
        <time>2010-11-14T09:10:14Z</time>
      </trkpt>
      <trkpt lat="45.35649" lon="5.89571">
        <ele>1708.4001464844</ele>
        <time>2010-11-14T09:10:21Z</time>
      </trkpt>
      <trkpt lat="45.35648" lon="5.89572">
        <ele>1709.3615722656</ele>
        <time>2010-11-14T09:10:23Z</time>
      </trkpt>
      <trkpt lat="45.35646" lon="5.89572">
        <ele>1708.880859375</ele>
        <time>2010-11-14T09:10:24Z</time>
      </trkpt>
      <trkpt lat="45.35643" lon="5.89571">
        <ele>1707.4387207031</ele>
        <time>2010-11-14T09:10:27Z</time>
      </trkpt>
      <trkpt lat="45.35641" lon="5.8957">
        <ele>1705.5161132812</ele>
        <time>2010-11-14T09:10:30Z</time>
      </trkpt>
      <trkpt lat="45.35633" lon="5.89573">
        <ele>1702.6320800781</ele>
        <time>2010-11-14T09:10:44Z</time>
      </trkpt>
      <trkpt lat="45.35635" lon="5.89577">
        <ele>1701.6708984375</ele>
        <time>2010-11-14T09:10:47Z</time>
      </trkpt>
      <trkpt lat="45.35637" lon="5.89583">
        <ele>1699.267578125</ele>
        <time>2010-11-14T09:10:52Z</time>
      </trkpt>
      <trkpt lat="45.35638" lon="5.89584">
        <ele>1699.7482910156</ele>
        <time>2010-11-14T09:10:53Z</time>
      </trkpt>
      <trkpt lat="45.35641" lon="5.89586">
        <ele>1698.3061523438</ele>
        <time>2010-11-14T09:10:57Z</time>
      </trkpt>
      <trkpt lat="45.35643" lon="5.89589">
        <ele>1696.3837890625</ele>
        <time>2010-11-14T09:11:01Z</time>
      </trkpt>
      <trkpt lat="45.35645" lon="5.89594">
        <ele>1694.9416503906</ele>
        <time>2010-11-14T09:11:04Z</time>
      </trkpt>
      <trkpt lat="45.35646" lon="5.896">
        <ele>1691.5769042969</ele>
        <time>2010-11-14T09:11:08Z</time>
      </trkpt>
      <trkpt lat="45.35647" lon="5.89606">
        <ele>1690.6154785156</ele>
        <time>2010-11-14T09:11:12Z</time>
      </trkpt>
      <trkpt lat="45.35651" lon="5.89618">
        <ele>1689.654296875</ele>
        <time>2010-11-14T09:11:24Z</time>
      </trkpt>
      <trkpt lat="45.35653" lon="5.89622">
        <ele>1688.2124023438</ele>
        <time>2010-11-14T09:11:27Z</time>
      </trkpt>
      <trkpt lat="45.35653" lon="5.89626">
        <ele>1687.7316894531</ele>
        <time>2010-11-14T09:11:32Z</time>
      </trkpt>
      <trkpt lat="45.35649" lon="5.89625">
        <ele>1683.8864746094</ele>
        <time>2010-11-14T09:11:37Z</time>
      </trkpt>
      <trkpt lat="45.35644" lon="5.89624">
        <ele>1681.4831542969</ele>
        <time>2010-11-14T09:11:43Z</time>
      </trkpt>
      <trkpt lat="45.35642" lon="5.89625">
        <ele>1680.0412597656</ele>
        <time>2010-11-14T09:11:45Z</time>
      </trkpt>
      <trkpt lat="45.35644" lon="5.89634">
        <ele>1681.4831542969</ele>
        <time>2010-11-14T09:11:55Z</time>
      </trkpt>
      <trkpt lat="45.35644" lon="5.89634">
        <ele>1678.1186523438</ele>
        <time>2010-11-14T09:11:57Z</time>
      </trkpt>
      <trkpt lat="45.35644" lon="5.89635">
        <ele>1678.1186523438</ele>
        <time>2010-11-14T09:11:58Z</time>
      </trkpt>
      <trkpt lat="45.35646" lon="5.8964">
        <ele>1677.1574707031</ele>
        <time>2010-11-14T09:12:08Z</time>
      </trkpt>
      <trkpt lat="45.35647" lon="5.89645">
        <ele>1674.2731933594</ele>
        <time>2010-11-14T09:12:14Z</time>
      </trkpt>
      <trkpt lat="45.35647" lon="5.89645">
        <ele>1674.2731933594</ele>
        <time>2010-11-14T09:12:15Z</time>
      </trkpt>
      <trkpt lat="45.35643" lon="5.89647">
        <ele>1672.3505859375</ele>
        <time>2010-11-14T09:12:20Z</time>
      </trkpt>
      <trkpt lat="45.35637" lon="5.89646">
        <ele>1669.466796875</ele>
        <time>2010-11-14T09:12:31Z</time>
      </trkpt>
      <trkpt lat="45.35631" lon="5.89647">
        <ele>1668.0246582031</ele>
        <time>2010-11-14T09:12:41Z</time>
      </trkpt>
      <trkpt lat="45.35628" lon="5.89642">
        <ele>1666.1020507812</ele>
        <time>2010-11-14T09:12:52Z</time>
      </trkpt>
      <trkpt lat="45.3562" lon="5.89637">
        <ele>1662.2568359375</ele>
        <time>2010-11-14T09:13:01Z</time>
      </trkpt>
      <trkpt lat="45.35619" lon="5.89637">
        <ele>1661.7763671875</ele>
        <time>2010-11-14T09:13:03Z</time>
      </trkpt>
      <trkpt lat="45.35611" lon="5.8964">
        <ele>1660.3342285156</ele>
        <time>2010-11-14T09:13:12Z</time>
      </trkpt>
      <trkpt lat="45.35611" lon="5.89644">
        <ele>1657.4501953125</ele>
        <time>2010-11-14T09:13:15Z</time>
      </trkpt>
      <trkpt lat="45.35614" lon="5.89651">
        <ele>1655.5275878906</ele>
        <time>2010-11-14T09:13:19Z</time>
      </trkpt>
      <trkpt lat="45.35616" lon="5.89655">
        <ele>1654.0856933594</ele>
        <time>2010-11-14T09:13:23Z</time>
      </trkpt>
      <trkpt lat="45.35614" lon="5.89661">
        <ele>1652.6435546875</ele>
        <time>2010-11-14T09:13:30Z</time>
      </trkpt>
      <trkpt lat="45.35614" lon="5.89673">
        <ele>1647.8371582031</ele>
        <time>2010-11-14T09:13:43Z</time>
      </trkpt>
      <trkpt lat="45.35614" lon="5.89678">
        <ele>1645.4338378906</ele>
        <time>2010-11-14T09:13:50Z</time>
      </trkpt>
      <trkpt lat="45.3561" lon="5.89684">
        <ele>1642.5498046875</ele>
        <time>2010-11-14T09:13:58Z</time>
      </trkpt>
      <trkpt lat="45.35611" lon="5.89685">
        <ele>1642.0690917969</ele>
        <time>2010-11-14T09:14:00Z</time>
      </trkpt>
      <trkpt lat="45.35614" lon="5.89689">
        <ele>1640.626953125</ele>
        <time>2010-11-14T09:14:06Z</time>
      </trkpt>
      <trkpt lat="45.35613" lon="5.89696">
        <ele>1639.1850585938</ele>
        <time>2010-11-14T09:14:11Z</time>
      </trkpt>
      <trkpt lat="45.35615" lon="5.89701">
        <ele>1637.7431640625</ele>
        <time>2010-11-14T09:14:14Z</time>
      </trkpt>
      <trkpt lat="45.35614" lon="5.89702">
        <ele>1637.2624511719</ele>
        <time>2010-11-14T09:14:17Z</time>
      </trkpt>
      <trkpt lat="45.35611" lon="5.89703">
        <ele>1635.8205566406</ele>
        <time>2010-11-14T09:14:20Z</time>
      </trkpt>
      <trkpt lat="45.35611" lon="5.89705">
        <ele>1634.859375</ele>
        <time>2010-11-14T09:14:22Z</time>
      </trkpt>
      <trkpt lat="45.35611" lon="5.89711">
        <ele>1631.9753417969</ele>
        <time>2010-11-14T09:14:27Z</time>
      </trkpt>
      <trkpt lat="45.35611" lon="5.89714">
        <ele>1631.4946289062</ele>
        <time>2010-11-14T09:14:29Z</time>
      </trkpt>
      <trkpt lat="45.35611" lon="5.89715">
        <ele>1631.4946289062</ele>
        <time>2010-11-14T09:14:30Z</time>
      </trkpt>
      <trkpt lat="45.35615" lon="5.89729">
        <ele>1627.1687011719</ele>
        <time>2010-11-14T09:14:41Z</time>
      </trkpt>
      <trkpt lat="45.35615" lon="5.8973">
        <ele>1627.1687011719</ele>
        <time>2010-11-14T09:14:42Z</time>
      </trkpt>
      <trkpt lat="45.35619" lon="5.89742">
        <ele>1624.7653808594</ele>
        <time>2010-11-14T09:14:52Z</time>
      </trkpt>
      <trkpt lat="45.35618" lon="5.89748">
        <ele>1623.8039550781</ele>
        <time>2010-11-14T09:14:56Z</time>
      </trkpt>
      <trkpt lat="45.35618" lon="5.89751">
        <ele>1624.7653808594</ele>
        <time>2010-11-14T09:14:58Z</time>
      </trkpt>
      <trkpt lat="45.35618" lon="5.89772">
        <ele>1620.9201660156</ele>
        <time>2010-11-14T09:15:09Z</time>
      </trkpt>
      <trkpt lat="45.35617" lon="5.8978">
        <ele>1619.9587402344</ele>
        <time>2010-11-14T09:15:14Z</time>
      </trkpt>
      <trkpt lat="45.35621" lon="5.89788">
        <ele>1615.6330566406</ele>
        <time>2010-11-14T09:15:25Z</time>
      </trkpt>
      <trkpt lat="45.35625" lon="5.89799">
        <ele>1612.2683105469</ele>
        <time>2010-11-14T09:15:34Z</time>
      </trkpt>
      <trkpt lat="45.35629" lon="5.89812">
        <ele>1609.8647460938</ele>
        <time>2010-11-14T09:15:44Z</time>
      </trkpt>
      <trkpt lat="45.35631" lon="5.89816">
        <ele>1607.4616699219</ele>
        <time>2010-11-14T09:15:48Z</time>
      </trkpt>
      <trkpt lat="45.35634" lon="5.89825">
        <ele>1605.0583496094</ele>
        <time>2010-11-14T09:15:55Z</time>
      </trkpt>
      <trkpt lat="45.35635" lon="5.89832">
        <ele>1605.0583496094</ele>
        <time>2010-11-14T09:16:01Z</time>
      </trkpt>
      <trkpt lat="45.3563" lon="5.89831">
        <ele>1603.1357421875</ele>
        <time>2010-11-14T09:16:06Z</time>
      </trkpt>
      <trkpt lat="45.35628" lon="5.8983">
        <ele>1602.1743164062</ele>
        <time>2010-11-14T09:16:08Z</time>
      </trkpt>
      <trkpt lat="45.35623" lon="5.89827">
        <ele>1600.732421875</ele>
        <time>2010-11-14T09:16:13Z</time>
      </trkpt>
      <trkpt lat="45.3562" lon="5.8983">
        <ele>1601.2131347656</ele>
        <time>2010-11-14T09:16:18Z</time>
      </trkpt>
      <trkpt lat="45.35625" lon="5.89856">
        <ele>1598.3291015625</ele>
        <time>2010-11-14T09:16:29Z</time>
      </trkpt>
      <trkpt lat="45.35627" lon="5.8986">
        <ele>1597.8486328125</ele>
        <time>2010-11-14T09:16:32Z</time>
      </trkpt>
      <trkpt lat="45.35632" lon="5.89874">
        <ele>1594.9643554688</ele>
        <time>2010-11-14T09:16:42Z</time>
      </trkpt>
      <trkpt lat="45.35632" lon="5.89877">
        <ele>1594.9643554688</ele>
        <time>2010-11-14T09:16:43Z</time>
      </trkpt>
      <trkpt lat="45.35633" lon="5.8989">
        <ele>1591.5998535156</ele>
        <time>2010-11-14T09:16:52Z</time>
      </trkpt>
      <trkpt lat="45.35633" lon="5.89893">
        <ele>1590.1579589844</ele>
        <time>2010-11-14T09:16:55Z</time>
      </trkpt>
      <trkpt lat="45.35633" lon="5.89894">
        <ele>1589.1965332031</ele>
        <time>2010-11-14T09:16:57Z</time>
      </trkpt>
      <trkpt lat="45.35632" lon="5.89897">
        <ele>1588.7160644531</ele>
        <time>2010-11-14T09:16:59Z</time>
      </trkpt>
      <trkpt lat="45.3563" lon="5.89904">
        <ele>1586.3127441406</ele>
        <time>2010-11-14T09:17:05Z</time>
      </trkpt>
      <trkpt lat="45.35631" lon="5.89909">
        <ele>1584.8708496094</ele>
        <time>2010-11-14T09:17:08Z</time>
      </trkpt>
      <trkpt lat="45.3563" lon="5.89911">
        <ele>1584.3901367188</ele>
        <time>2010-11-14T09:17:10Z</time>
      </trkpt>
      <trkpt lat="45.35629" lon="5.89914">
        <ele>1583.9094238281</ele>
        <time>2010-11-14T09:17:12Z</time>
      </trkpt>
      <trkpt lat="45.35625" lon="5.89916">
        <ele>1581.0256347656</ele>
        <time>2010-11-14T09:17:19Z</time>
      </trkpt>
      <trkpt lat="45.35627" lon="5.89927">
        <ele>1578.6220703125</ele>
        <time>2010-11-14T09:17:26Z</time>
      </trkpt>
      <trkpt lat="45.35627" lon="5.89934">
        <ele>1576.6994628906</ele>
        <time>2010-11-14T09:17:32Z</time>
      </trkpt>
      <trkpt lat="45.35626" lon="5.89934">
        <ele>1575.7380371094</ele>
        <time>2010-11-14T09:17:33Z</time>
      </trkpt>
      <trkpt lat="45.35624" lon="5.89933">
        <ele>1574.2961425781</ele>
        <time>2010-11-14T09:17:35Z</time>
      </trkpt>
      <trkpt lat="45.35621" lon="5.89933">
        <ele>1575.2573242188</ele>
        <time>2010-11-14T09:17:37Z</time>
      </trkpt>
      <trkpt lat="45.35623" lon="5.89945">
        <ele>1572.8542480469</ele>
        <time>2010-11-14T09:17:47Z</time>
      </trkpt>
      <trkpt lat="45.35622" lon="5.89951">
        <ele>1569.9702148438</ele>
        <time>2010-11-14T09:17:51Z</time>
      </trkpt>
      <trkpt lat="45.35622" lon="5.89953">
        <ele>1571.412109375</ele>
        <time>2010-11-14T09:17:54Z</time>
      </trkpt>
      <trkpt lat="45.35619" lon="5.89955">
        <ele>1569.9702148438</ele>
        <time>2010-11-14T09:17:57Z</time>
      </trkpt>
      <trkpt lat="45.35619" lon="5.89956">
        <ele>1569.9702148438</ele>
        <time>2010-11-14T09:17:58Z</time>
      </trkpt>
      <trkpt lat="45.35617" lon="5.89969">
        <ele>1568.5283203125</ele>
        <time>2010-11-14T09:18:08Z</time>
      </trkpt>
      <trkpt lat="45.35614" lon="5.89972">
        <ele>1569.0090332031</ele>
        <time>2010-11-14T09:18:10Z</time>
      </trkpt>
      <trkpt lat="45.35614" lon="5.89976">
        <ele>1567.5668945312</ele>
        <time>2010-11-14T09:18:13Z</time>
      </trkpt>
      <trkpt lat="45.35615" lon="5.8998">
        <ele>1566.125</ele>
        <time>2010-11-14T09:18:16Z</time>
      </trkpt>
      <trkpt lat="45.35617" lon="5.89993">
        <ele>1563.7214355469</ele>
        <time>2010-11-14T09:18:23Z</time>
      </trkpt>
      <trkpt lat="45.35618" lon="5.90002">
        <ele>1562.2795410156</ele>
        <time>2010-11-14T09:18:28Z</time>
      </trkpt>
      <trkpt lat="45.35622" lon="5.90024">
        <ele>1558.9150390625</ele>
        <time>2010-11-14T09:18:41Z</time>
      </trkpt>
      <trkpt lat="45.35625" lon="5.90039">
        <ele>1556.0310058594</ele>
        <time>2010-11-14T09:18:50Z</time>
      </trkpt>
      <trkpt lat="45.35633" lon="5.90054">
        <ele>1553.6279296875</ele>
        <time>2010-11-14T09:18:59Z</time>
      </trkpt>
      <trkpt lat="45.3564" lon="5.90047">
        <ele>1552.1857910156</ele>
        <time>2010-11-14T09:19:16Z</time>
      </trkpt>
      <trkpt lat="45.35645" lon="5.90043">
        <ele>1554.1086425781</ele>
        <time>2010-11-14T09:20:30Z</time>
      </trkpt>
      <trkpt lat="45.35639" lon="5.90056">
        <ele>1552.1857910156</ele>
        <time>2010-11-14T09:20:54Z</time>
      </trkpt>
      <trkpt lat="45.35638" lon="5.90064">
        <ele>1553.1472167969</ele>
        <time>2010-11-14T09:21:00Z</time>
      </trkpt>
      <trkpt lat="45.35642" lon="5.90072">
        <ele>1549.7827148438</ele>
        <time>2010-11-14T09:21:05Z</time>
      </trkpt>
      <trkpt lat="45.35643" lon="5.90074">
        <ele>1550.7438964844</ele>
        <time>2010-11-14T09:21:07Z</time>
      </trkpt>
      <trkpt lat="45.35643" lon="5.9008">
        <ele>1548.8212890625</ele>
        <time>2010-11-14T09:21:12Z</time>
      </trkpt>
      <trkpt lat="45.35653" lon="5.9009">
        <ele>1547.3791503906</ele>
        <time>2010-11-14T09:21:18Z</time>
      </trkpt>
      <trkpt lat="45.35654" lon="5.90095">
        <ele>1546.41796875</ele>
        <time>2010-11-14T09:21:20Z</time>
      </trkpt>
      <trkpt lat="45.35656" lon="5.90101">
        <ele>1543.0532226562</ele>
        <time>2010-11-14T09:21:26Z</time>
      </trkpt>
      <trkpt lat="45.35658" lon="5.90104">
        <ele>1542.5727539062</ele>
        <time>2010-11-14T09:21:28Z</time>
      </trkpt>
      <trkpt lat="45.35659" lon="5.90106">
        <ele>1540.6499023438</ele>
        <time>2010-11-14T09:21:30Z</time>
      </trkpt>
      <trkpt lat="45.35667" lon="5.90118">
        <ele>1538.2468261719</ele>
        <time>2010-11-14T09:21:42Z</time>
      </trkpt>
      <trkpt lat="45.35672" lon="5.90124">
        <ele>1534.8823242188</ele>
        <time>2010-11-14T09:21:49Z</time>
      </trkpt>
      <trkpt lat="45.35673" lon="5.90127">
        <ele>1533.9208984375</ele>
        <time>2010-11-14T09:21:50Z</time>
      </trkpt>
      <trkpt lat="45.35678" lon="5.9014">
        <ele>1529.5947265625</ele>
        <time>2010-11-14T09:21:59Z</time>
      </trkpt>
      <trkpt lat="45.35679" lon="5.90143">
        <ele>1529.1140136719</ele>
        <time>2010-11-14T09:22:01Z</time>
      </trkpt>
      <trkpt lat="45.35678" lon="5.9015">
        <ele>1527.6721191406</ele>
        <time>2010-11-14T09:22:11Z</time>
      </trkpt>
      <trkpt lat="45.35671" lon="5.90149">
        <ele>1524.7883300781</ele>
        <time>2010-11-14T09:22:26Z</time>
      </trkpt>
      <trkpt lat="45.35661" lon="5.90147">
        <ele>1520.9431152344</ele>
        <time>2010-11-14T09:22:37Z</time>
      </trkpt>
      <trkpt lat="45.3566" lon="5.90147">
        <ele>1520.9431152344</ele>
        <time>2010-11-14T09:22:38Z</time>
      </trkpt>
      <trkpt lat="45.35649" lon="5.90148">
        <ele>1518.0590820312</ele>
        <time>2010-11-14T09:22:49Z</time>
      </trkpt>
      <trkpt lat="45.35641" lon="5.90149">
        <ele>1518.5397949219</ele>
        <time>2010-11-14T09:22:55Z</time>
      </trkpt>
      <trkpt lat="45.35635" lon="5.9015">
        <ele>1514.6943359375</ele>
        <time>2010-11-14T09:22:59Z</time>
      </trkpt>
      <trkpt lat="45.35625" lon="5.90153">
        <ele>1510.8491210938</ele>
        <time>2010-11-14T09:23:07Z</time>
      </trkpt>
      <trkpt lat="45.35623" lon="5.90152">
        <ele>1510.3684082031</ele>
        <time>2010-11-14T09:23:09Z</time>
      </trkpt>
      <trkpt lat="45.35613" lon="5.90157">
        <ele>1506.5231933594</ele>
        <time>2010-11-14T09:23:17Z</time>
      </trkpt>
      <trkpt lat="45.35603" lon="5.90157">
        <ele>1503.1586914062</ele>
        <time>2010-11-14T09:23:26Z</time>
      </trkpt>
      <trkpt lat="45.35602" lon="5.90157">
        <ele>1504.1201171875</ele>
        <time>2010-11-14T09:23:28Z</time>
      </trkpt>
      <trkpt lat="45.3559" lon="5.90158">
        <ele>1499.7939453125</ele>
        <time>2010-11-14T09:23:36Z</time>
      </trkpt>
      <trkpt lat="45.35586" lon="5.90157">
        <ele>1498.8325195312</ele>
        <time>2010-11-14T09:23:40Z</time>
      </trkpt>
      <trkpt lat="45.3558" lon="5.90157">
        <ele>1497.390625</ele>
        <time>2010-11-14T09:23:44Z</time>
      </trkpt>
      <trkpt lat="45.35573" lon="5.90159">
        <ele>1495.9487304688</ele>
        <time>2010-11-14T09:23:48Z</time>
      </trkpt>
      <trkpt lat="45.35567" lon="5.90158">
        <ele>1491.6228027344</ele>
        <time>2010-11-14T09:23:56Z</time>
      </trkpt>
      <trkpt lat="45.35553" lon="5.90156">
        <ele>1489.2194824219</ele>
        <time>2010-11-14T09:24:06Z</time>
      </trkpt>
      <trkpt lat="45.35549" lon="5.90157">
        <ele>1487.296875</ele>
        <time>2010-11-14T09:24:09Z</time>
      </trkpt>
      <trkpt lat="45.3554" lon="5.90158">
        <ele>1484.4130859375</ele>
        <time>2010-11-14T09:24:15Z</time>
      </trkpt>
      <trkpt lat="45.35537" lon="5.90158">
        <ele>1484.4130859375</ele>
        <time>2010-11-14T09:24:17Z</time>
      </trkpt>
      <trkpt lat="45.35526" lon="5.90158">
        <ele>1480.5676269531</ele>
        <time>2010-11-14T09:24:23Z</time>
      </trkpt>
      <trkpt lat="45.35516" lon="5.90155">
        <ele>1479.6062011719</ele>
        <time>2010-11-14T09:24:30Z</time>
      </trkpt>
      <trkpt lat="45.35508" lon="5.90154">
        <ele>1475.7609863281</ele>
        <time>2010-11-14T09:24:36Z</time>
      </trkpt>
      <trkpt lat="45.35507" lon="5.90153">
        <ele>1475.7609863281</ele>
        <time>2010-11-14T09:24:37Z</time>
      </trkpt>
      <trkpt lat="45.35505" lon="5.90152">
        <ele>1476.2416992188</ele>
        <time>2010-11-14T09:24:39Z</time>
      </trkpt>
      <trkpt lat="45.35502" lon="5.90152">
        <ele>1474.7998046875</ele>
        <time>2010-11-14T09:24:41Z</time>
      </trkpt>
      <trkpt lat="45.35496" lon="5.90153">
        <ele>1471.9157714844</ele>
        <time>2010-11-14T09:24:48Z</time>
      </trkpt>
      <trkpt lat="45.35492" lon="5.90157">
        <ele>1470.9545898438</ele>
        <time>2010-11-14T09:24:52Z</time>
      </trkpt>
      <trkpt lat="45.35487" lon="5.90168">
        <ele>1471.9157714844</ele>
        <time>2010-11-14T09:24:58Z</time>
      </trkpt>
      <trkpt lat="45.35488" lon="5.90175">
        <ele>1469.0319824219</ele>
        <time>2010-11-14T09:25:01Z</time>
      </trkpt>
      <trkpt lat="45.35486" lon="5.90178">
        <ele>1470.4738769531</ele>
        <time>2010-11-14T09:25:03Z</time>
      </trkpt>
      <trkpt lat="45.35486" lon="5.90178">
        <ele>1469.5126953125</ele>
        <time>2010-11-14T09:25:04Z</time>
      </trkpt>
      <trkpt lat="45.35484" lon="5.90184">
        <ele>1466.6284179688</ele>
        <time>2010-11-14T09:25:07Z</time>
      </trkpt>
      <trkpt lat="45.35477" lon="5.90205">
        <ele>1465.1865234375</ele>
        <time>2010-11-14T09:25:18Z</time>
      </trkpt>
      <trkpt lat="45.35475" lon="5.90215">
        <ele>1463.7443847656</ele>
        <time>2010-11-14T09:25:23Z</time>
      </trkpt>
      <trkpt lat="45.35474" lon="5.90234">
        <ele>1464.2250976562</ele>
        <time>2010-11-14T09:25:33Z</time>
      </trkpt>
      <trkpt lat="45.35474" lon="5.90242">
        <ele>1460.3798828125</ele>
        <time>2010-11-14T09:25:37Z</time>
      </trkpt>
      <trkpt lat="45.35473" lon="5.90252">
        <ele>1458.4572753906</ele>
        <time>2010-11-14T09:25:43Z</time>
      </trkpt>
      <trkpt lat="45.35472" lon="5.90266">
        <ele>1456.0539550781</ele>
        <time>2010-11-14T09:25:52Z</time>
      </trkpt>
      <trkpt lat="45.35471" lon="5.9028">
        <ele>1453.6508789062</ele>
        <time>2010-11-14T09:26:11Z</time>
      </trkpt>
      <trkpt lat="45.35471" lon="5.90281">
        <ele>1454.1315917969</ele>
        <time>2010-11-14T09:26:12Z</time>
      </trkpt>
      <trkpt lat="45.35471" lon="5.90287">
        <ele>1451.2473144531</ele>
        <time>2010-11-14T09:26:17Z</time>
      </trkpt>
      <trkpt lat="45.35471" lon="5.90289">
        <ele>1451.2473144531</ele>
        <time>2010-11-14T09:26:20Z</time>
      </trkpt>
      <trkpt lat="45.35474" lon="5.90289">
        <ele>1450.7666015625</ele>
        <time>2010-11-14T09:26:25Z</time>
      </trkpt>
      <trkpt lat="45.35478" lon="5.90286">
        <ele>1448.8439941406</ele>
        <time>2010-11-14T09:26:29Z</time>
      </trkpt>
      <trkpt lat="45.3548" lon="5.90282">
        <ele>1449.3247070312</ele>
        <time>2010-11-14T09:26:32Z</time>
      </trkpt>
      <trkpt lat="45.35487" lon="5.90276">
        <ele>1445.9602050781</ele>
        <time>2010-11-14T09:26:38Z</time>
      </trkpt>
      <trkpt lat="45.35502" lon="5.90268">
        <ele>1444.5180664062</ele>
        <time>2010-11-14T09:26:50Z</time>
      </trkpt>
      <trkpt lat="45.35513" lon="5.90273">
        <ele>1440.6728515625</ele>
        <time>2010-11-14T09:27:00Z</time>
      </trkpt>
      <trkpt lat="45.35514" lon="5.90278">
        <ele>1440.1923828125</ele>
        <time>2010-11-14T09:27:04Z</time>
      </trkpt>
      <trkpt lat="45.35519" lon="5.90282">
        <ele>1438.7504882812</ele>
        <time>2010-11-14T09:27:11Z</time>
      </trkpt>
      <trkpt lat="45.35522" lon="5.90288">
        <ele>1436.8276367188</ele>
        <time>2010-11-14T09:27:18Z</time>
      </trkpt>
      <trkpt lat="45.35522" lon="5.90294">
        <ele>1435.3854980469</ele>
        <time>2010-11-14T09:27:21Z</time>
      </trkpt>
      <trkpt lat="45.35521" lon="5.90297">
        <ele>1434.9050292969</ele>
        <time>2010-11-14T09:27:24Z</time>
      </trkpt>
      <trkpt lat="45.35518" lon="5.903">
        <ele>1432.9821777344</ele>
        <time>2010-11-14T09:27:28Z</time>
      </trkpt>
      <trkpt lat="45.35514" lon="5.90312">
        <ele>1431.0598144531</ele>
        <time>2010-11-14T09:27:37Z</time>
      </trkpt>
      <trkpt lat="45.35516" lon="5.90323">
        <ele>1427.2145996094</ele>
        <time>2010-11-14T09:27:49Z</time>
      </trkpt>
      <trkpt lat="45.35526" lon="5.90329">
        <ele>1423.8498535156</ele>
        <time>2010-11-14T09:27:58Z</time>
      </trkpt>
      <trkpt lat="45.35529" lon="5.90331">
        <ele>1423.3693847656</ele>
        <time>2010-11-14T09:28:00Z</time>
      </trkpt>
      <trkpt lat="45.3554" lon="5.90334">
        <ele>1420.0046386719</ele>
        <time>2010-11-14T09:28:10Z</time>
      </trkpt>
      <trkpt lat="45.35543" lon="5.90338">
        <ele>1419.0432128906</ele>
        <time>2010-11-14T09:28:14Z</time>
      </trkpt>
      <trkpt lat="45.35556" lon="5.90335">
        <ele>1417.6010742188</ele>
        <time>2010-11-14T09:28:22Z</time>
      </trkpt>
      <trkpt lat="45.35559" lon="5.90336">
        <ele>1417.1206054688</ele>
        <time>2010-11-14T09:28:24Z</time>
      </trkpt>
      <trkpt lat="45.35559" lon="5.90341">
        <ele>1415.6787109375</ele>
        <time>2010-11-14T09:28:27Z</time>
      </trkpt>
      <trkpt lat="45.35566" lon="5.90349">
        <ele>1412.3139648438</ele>
        <time>2010-11-14T09:28:36Z</time>
      </trkpt>
      <trkpt lat="45.35575" lon="5.90355">
        <ele>1409.9106445312</ele>
        <time>2010-11-14T09:28:43Z</time>
      </trkpt>
      <trkpt lat="45.35578" lon="5.90357">
        <ele>1408.9494628906</ele>
        <time>2010-11-14T09:28:46Z</time>
      </trkpt>
      <trkpt lat="45.35588" lon="5.9037">
        <ele>1407.98828125</ele>
        <time>2010-11-14T09:28:53Z</time>
      </trkpt>
      <trkpt lat="45.35598" lon="5.90376">
        <ele>1406.0654296875</ele>
        <time>2010-11-14T09:29:02Z</time>
      </trkpt>
      <trkpt lat="45.35604" lon="5.90381">
        <ele>1405.1042480469</ele>
        <time>2010-11-14T09:29:06Z</time>
      </trkpt>
      <trkpt lat="45.35609" lon="5.90383">
        <ele>1404.6235351562</ele>
        <time>2010-11-14T09:29:10Z</time>
      </trkpt>
      <trkpt lat="45.35615" lon="5.90391">
        <ele>1402.7006835938</ele>
        <time>2010-11-14T09:29:14Z</time>
      </trkpt>
      <trkpt lat="45.3562" lon="5.90407">
        <ele>1402.2199707031</ele>
        <time>2010-11-14T09:29:21Z</time>
      </trkpt>
      <trkpt lat="45.35623" lon="5.90408">
        <ele>1401.7395019531</ele>
        <time>2010-11-14T09:29:23Z</time>
      </trkpt>
      <trkpt lat="45.35627" lon="5.90413">
        <ele>1400.2976074219</ele>
        <time>2010-11-14T09:29:28Z</time>
      </trkpt>
      <trkpt lat="45.35632" lon="5.90415">
        <ele>1400.2976074219</ele>
        <time>2010-11-14T09:29:31Z</time>
      </trkpt>
      <trkpt lat="45.35637" lon="5.90415">
        <ele>1399.3361816406</ele>
        <time>2010-11-14T09:29:33Z</time>
      </trkpt>
      <trkpt lat="45.35639" lon="5.90426">
        <ele>1397.4135742188</ele>
        <time>2010-11-14T09:29:39Z</time>
      </trkpt>
      <trkpt lat="45.3564" lon="5.90431">
        <ele>1396.9328613281</ele>
        <time>2010-11-14T09:29:41Z</time>
      </trkpt>
      <trkpt lat="45.35642" lon="5.90437">
        <ele>1396.9328613281</ele>
        <time>2010-11-14T09:29:44Z</time>
      </trkpt>
      <trkpt lat="45.35646" lon="5.90444">
        <ele>1396.4523925781</ele>
        <time>2010-11-14T09:29:47Z</time>
      </trkpt>
      <trkpt lat="45.35651" lon="5.90451">
        <ele>1395.9716796875</ele>
        <time>2010-11-14T09:29:52Z</time>
      </trkpt>
      <trkpt lat="45.35653" lon="5.90473">
        <ele>1392.1264648438</ele>
        <time>2010-11-14T09:30:05Z</time>
      </trkpt>
      <trkpt lat="45.35654" lon="5.90474">
        <ele>1392.1264648438</ele>
        <time>2010-11-14T09:30:06Z</time>
      </trkpt>
      <trkpt lat="45.35654" lon="5.90476">
        <ele>1392.1264648438</ele>
        <time>2010-11-14T09:30:07Z</time>
      </trkpt>
      <trkpt lat="45.35655" lon="5.90486">
        <ele>1390.2038574219</ele>
        <time>2010-11-14T09:30:11Z</time>
      </trkpt>
      <trkpt lat="45.35655" lon="5.90492">
        <ele>1390.2038574219</ele>
        <time>2010-11-14T09:30:14Z</time>
      </trkpt>
      <trkpt lat="45.35663" lon="5.90497">
        <ele>1387.3195800781</ele>
        <time>2010-11-14T09:30:18Z</time>
      </trkpt>
      <trkpt lat="45.35665" lon="5.905">
        <ele>1387.3195800781</ele>
        <time>2010-11-14T09:30:20Z</time>
      </trkpt>
      <trkpt lat="45.35664" lon="5.90528">
        <ele>1384.9165039062</ele>
        <time>2010-11-14T09:30:30Z</time>
      </trkpt>
      <trkpt lat="45.35667" lon="5.90533">
        <ele>1382.9936523438</ele>
        <time>2010-11-14T09:30:33Z</time>
      </trkpt>
      <trkpt lat="45.35667" lon="5.90538">
        <ele>1383.4743652344</ele>
        <time>2010-11-14T09:30:35Z</time>
      </trkpt>
      <trkpt lat="45.3567" lon="5.90554">
        <ele>1382.0324707031</ele>
        <time>2010-11-14T09:30:41Z</time>
      </trkpt>
      <trkpt lat="45.35678" lon="5.90567">
        <ele>1378.66796875</ele>
        <time>2010-11-14T09:30:51Z</time>
      </trkpt>
      <trkpt lat="45.35677" lon="5.90583">
        <ele>1377.7065429688</ele>
        <time>2010-11-14T09:30:58Z</time>
      </trkpt>
      <trkpt lat="45.35679" lon="5.90591">
        <ele>1377.2260742188</ele>
        <time>2010-11-14T09:31:03Z</time>
      </trkpt>
      <trkpt lat="45.35684" lon="5.90603">
        <ele>1374.8227539062</ele>
        <time>2010-11-14T09:31:10Z</time>
      </trkpt>
      <trkpt lat="45.35693" lon="5.90607">
        <ele>1374.3420410156</ele>
        <time>2010-11-14T09:31:19Z</time>
      </trkpt>
      <trkpt lat="45.35704" lon="5.90617">
        <ele>1370.9772949219</ele>
        <time>2010-11-14T09:31:29Z</time>
      </trkpt>
      <trkpt lat="45.35713" lon="5.90625">
        <ele>1368.5739746094</ele>
        <time>2010-11-14T09:31:38Z</time>
      </trkpt>
      <trkpt lat="45.35714" lon="5.90632">
        <ele>1367.1320800781</ele>
        <time>2010-11-14T09:31:42Z</time>
      </trkpt>
      <trkpt lat="45.35717" lon="5.90636">
        <ele>1365.2094726562</ele>
        <time>2010-11-14T09:31:45Z</time>
      </trkpt>
      <trkpt lat="45.35723" lon="5.90646">
        <ele>1363.2868652344</ele>
        <time>2010-11-14T09:31:51Z</time>
      </trkpt>
      <trkpt lat="45.35728" lon="5.90656">
        <ele>1359.9221191406</ele>
        <time>2010-11-14T09:32:00Z</time>
      </trkpt>
      <trkpt lat="45.3573" lon="5.90656">
        <ele>1358.4802246094</ele>
        <time>2010-11-14T09:32:03Z</time>
      </trkpt>
      <trkpt lat="45.3573" lon="5.90658">
        <ele>1359.4416503906</ele>
        <time>2010-11-14T09:32:05Z</time>
      </trkpt>
      <trkpt lat="45.35732" lon="5.90662">
        <ele>1357.9997558594</ele>
        <time>2010-11-14T09:32:08Z</time>
      </trkpt>
      <trkpt lat="45.35734" lon="5.90667">
        <ele>1357.9997558594</ele>
        <time>2010-11-14T09:32:11Z</time>
      </trkpt>
      <trkpt lat="45.35735" lon="5.90674">
        <ele>1359.4416503906</ele>
        <time>2010-11-14T09:32:15Z</time>
      </trkpt>
      <trkpt lat="45.35738" lon="5.90677">
        <ele>1356.0769042969</ele>
        <time>2010-11-14T09:32:20Z</time>
      </trkpt>
      <trkpt lat="45.3574" lon="5.90683">
        <ele>1353.6735839844</ele>
        <time>2010-11-14T09:32:25Z</time>
      </trkpt>
      <trkpt lat="45.35745" lon="5.90696">
        <ele>1351.7509765625</ele>
        <time>2010-11-14T09:32:31Z</time>
      </trkpt>
      <trkpt lat="45.35744" lon="5.90703">
        <ele>1351.7509765625</ele>
        <time>2010-11-14T09:32:34Z</time>
      </trkpt>
      <trkpt lat="45.35747" lon="5.90708">
        <ele>1350.7895507812</ele>
        <time>2010-11-14T09:32:38Z</time>
      </trkpt>
      <trkpt lat="45.35752" lon="5.90712">
        <ele>1351.2702636719</ele>
        <time>2010-11-14T09:32:44Z</time>
      </trkpt>
      <trkpt lat="45.35755" lon="5.90715">
        <ele>1349.8283691406</ele>
        <time>2010-11-14T09:32:46Z</time>
      </trkpt>
      <trkpt lat="45.35756" lon="5.90725">
        <ele>1347.4250488281</ele>
        <time>2010-11-14T09:32:52Z</time>
      </trkpt>
      <trkpt lat="45.35759" lon="5.90723">
        <ele>1346.4638671875</ele>
        <time>2010-11-14T09:32:53Z</time>
      </trkpt>
      <trkpt lat="45.35763" lon="5.90721">
        <ele>1345.9831542969</ele>
        <time>2010-11-14T09:32:55Z</time>
      </trkpt>
      <trkpt lat="45.35766" lon="5.90749">
        <ele>1342.1379394531</ele>
        <time>2010-11-14T09:33:07Z</time>
      </trkpt>
      <trkpt lat="45.35767" lon="5.90751">
        <ele>1341.6572265625</ele>
        <time>2010-11-14T09:33:08Z</time>
      </trkpt>
      <trkpt lat="45.35768" lon="5.90755">
        <ele>1340.2153320312</ele>
        <time>2010-11-14T09:33:12Z</time>
      </trkpt>
      <trkpt lat="45.35773" lon="5.90764">
        <ele>1339.734375</ele>
        <time>2010-11-14T09:33:18Z</time>
      </trkpt>
      <trkpt lat="45.35778" lon="5.90769">
        <ele>1337.8117675781</ele>
        <time>2010-11-14T09:33:25Z</time>
      </trkpt>
      <trkpt lat="45.35789" lon="5.9078">
        <ele>1334.447265625</ele>
        <time>2010-11-14T09:33:36Z</time>
      </trkpt>
      <trkpt lat="45.35792" lon="5.90782">
        <ele>1333.4858398438</ele>
        <time>2010-11-14T09:33:38Z</time>
      </trkpt>
      <trkpt lat="45.35795" lon="5.90784">
        <ele>1332.0439453125</ele>
        <time>2010-11-14T09:33:42Z</time>
      </trkpt>
      <trkpt lat="45.35807" lon="5.90787">
        <ele>1332.5246582031</ele>
        <time>2010-11-14T09:33:50Z</time>
      </trkpt>
      <trkpt lat="45.35809" lon="5.90786">
        <ele>1331.0827636719</ele>
        <time>2010-11-14T09:33:54Z</time>
      </trkpt>
      <trkpt lat="45.35815" lon="5.90798">
        <ele>1328.6794433594</ele>
        <time>2010-11-14T09:34:08Z</time>
      </trkpt>
      <trkpt lat="45.35815" lon="5.90801">
        <ele>1325.3146972656</ele>
        <time>2010-11-14T09:34:14Z</time>
      </trkpt>
      <trkpt lat="45.35815" lon="5.90805">
        <ele>1323.8725585938</ele>
        <time>2010-11-14T09:34:17Z</time>
      </trkpt>
      <trkpt lat="45.35814" lon="5.90808">
        <ele>1320.5080566406</ele>
        <time>2010-11-14T09:34:21Z</time>
      </trkpt>
      <trkpt lat="45.35811" lon="5.90816">
        <ele>1317.6240234375</ele>
        <time>2010-11-14T09:34:31Z</time>
      </trkpt>
      <trkpt lat="45.35812" lon="5.90822">
        <ele>1315.2209472656</ele>
        <time>2010-11-14T09:34:34Z</time>
      </trkpt>
      <trkpt lat="45.35812" lon="5.90841">
        <ele>1310.8950195312</ele>
        <time>2010-11-14T09:34:45Z</time>
      </trkpt>
      <trkpt lat="45.35812" lon="5.90844">
        <ele>1309.93359375</ele>
        <time>2010-11-14T09:34:47Z</time>
      </trkpt>
      <trkpt lat="45.35811" lon="5.90851">
        <ele>1307.5302734375</ele>
        <time>2010-11-14T09:34:53Z</time>
      </trkpt>
      <trkpt lat="45.3581" lon="5.90853">
        <ele>1309.453125</ele>
        <time>2010-11-14T09:34:55Z</time>
      </trkpt>
      <trkpt lat="45.3581" lon="5.90855">
        <ele>1308.4916992188</ele>
        <time>2010-11-14T09:34:56Z</time>
      </trkpt>
      <trkpt lat="45.35812" lon="5.9086">
        <ele>1305.6076660156</ele>
        <time>2010-11-14T09:35:00Z</time>
      </trkpt>
      <trkpt lat="45.35811" lon="5.90863">
        <ele>1304.1657714844</ele>
        <time>2010-11-14T09:35:03Z</time>
      </trkpt>
      <trkpt lat="45.35812" lon="5.90872">
        <ele>1302.7236328125</ele>
        <time>2010-11-14T09:35:10Z</time>
      </trkpt>
      <trkpt lat="45.35813" lon="5.9088">
        <ele>1298.3977050781</ele>
        <time>2010-11-14T09:35:16Z</time>
      </trkpt>
      <trkpt lat="45.35814" lon="5.90883">
        <ele>1296.9558105469</ele>
        <time>2010-11-14T09:35:18Z</time>
      </trkpt>
      <trkpt lat="45.35815" lon="5.90892">
        <ele>1293.1105957031</ele>
        <time>2010-11-14T09:35:24Z</time>
      </trkpt>
      <trkpt lat="45.35818" lon="5.90898">
        <ele>1291.1877441406</ele>
        <time>2010-11-14T09:35:29Z</time>
      </trkpt>
      <trkpt lat="45.35818" lon="5.90898">
        <ele>1292.6301269531</ele>
        <time>2010-11-14T09:35:44Z</time>
      </trkpt>
      <trkpt lat="45.35814" lon="5.90893">
        <ele>1289.7458496094</ele>
        <time>2010-11-14T09:35:57Z</time>
      </trkpt>
      <trkpt lat="45.35793" lon="5.90881">
        <ele>1286.8618164062</ele>
        <time>2010-11-14T09:36:13Z</time>
      </trkpt>
      <trkpt lat="45.3578" lon="5.90879">
        <ele>1284.4587402344</ele>
        <time>2010-11-14T09:36:17Z</time>
      </trkpt>
      <trkpt lat="45.35773" lon="5.90879">
        <ele>1283.9780273438</ele>
        <time>2010-11-14T09:36:20Z</time>
      </trkpt>
      <trkpt lat="45.35765" lon="5.90879">
        <ele>1282.0554199219</ele>
        <time>2010-11-14T09:36:29Z</time>
      </trkpt>
      <trkpt lat="45.3576" lon="5.90886">
        <ele>1279.6520996094</ele>
        <time>2010-11-14T09:36:35Z</time>
      </trkpt>
      <trkpt lat="45.3576" lon="5.90887">
        <ele>1279.6520996094</ele>
        <time>2010-11-14T09:36:36Z</time>
      </trkpt>
      <trkpt lat="45.35762" lon="5.90894">
        <ele>1277.7294921875</ele>
        <time>2010-11-14T09:36:40Z</time>
      </trkpt>
      <trkpt lat="45.35766" lon="5.90906">
        <ele>1274.3647460938</ele>
        <time>2010-11-14T09:36:47Z</time>
      </trkpt>
      <trkpt lat="45.35765" lon="5.90905">
        <ele>1273.8840332031</ele>
        <time>2010-11-14T09:36:48Z</time>
      </trkpt>
      <trkpt lat="45.35757" lon="5.9091">
        <ele>1274.3647460938</ele>
        <time>2010-11-14T09:36:52Z</time>
      </trkpt>
      <trkpt lat="45.35738" lon="5.90894">
        <ele>1274.3647460938</ele>
        <time>2010-11-14T09:37:07Z</time>
      </trkpt>
      <trkpt lat="45.35733" lon="5.90886">
        <ele>1272.4421386719</ele>
        <time>2010-11-14T09:37:14Z</time>
      </trkpt>
      <trkpt lat="45.35733" lon="5.90887">
        <ele>1272.4421386719</ele>
        <time>2010-11-14T09:37:15Z</time>
      </trkpt>
      <trkpt lat="45.35723" lon="5.90886">
        <ele>1270.0388183594</ele>
        <time>2010-11-14T09:37:21Z</time>
      </trkpt>
      <trkpt lat="45.35713" lon="5.90886">
        <ele>1267.6354980469</ele>
        <time>2010-11-14T09:37:30Z</time>
      </trkpt>
      <trkpt lat="45.3571" lon="5.90892">
        <ele>1264.7517089844</ele>
        <time>2010-11-14T09:37:37Z</time>
      </trkpt>
      <trkpt lat="45.35707" lon="5.90899">
        <ele>1261.3872070312</ele>
        <time>2010-11-14T09:37:45Z</time>
      </trkpt>
      <trkpt lat="45.35703" lon="5.90907">
        <ele>1258.0224609375</ele>
        <time>2010-11-14T09:37:54Z</time>
      </trkpt>
      <trkpt lat="45.3569" lon="5.90925">
        <ele>1255.1384277344</ele>
        <time>2010-11-14T09:38:05Z</time>
      </trkpt>
      <trkpt lat="45.35692" lon="5.90926">
        <ele>1253.6965332031</ele>
        <time>2010-11-14T09:38:07Z</time>
      </trkpt>
      <trkpt lat="45.35691" lon="5.90928">
        <ele>1253.2158203125</ele>
        <time>2010-11-14T09:38:09Z</time>
      </trkpt>
      <trkpt lat="45.35691" lon="5.90932">
        <ele>1252.2543945312</ele>
        <time>2010-11-14T09:38:12Z</time>
      </trkpt>
      <trkpt lat="45.35692" lon="5.90938">
        <ele>1251.2932128906</ele>
        <time>2010-11-14T09:38:15Z</time>
      </trkpt>
      <trkpt lat="45.35691" lon="5.90943">
        <ele>1249.3706054688</ele>
        <time>2010-11-14T09:38:19Z</time>
      </trkpt>
      <trkpt lat="45.3569" lon="5.90946">
        <ele>1249.3706054688</ele>
        <time>2010-11-14T09:38:20Z</time>
      </trkpt>
      <trkpt lat="45.35686" lon="5.90956">
        <ele>1247.9287109375</ele>
        <time>2010-11-14T09:38:26Z</time>
      </trkpt>
      <trkpt lat="45.35688" lon="5.90959">
        <ele>1248.8898925781</ele>
        <time>2010-11-14T09:38:30Z</time>
      </trkpt>
      <trkpt lat="45.3569" lon="5.9097">
        <ele>1247.4479980469</ele>
        <time>2010-11-14T09:38:36Z</time>
      </trkpt>
      <trkpt lat="45.35689" lon="5.90976">
        <ele>1245.0446777344</ele>
        <time>2010-11-14T09:38:40Z</time>
      </trkpt>
      <trkpt lat="45.35689" lon="5.90983">
        <ele>1242.6413574219</ele>
        <time>2010-11-14T09:38:44Z</time>
      </trkpt>
      <trkpt lat="45.35687" lon="5.9099">
        <ele>1241.6799316406</ele>
        <time>2010-11-14T09:38:49Z</time>
      </trkpt>
      <trkpt lat="45.3569" lon="5.91005">
        <ele>1238.3154296875</ele>
        <time>2010-11-14T09:38:59Z</time>
      </trkpt>
      <trkpt lat="45.35691" lon="5.91008">
        <ele>1236.8732910156</ele>
        <time>2010-11-14T09:39:02Z</time>
      </trkpt>
      <trkpt lat="45.35694" lon="5.91025">
        <ele>1233.5087890625</ele>
        <time>2010-11-14T09:39:14Z</time>
      </trkpt>
      <trkpt lat="45.35694" lon="5.91036">
        <ele>1230.1442871094</ele>
        <time>2010-11-14T09:39:22Z</time>
      </trkpt>
      <trkpt lat="45.35703" lon="5.91059">
        <ele>1227.2602539062</ele>
        <time>2010-11-14T09:39:37Z</time>
      </trkpt>
      <trkpt lat="45.35709" lon="5.91067">
        <ele>1223.4150390625</ele>
        <time>2010-11-14T09:39:47Z</time>
      </trkpt>
      <trkpt lat="45.35711" lon="5.91079">
        <ele>1222.4536132812</ele>
        <time>2010-11-14T09:39:53Z</time>
      </trkpt>
      <trkpt lat="45.35712" lon="5.91099">
        <ele>1219.5698242188</ele>
        <time>2010-11-14T09:40:03Z</time>
      </trkpt>
      <trkpt lat="45.35714" lon="5.91108">
        <ele>1218.1276855469</ele>
        <time>2010-11-14T09:40:09Z</time>
      </trkpt>
      <trkpt lat="45.35717" lon="5.91116">
        <ele>1216.205078125</ele>
        <time>2010-11-14T09:40:15Z</time>
      </trkpt>
      <trkpt lat="45.35722" lon="5.91128">
        <ele>1214.2824707031</ele>
        <time>2010-11-14T09:40:22Z</time>
      </trkpt>
      <trkpt lat="45.35724" lon="5.91133">
        <ele>1211.3984375</ele>
        <time>2010-11-14T09:40:35Z</time>
      </trkpt>
      <trkpt lat="45.35726" lon="5.91144">
        <ele>1209.9562988281</ele>
        <time>2010-11-14T09:40:42Z</time>
      </trkpt>
      <trkpt lat="45.35727" lon="5.91156">
        <ele>1207.0725097656</ele>
        <time>2010-11-14T09:40:51Z</time>
      </trkpt>
      <trkpt lat="45.35725" lon="5.91171">
        <ele>1203.7080078125</ele>
        <time>2010-11-14T09:41:02Z</time>
      </trkpt>
      <trkpt lat="45.35726" lon="5.91183">
        <ele>1199.8627929688</ele>
        <time>2010-11-14T09:41:17Z</time>
      </trkpt>
      <trkpt lat="45.35726" lon="5.91195">
        <ele>1196.9787597656</ele>
        <time>2010-11-14T09:41:27Z</time>
      </trkpt>
      <trkpt lat="45.35727" lon="5.91209">
        <ele>1193.6140136719</ele>
        <time>2010-11-14T09:41:38Z</time>
      </trkpt>
      <trkpt lat="45.35726" lon="5.91226">
        <ele>1189.7687988281</ele>
        <time>2010-11-14T09:41:51Z</time>
      </trkpt>
      <trkpt lat="45.35726" lon="5.91235">
        <ele>1187.8461914062</ele>
        <time>2010-11-14T09:41:58Z</time>
      </trkpt>
      <trkpt lat="45.35725" lon="5.91241">
        <ele>1186.404296875</ele>
        <time>2010-11-14T09:42:02Z</time>
      </trkpt>
      <trkpt lat="45.35724" lon="5.91254">
        <ele>1184.0009765625</ele>
        <time>2010-11-14T09:42:09Z</time>
      </trkpt>
      <trkpt lat="45.35724" lon="5.91258">
        <ele>1183.5202636719</ele>
        <time>2010-11-14T09:42:12Z</time>
      </trkpt>
      <trkpt lat="45.35723" lon="5.91269">
        <ele>1180.6364746094</ele>
        <time>2010-11-14T09:42:20Z</time>
      </trkpt>
      <trkpt lat="45.35722" lon="5.91275">
        <ele>1179.1940917969</ele>
        <time>2010-11-14T09:42:25Z</time>
      </trkpt>
      <trkpt lat="45.35722" lon="5.9128">
        <ele>1177.2717285156</ele>
        <time>2010-11-14T09:42:29Z</time>
      </trkpt>
      <trkpt lat="45.35721" lon="5.91284">
        <ele>1175.8295898438</ele>
        <time>2010-11-14T09:42:33Z</time>
      </trkpt>
      <trkpt lat="45.35722" lon="5.91298">
        <ele>1171.5036621094</ele>
        <time>2010-11-14T09:42:46Z</time>
      </trkpt>
      <trkpt lat="45.35722" lon="5.91297">
        <ele>1171.5036621094</ele>
        <time>2010-11-14T09:42:47Z</time>
      </trkpt>
      <trkpt lat="45.35721" lon="5.91311">
        <ele>1168.6198730469</ele>
        <time>2010-11-14T09:42:56Z</time>
      </trkpt>
      <trkpt lat="45.3572" lon="5.9132">
        <ele>1166.697265625</ele>
        <time>2010-11-14T09:43:02Z</time>
      </trkpt>
      <trkpt lat="45.35719" lon="5.91336">
        <ele>1163.8129882812</ele>
        <time>2010-11-14T09:43:13Z</time>
      </trkpt>
      <trkpt lat="45.35718" lon="5.91339">
        <ele>1162.8518066406</ele>
        <time>2010-11-14T09:43:16Z</time>
      </trkpt>
      <trkpt lat="45.35719" lon="5.91357">
        <ele>1160.4484863281</ele>
        <time>2010-11-14T09:43:25Z</time>
      </trkpt>
      <trkpt lat="45.35721" lon="5.91365">
        <ele>1159.4873046875</ele>
        <time>2010-11-14T09:43:29Z</time>
      </trkpt>
      <trkpt lat="45.35718" lon="5.91381">
        <ele>1156.6032714844</ele>
        <time>2010-11-14T09:43:40Z</time>
      </trkpt>
      <trkpt lat="45.35719" lon="5.91401">
        <ele>1153.2387695312</ele>
        <time>2010-11-14T09:43:53Z</time>
      </trkpt>
      <trkpt lat="45.35716" lon="5.91409">
        <ele>1151.3161621094</ele>
        <time>2010-11-14T09:44:01Z</time>
      </trkpt>
      <trkpt lat="45.35711" lon="5.91428">
        <ele>1147.9514160156</ele>
        <time>2010-11-14T09:44:13Z</time>
      </trkpt>
      <trkpt lat="45.35707" lon="5.91446">
        <ele>1144.5866699219</ele>
        <time>2010-11-14T09:44:27Z</time>
      </trkpt>
      <trkpt lat="45.35707" lon="5.91456">
        <ele>1143.1447753906</ele>
        <time>2010-11-14T09:44:32Z</time>
      </trkpt>
      <trkpt lat="45.35708" lon="5.91467">
        <ele>1140.7414550781</ele>
        <time>2010-11-14T09:44:40Z</time>
      </trkpt>
      <trkpt lat="45.35707" lon="5.9148">
        <ele>1137.8576660156</ele>
        <time>2010-11-14T09:44:47Z</time>
      </trkpt>
      <trkpt lat="45.357" lon="5.91501">
        <ele>1134.4931640625</ele>
        <time>2010-11-14T09:44:59Z</time>
      </trkpt>
      <trkpt lat="45.35691" lon="5.91514">
        <ele>1131.1284179688</ele>
        <time>2010-11-14T09:45:10Z</time>
      </trkpt>
      <trkpt lat="45.3569" lon="5.91518">
        <ele>1129.6862792969</ele>
        <time>2010-11-14T09:45:12Z</time>
      </trkpt>
      <trkpt lat="45.35688" lon="5.91525">
        <ele>1128.2443847656</ele>
        <time>2010-11-14T09:45:19Z</time>
      </trkpt>
      <trkpt lat="45.35685" lon="5.91533">
        <ele>1127.283203125</ele>
        <time>2010-11-14T09:45:23Z</time>
      </trkpt>
      <trkpt lat="45.35681" lon="5.91537">
        <ele>1126.8024902344</ele>
        <time>2010-11-14T09:45:25Z</time>
      </trkpt>
      <trkpt lat="45.35676" lon="5.91545">
        <ele>1125.3603515625</ele>
        <time>2010-11-14T09:45:29Z</time>
      </trkpt>
      <trkpt lat="45.35674" lon="5.91547">
        <ele>1124.3991699219</ele>
        <time>2010-11-14T09:45:32Z</time>
      </trkpt>
      <trkpt lat="45.35669" lon="5.91556">
        <ele>1122.4765625</ele>
        <time>2010-11-14T09:45:41Z</time>
      </trkpt>
      <trkpt lat="45.35669" lon="5.9156">
        <ele>1121.5151367188</ele>
        <time>2010-11-14T09:45:44Z</time>
      </trkpt>
      <trkpt lat="45.35662" lon="5.91568">
        <ele>1120.0732421875</ele>
        <time>2010-11-14T09:45:49Z</time>
      </trkpt>
      <trkpt lat="45.35658" lon="5.91573">
        <ele>1118.6313476562</ele>
        <time>2010-11-14T09:45:52Z</time>
      </trkpt>
      <trkpt lat="45.35654" lon="5.91577">
        <ele>1116.7087402344</ele>
        <time>2010-11-14T09:45:58Z</time>
      </trkpt>
      <trkpt lat="45.35654" lon="5.91579">
        <ele>1115.7473144531</ele>
        <time>2010-11-14T09:46:01Z</time>
      </trkpt>
      <trkpt lat="45.35651" lon="5.91586">
        <ele>1114.7858886719</ele>
        <time>2010-11-14T09:46:05Z</time>
      </trkpt>
      <trkpt lat="45.35645" lon="5.91592">
        <ele>1112.3825683594</ele>
        <time>2010-11-14T09:46:12Z</time>
      </trkpt>
      <trkpt lat="45.35643" lon="5.91598">
        <ele>1111.9020996094</ele>
        <time>2010-11-14T09:46:17Z</time>
      </trkpt>
      <trkpt lat="45.35637" lon="5.91605">
        <ele>1111.4213867188</ele>
        <time>2010-11-14T09:46:21Z</time>
      </trkpt>
      <trkpt lat="45.35632" lon="5.91622">
        <ele>1109.0180664062</ele>
        <time>2010-11-14T09:46:30Z</time>
      </trkpt>
      <trkpt lat="45.35622" lon="5.91638">
        <ele>1106.6147460938</ele>
        <time>2010-11-14T09:46:42Z</time>
      </trkpt>
      <trkpt lat="45.35612" lon="5.91653">
        <ele>1104.6921386719</ele>
        <time>2010-11-14T09:46:54Z</time>
      </trkpt>
      <trkpt lat="45.3561" lon="5.91656">
        <ele>1104.2116699219</ele>
        <time>2010-11-14T09:46:57Z</time>
      </trkpt>
      <trkpt lat="45.3561" lon="5.91662">
        <ele>1102.76953125</ele>
        <time>2010-11-14T09:47:00Z</time>
      </trkpt>
      <trkpt lat="45.35607" lon="5.9167">
        <ele>1102.2888183594</ele>
        <time>2010-11-14T09:47:05Z</time>
      </trkpt>
      <trkpt lat="45.356" lon="5.91678">
        <ele>1100.3664550781</ele>
        <time>2010-11-14T09:47:11Z</time>
      </trkpt>
      <trkpt lat="45.35596" lon="5.9169">
        <ele>1098.443359375</ele>
        <time>2010-11-14T09:47:20Z</time>
      </trkpt>
      <trkpt lat="45.35585" lon="5.91699">
        <ele>1097.4821777344</ele>
        <time>2010-11-14T09:47:26Z</time>
      </trkpt>
      <trkpt lat="45.35583" lon="5.91699">
        <ele>1096.5209960938</ele>
        <time>2010-11-14T09:47:28Z</time>
      </trkpt>
      <trkpt lat="45.3558" lon="5.91704">
        <ele>1094.1176757812</ele>
        <time>2010-11-14T09:47:36Z</time>
      </trkpt>
      <trkpt lat="45.35582" lon="5.91711">
        <ele>1093.15625</ele>
        <time>2010-11-14T09:47:39Z</time>
      </trkpt>
      <trkpt lat="45.35584" lon="5.91726">
        <ele>1090.7529296875</ele>
        <time>2010-11-14T09:47:48Z</time>
      </trkpt>
      <trkpt lat="45.35584" lon="5.9173">
        <ele>1089.3110351562</ele>
        <time>2010-11-14T09:47:51Z</time>
      </trkpt>
      <trkpt lat="45.35589" lon="5.91743">
        <ele>1085.9465332031</ele>
        <time>2010-11-14T09:48:03Z</time>
      </trkpt>
      <trkpt lat="45.35591" lon="5.91746">
        <ele>1084.9853515625</ele>
        <time>2010-11-14T09:48:05Z</time>
      </trkpt>
      <trkpt lat="45.3559" lon="5.91751">
        <ele>1084.5046386719</ele>
        <time>2010-11-14T09:48:13Z</time>
      </trkpt>
      <trkpt lat="45.35586" lon="5.91759">
        <ele>1084.0239257812</ele>
        <time>2010-11-14T09:48:18Z</time>
      </trkpt>
      <trkpt lat="45.35588" lon="5.91768">
        <ele>1082.5817871094</ele>
        <time>2010-11-14T09:48:23Z</time>
      </trkpt>
      <trkpt lat="45.3559" lon="5.91775">
        <ele>1080.6591796875</ele>
        <time>2010-11-14T09:48:28Z</time>
      </trkpt>
      <trkpt lat="45.35593" lon="5.91782">
        <ele>1079.6977539062</ele>
        <time>2010-11-14T09:48:32Z</time>
      </trkpt>
      <trkpt lat="45.35594" lon="5.91785">
        <ele>1079.2170410156</ele>
        <time>2010-11-14T09:48:35Z</time>
      </trkpt>
      <trkpt lat="45.35593" lon="5.91793">
        <ele>1079.2170410156</ele>
        <time>2010-11-14T09:48:37Z</time>
      </trkpt>
      <trkpt lat="45.35593" lon="5.91819">
        <ele>1075.3718261719</ele>
        <time>2010-11-14T09:48:48Z</time>
      </trkpt>
      <trkpt lat="45.35594" lon="5.91823">
        <ele>1074.4106445312</ele>
        <time>2010-11-14T09:48:52Z</time>
      </trkpt>
      <trkpt lat="45.35591" lon="5.91829">
        <ele>1073.9299316406</ele>
        <time>2010-11-14T09:49:00Z</time>
      </trkpt>
      <trkpt lat="45.35595" lon="5.91841">
        <ele>1072.96875</ele>
        <time>2010-11-14T09:49:06Z</time>
      </trkpt>
      <trkpt lat="45.35595" lon="5.91856">
        <ele>1072.0073242188</ele>
        <time>2010-11-14T09:49:12Z</time>
      </trkpt>
      <trkpt lat="45.35596" lon="5.91868">
        <ele>1070.5654296875</ele>
        <time>2010-11-14T09:49:20Z</time>
      </trkpt>
      <trkpt lat="45.35596" lon="5.91881">
        <ele>1070.5654296875</ele>
        <time>2010-11-14T09:49:26Z</time>
      </trkpt>
    </trkseg>
  </trk>
</gpx>